Mimouni, Mohamed (2013): Radiosonde measurements from station Tamanrasset (2013-04) [dataset]. National Meteorological Office of Algeria, PANGAEA, https://doi.org/10.1594/PANGAEA.811771
Always quote citation above when using data! You can download the citation in several formats below.
Published: 2013-05-17 • DOI registered: 2013-06-14
Other version:
Mimouni, Mohamed (2013): BSRN Station-to-archive file for station Tamanrasset (2013-04). ftp://ftp.bsrn.awi.de/tam/tam0413.dat.gz
Project(s):
Coverage:
Latitude: 22.790300 * Longitude: 5.529200
Date/Time Start: 2013-04-01T00:00:00 * Date/Time End: 2013-04-30T12:00:00
Minimum ALTITUDE: 1377 m * Maximum ALTITUDE: 26000 m
Event(s):
TAM (Tamanrasset) * Latitude: 22.790300 * Longitude: 5.529200 * Date/Time: 2000-03-01T00:00:00 * Elevation: 1385.0 m * Location: Algeria * Method/Device: Monitoring station (MONS) * Comment: BSRN station no: 42; Surface type: desert, rock; Topography type: flat, rural; Horizon: doi:10.1594/PANGAEA.669526; Station scientist: Sidi BAIKA (s.baika@meteo.dz)
Comment:
Start location: Tamanrasset; Distance from radiation site: 10 km
Parameter(s):
| # | Name | Short Name | Unit | Principal Investigator | Method/Device | Comment |
|---|---|---|---|---|---|---|
| 1 | DATE/TIME | Date/Time | Geocode | |||
| 2 | ALTITUDE | Altitude | m | Geocode | ||
| 3 | Pressure, at given altitude | PPPP | hPa | Mimouni, Mohamed | Radiosonde, Vaisala, RS92 | |
| 4 | Temperature, air | TTT | °C | Mimouni, Mohamed | Radiosonde, Vaisala, RS92 | |
| 5 | Dew/frost point | TdTdTd | °C | Mimouni, Mohamed | Radiosonde, Vaisala, RS92 | |
| 6 | Wind direction | dd | deg | Mimouni, Mohamed | Radiosonde, Vaisala, RS92 | |
| 7 | Wind speed | ff | m/s | Mimouni, Mohamed | Radiosonde, Vaisala, RS92 |
License:
Size:
12973 data points
Data
| 1 Date/Time | 2 Altitude [m] | 3 PPPP [hPa] | 4 TTT [°C] | 5 TdTdTd [°C] | 6 dd [deg] | 7 ff [m/s] |
|---|---|---|---|---|---|---|
| 2013-04-01T00:00 | 1377 | 866 | 18.8 | -3.3 | 180 | 1 |
| 2013-04-01T00:00 | 1500 | 853 | 22.9 | -5.9 | 168 | 3 |
| 2013-04-01T00:00 | 1535 | 850 | 22.7 | -7.1 | 170 | 4 |
| 2013-04-01T00:00 | 2000 | 805 | 18.8 | -7.5 | 152 | 6 |
| 2013-04-01T00:00 | 2057 | 800 | 18.2 | -8.0 | 148 | 7 |
| 2013-04-01T00:00 | 2327 | 775 | 15.7 | -7.8 | 148 | 5 |
| 2013-04-01T00:00 | 2500 | 759 | 14.0 | -7.3 | 134 | 5 |
| 2013-04-01T00:00 | 3000 | 715 | 9.7 | -7.9 | 220 | 1 |
| 2013-04-01T00:00 | 3178 | 700 | 8.0 | -8.1 | 270 | 2 |
| 2013-04-01T00:00 | 4000 | 633 | 0.5 | -11.2 | 286 | 3 |
| 2013-04-01T00:00 | 4426 | 600 | 1.8 | -32.1 | 254 | 7 |
| 2013-04-01T00:00 | 5000 | 559 | -2.1 | -39.0 | 268 | 6 |
| 2013-04-01T00:00 | 5500 | 524 | -6.1 | -39.8 | 265 | 8 |
| 2013-04-01T00:00 | 5868 | 500 | -8.1 | -38.0 | 283 | 9 |
| 2013-04-01T00:00 | 6000 | 492 | -9.3 | -40.4 | 285 | 9 |
| 2013-04-01T00:00 | 7000 | 431 | -17.4 | -42.9 | 273 | 11 |
| 2013-04-01T00:00 | 7552 | 400 | -21.7 | -45.4 | 302 | 8 |
| 2013-04-01T00:00 | 8000 | 376 | -25.3 | -41.4 | 320 | 12 |
| 2013-04-01T00:00 | 9000 | 327 | -33.7 | -51.0 | 321 | 16 |
| 2013-04-01T00:00 | 9598 | 300 | -38.0 | -49.6 | 341 | 21 |
| 2013-04-01T00:00 | 10000 | 283 | -40.7 | -53.6 | 352 | 29 |
| 2013-04-01T00:00 | 10830 | 250 | -46.9 | -60.6 | 349 | 41 |
| 2013-04-01T00:00 | 11000 | 244 | -48.4 | -62.7 | 349 | 41 |
| 2013-04-01T00:00 | 12000 | 209 | -51.2 | -74.3 | 336 | 16 |
| 2013-04-01T00:00 | 12286 | 200 | -51.8 | -78.2 | 316 | 18 |
| 2013-04-01T00:00 | 13000 | 179 | -56.1 | -81.4 | 323 | 23 |
| 2013-04-01T00:00 | 14000 | 153 | -60.1 | -86.9 | 281 | 20 |
| 2013-04-01T00:00 | 14111 | 150 | -61.0 | -85.2 | 275 | 21 |
| 2013-04-01T00:00 | 15000 | 130 | -66.7 | -87.9 | 282 | 25 |
| 2013-04-01T00:00 | 15472 | 120 | -68.7 | -88.2 | 300 | 19 |
| 2013-04-01T00:00 | 16000 | 110 | -72.7 | -90.4 | 285 | 17 |
| 2013-04-01T00:00 | 16544 | 100 | -73.6 | -90.3 | 301 | 17 |
| 2013-04-01T00:00 | 17000 | 93 | -71.9 | -88.9 | 302 | 15 |
| 2013-04-01T00:00 | 17162 | 90 | -72.9 | -89.7 | 291 | 13 |
| 2013-04-01T00:00 | 17845 | 80 | -75.3 | -92.6 | 313 | 12 |
| 2013-04-01T00:00 | 18000 | 78 | -75.1 | -92.4 | 302 | 10 |
| 2013-04-01T00:00 | 18219 | 75 | -76.8 | -93.8 | 271 | 8 |
| 2013-04-01T00:00 | 18617 | 70 | -75.0 | -92.4 | 277 | 13 |
| 2013-04-01T00:00 | 19000 | 66 | -73.9 | -91.4 | 312 | 7 |
| 2013-04-01T00:00 | 19517 | 60 | -72.5 | -91.3 | 294 | 2 |
| 2013-04-01T00:00 | 20000 | 55 | -68.3 | -89.2 | 165 | 10 |
| 2013-04-01T00:00 | 20608 | 50 | -66.5 | -89.5 | 176 | 9 |
| 2013-04-01T00:00 | 21988 | 40 | -59.7 | -90.6 | 234 | 2 |
| 2013-04-01T00:00 | 22000 | 40 | -59.6 | -90.5 | 232 | 2 |
| 2013-04-01T12:00 | 1377 | 866 | 27.9 | -1.1 | 110 | 3 |
| 2013-04-01T12:00 | 1500 | 854 | 24.7 | -6.5 | 110 | 3 |
| 2013-04-01T12:00 | 1536 | 850 | 24.3 | -5.8 | 118 | 4 |
| 2013-04-01T12:00 | 2000 | 806 | 19.4 | -7.0 | 161 | 4 |
| 2013-04-01T12:00 | 2060 | 800 | 18.0 | -7.0 | 16 | 4 |
| 2013-04-01T12:00 | 2330 | 775 | 16.1 | -7.5 | 139 | 4 |
| 2013-04-01T12:00 | 2500 | 760 | 14.3 | -8.3 | 153 | 3 |
| 2013-04-01T12:00 | 3000 | 716 | 9.6 | -9.0 | 170 | 5 |
| 2013-04-01T12:00 | 3181 | 700 | 7.9 | -9.9 | 177 | 4 |
| 2013-04-01T12:00 | 4000 | 633 | 3.3 | -29.3 | 292 | 4 |
| 2013-04-01T12:00 | 4434 | 600 | 2.2 | -31.8 | 275 | 9 |
| 2013-04-01T12:00 | 5000 | 559 | -2.0 | -34.9 | 242 | 11 |
| 2013-04-01T12:00 | 5500 | 525 | -6.0 | -41.8 | 260 | 8 |
| 2013-04-01T12:00 | 5875 | 500 | -8.7 | -41.8 | 258 | 11 |
| 2013-04-01T12:00 | 6000 | 492 | -9.3 | -40.4 | 259 | 12 |
| 2013-04-01T12:00 | 7000 | 432 | -14.7 | -46.2 | 289 | 14 |
| 2013-04-01T12:00 | 7570 | 400 | -19.9 | -39.4 | 305 | 15 |
| 2013-04-01T12:00 | 8000 | 377 | -23.5 | -43.0 | 304 | 19 |
| 2013-04-01T12:00 | 9000 | 328 | -31.5 | -40.2 | 308 | 19 |
| 2013-04-01T12:00 | 9632 | 300 | -36.5 | -45.8 | 323 | 22 |
| 2013-04-01T12:00 | 10000 | 284 | -39.3 | -51.3 | 328 | 24 |
| 2013-04-01T12:00 | 10868 | 250 | -46.9 | -55.8 | 336 | 27 |
| 2013-04-01T12:00 | 11000 | 245 | -48.1 | -55.4 | 336 | 28 |
| 2013-04-01T12:00 | 12000 | 210 | -53.6 | -73.0 | 330 | 34 |
| 2013-04-01T12:00 | 12313 | 200 | -54.4 | -76.9 | 327 | 29 |
| 2013-04-01T12:00 | 13000 | 180 | -54.6 | -80.3 | 324 | 25 |
| 2013-04-01T12:00 | 14000 | 153 | -60.0 | -84.4 | 307 | 18 |
| 2013-04-01T12:00 | 14138 | 150 | -61.2 | -85.4 | 298 | 17 |
| 2013-04-01T12:00 | 15000 | 130 | -68.0 | -89.0 | 280 | 21 |
| 2013-04-01T12:00 | 15491 | 120 | -71.0 | -90.1 | 293 | 28 |
| 2013-04-01T12:00 | 16000 | 110 | -73.5 | -91.1 | 315 | 21 |
| 2013-04-01T12:00 | 16556 | 100 | -76.5 | -92.7 | 307 | 18 |
| 2013-04-01T12:00 | 17000 | 93 | -75.9 | -92.2 | 319 | 20 |
| 2013-04-01T12:00 | 17164 | 90 | -76.0 | -92.3 | 312 | 16 |
| 2013-04-01T12:00 | 17846 | 80 | -76.9 | -93.9 | 264 | 4 |
| 2013-04-01T12:00 | 18000 | 78 | -78.3 | -95.0 | 242 | 7 |
| 2013-04-01T12:00 | 18214 | 75 | -78.7 | -95.4 | 280 | 8 |
| 2013-04-01T12:00 | 18608 | 70 | -78.3 | -95.1 | 301 | 7 |
| 2013-04-01T12:00 | 19000 | 65 | -72.3 | -90.1 | 320 | 3 |
| 2013-04-01T12:00 | 19509 | 60 | -69.1 | -89.8 | 290 | 6 |
| 2013-04-01T12:00 | 20000 | 55 | -64.7 | -88.0 | 314 | 5 |
| 2013-04-01T12:00 | 20625 | 50 | -61.8 | -92.1 | 74 | 1 |
| 2013-04-01T12:00 | 22000 | 40 | -59.7 | -90.6 | 153 | 4 |
| 2013-04-01T12:00 | 22010 | 40 | -59.6 | -90.5 | 155 | 3 |
| 2013-04-01T12:00 | 23799 | 30 | -60.5 | -91.2 | 164 | 8 |
| 2013-04-01T12:00 | 24000 | 29 | -61.2 | -91.7 | 139 | 5 |
| 2013-04-02T00:00 | 1377 | 865 | 17.7 | -6.2 | 50 | 1 |
| 2013-04-02T00:00 | 1500 | 853 | 24.4 | -7.9 | 270 | 5 |
| 2013-04-02T00:00 | 1527 | 850 | 24.4 | -7.9 | 257 | 6 |
| 2013-04-02T00:00 | 2000 | 805 | 20.2 | -7.2 | 246 | 5 |
| 2013-04-02T00:00 | 2051 | 800 | 19.0 | -7.0 | 25 | 4 |
| 2013-04-02T00:00 | 2323 | 775 | 17.3 | -8.7 | 263 | 6 |
| 2013-04-02T00:00 | 2500 | 759 | 15.6 | -8.6 | 262 | 7 |
| 2013-04-02T00:00 | 3000 | 715 | 10.8 | -9.5 | 280 | 6 |
| 2013-04-02T00:00 | 3178 | 700 | 9.1 | -9.9 | 282 | 6 |
| 2013-04-02T00:00 | 4000 | 633 | 3.8 | -21.3 | 285 | 7 |
| 2013-04-02T00:00 | 4435 | 600 | 3.6 | -29.1 | 257 | 11 |
| 2013-04-02T00:00 | 5000 | 559 | 0.3 | -40.1 | 272 | 8 |
| 2013-04-02T00:00 | 5500 | 525 | -2.9 | -42.4 | 283 | 11 |
| 2013-04-02T00:00 | 5890 | 500 | -5.8 | -41.7 | 276 | 10 |
| 2013-04-02T00:00 | 6000 | 493 | -6.6 | -42.3 | 283 | 9 |
| 2013-04-02T00:00 | 7000 | 433 | -13.2 | -37.6 | 287 | 17 |
| 2013-04-02T00:00 | 7595 | 400 | -18.5 | -38.9 | 279 | 18 |
| 2013-04-02T00:00 | 8000 | 379 | -21.3 | -45.0 | 277 | 17 |
| 2013-04-02T00:00 | 9000 | 330 | -29.6 | -48.1 | 278 | 18 |
| 2013-04-02T00:00 | 9671 | 300 | -35.5 | -44.2 | 287 | 14 |
| 2013-04-02T00:00 | 10000 | 286 | -38.2 | -43.4 | 283 | 12 |
| 2013-04-02T00:00 | 10913 | 250 | -45.7 | -51.2 | 313 | 20 |
| 2013-04-02T00:00 | 11000 | 247 | -46.6 | -51.7 | 316 | 22 |
| 2013-04-02T00:00 | 12000 | 212 | -52.6 | -66.7 | 322 | 29 |
| 2013-04-02T00:00 | 12365 | 200 | -53.4 | -69.4 | 328 | 31 |
| 2013-04-02T00:00 | 13000 | 181 | -55.7 | -76.6 | 327 | 30 |
| 2013-04-02T00:00 | 14000 | 155 | -60.8 | -81.9 | 296 | 20 |
| 2013-04-02T00:00 | 14184 | 150 | -61.1 | -83.6 | 287 | 17 |
| 2013-04-02T00:00 | 15000 | 131 | -67.7 | -87.5 | 281 | 20 |
| 2013-04-02T00:00 | 15536 | 120 | -71.7 | -88.7 | 274 | 23 |
| 2013-04-02T00:00 | 16000 | 111 | -74.5 | -89.0 | 288 | 20 |
| 2013-04-02T00:00 | 16596 | 100 | -75.4 | -89.8 | 288 | 11 |
| 2013-04-02T00:00 | 17000 | 93 | -74.4 | -88.9 | 319 | 13 |
| 2013-04-02T00:00 | 17208 | 90 | -74.9 | -90.0 | 330 | 8 |
| 2013-04-02T00:00 | 17887 | 80 | -77.8 | -92.4 | 163 | 5 |
| 2013-04-02T00:00 | 18000 | 78 | -78.6 | -93.1 | 183 | 6 |
| 2013-04-02T00:00 | 18254 | 75 | -79.6 | -93.9 | 235 | 6 |
| 2013-04-02T00:00 | 18647 | 70 | -77.1 | -91.3 | 208 | 1 |
| 2013-04-02T00:00 | 19000 | 66 | -73.9 | -89.1 | 90 | 1 |
| 2013-04-02T00:00 | 19540 | 60 | -73.8 | -90.5 | 262 | 8 |
| 2013-04-02T00:00 | 20000 | 56 | -65.9 | -86.0 | 156 | 2 |
| 2013-04-02T00:00 | 20636 | 50 | -64.3 | -87.8 | 253 | 4 |
| 2013-04-02T00:00 | 22000 | 40 | -62.2 | -92.4 | 283 | 8 |
| 2013-04-02T00:00 | 22016 | 40 | -62.2 | -92.4 | 284 | 8 |
| 2013-04-02T00:00 | 23822 | 30 | -57.2 | -88.9 | 86 | 13 |
| 2013-04-02T12:00 | 1377 | 865 | 28.4 | -3.7 | 290 | 6 |
| 2013-04-02T12:00 | 1500 | 853 | 25.9 | -9.3 | 278 | 7 |
| 2013-04-02T12:00 | 1531 | 850 | 25.5 | -9.6 | 276 | 8 |
| 2013-04-02T12:00 | 2000 | 805 | 21.2 | -9.3 | 280 | 7 |
| 2013-04-02T12:00 | 2057 | 800 | 20.0 | -9.0 | 28 | 6 |
| 2013-04-02T12:00 | 2329 | 775 | 17.6 | -10.1 | 294 | 6 |
| 2013-04-02T12:00 | 2500 | 760 | 16.0 | -10.6 | 291 | 6 |
| 2013-04-02T12:00 | 3000 | 716 | 11.0 | -11.1 | 287 | 6 |
| 2013-04-02T12:00 | 3184 | 700 | 9.3 | -11.9 | 285 | 6 |
| 2013-04-02T12:00 | 4000 | 634 | 5.6 | -33.5 | 253 | 11 |
| 2013-04-02T12:00 | 4443 | 600 | 4.1 | -41.4 | 282 | 11 |
| 2013-04-02T12:00 | 5000 | 560 | -0.3 | -37.7 | 278 | 13 |
| 2013-04-02T12:00 | 5500 | 526 | -3.3 | -39.9 | 286 | 14 |
| 2013-04-02T12:00 | 5895 | 500 | -4.6 | -47.3 | 287 | 17 |
| 2013-04-02T12:00 | 6000 | 493 | -5.4 | -44.1 | 285 | 18 |
| 2013-04-02T12:00 | 7000 | 434 | -11.8 | -48.7 | 310 | 19 |
| 2013-04-02T12:00 | 7610 | 400 | -16.6 | -49.7 | 300 | 15 |
| 2013-04-02T12:00 | 8000 | 380 | -19.9 | -52.1 | 299 | 15 |
| 2013-04-02T12:00 | 9000 | 331 | -29.0 | -55.6 | 297 | 16 |
| 2013-04-02T12:00 | 9692 | 300 | -35.2 | -60.4 | 304 | 18 |
| 2013-04-02T12:00 | 10000 | 287 | -37.6 | -59.1 | 305 | 19 |
| 2013-04-02T12:00 | 10937 | 250 | -43.9 | -60.3 | 311 | 28 |
| 2013-04-02T12:00 | 11000 | 248 | -44.5 | -60.7 | 310 | 28 |
| 2013-04-02T12:00 | 12000 | 213 | -49.9 | -70.9 | 308 | 28 |
| 2013-04-02T12:00 | 12405 | 200 | -52.1 | -75.0 | 317 | 30 |
| 2013-04-02T12:00 | 13000 | 182 | -55.8 | -77.9 | 313 | 30 |
| 2013-04-02T12:00 | 14000 | 155 | -62.5 | -83.3 | 304 | 20 |
| 2013-04-02T12:00 | 14216 | 150 | -64.5 | -84.9 | 300 | 20 |
| 2013-04-02T12:00 | 15000 | 132 | -69.8 | -87.2 | 271 | 26 |
| 2013-04-02T12:00 | 15552 | 120 | -72.8 | -88.9 | 276 | 24 |
| 2013-04-02T12:00 | 16000 | 111 | -74.8 | -90.5 | 294 | 21 |
| 2013-04-02T12:00 | 16609 | 100 | -75.8 | -91.4 | 311 | 19 |
| 2013-04-02T12:00 | 17000 | 93 | -77.6 | -92.9 | 304 | 14 |
| 2013-04-02T12:00 | 17214 | 90 | -77.9 | -93.1 | 299 | 13 |
| 2013-04-02T12:00 | 17883 | 80 | -79.4 | -94.4 | 279 | 10 |
| 2013-04-02T12:00 | 18000 | 78 | -79.4 | -94.4 | 294 | 12 |
| 2013-04-02T12:00 | 18250 | 75 | -78.3 | -93.5 | 312 | 11 |
| 2013-04-02T12:00 | 18646 | 70 | -76.6 | -92.8 | 261 | 4 |
| 2013-04-02T12:00 | 19000 | 66 | -76.2 | -93.3 | 202 | 4 |
| 2013-04-03T00:00 | 1377 | 864 | 18.4 | -8.7 | 10 | 3 |
| 2013-04-03T00:00 | 1500 | 852 | 24.4 | -10.4 | 330 | 8 |
| 2013-04-03T00:00 | 1522 | 850 | 24.4 | -10.5 | 324 | 8 |
| 2013-04-03T00:00 | 2000 | 804 | 20.2 | -11.1 | 322 | 10 |
| 2013-04-03T00:00 | 2047 | 800 | 19.0 | -11.0 | 32 | 9 |
| 2013-04-03T00:00 | 2319 | 775 | 17.3 | -12.3 | 313 | 9 |
| 2013-04-03T00:00 | 2500 | 759 | 15.5 | -13.7 | 308 | 9 |
| 2013-04-03T00:00 | 3000 | 715 | 10.7 | -13.3 | 306 | 7 |
| 2013-04-03T00:00 | 3173 | 700 | 8.9 | -14.8 | 311 | 6 |
| 2013-04-03T00:00 | 4000 | 633 | 7.1 | -39.4 | 293 | 9 |
| 2013-04-03T00:00 | 4438 | 600 | 4.2 | -41.3 | 293 | 9 |
| 2013-04-03T00:00 | 5000 | 560 | 1.2 | -43.3 | 323 | 7 |
| 2013-04-03T00:00 | 5500 | 526 | -1.0 | -44.8 | 317 | 10 |
| 2013-04-03T00:00 | 5898 | 500 | -3.6 | -46.6 | 320 | 14 |
| 2013-04-03T00:00 | 6000 | 494 | -4.0 | -46.9 | 311 | 14 |
| 2013-04-03T00:00 | 7000 | 434 | -11.5 | -52.0 | 301 | 16 |
| 2013-04-03T00:00 | 7619 | 400 | -17.3 | -52.7 | 302 | 18 |
| 2013-04-03T00:00 | 8000 | 380 | -20.4 | -52.4 | 301 | 19 |
| 2013-04-03T00:00 | 9000 | 331 | -29.0 | -54.3 | 291 | 17 |
| 2013-04-03T00:00 | 9699 | 300 | -34.6 | -57.6 | 275 | 17 |
| 2013-04-03T00:00 | 10000 | 287 | -36.4 | -61.3 | 284 | 20 |
| 2013-04-03T00:00 | 10955 | 250 | -41.3 | -66.6 | 285 | 24 |
| 2013-04-03T00:00 | 11000 | 248 | -41.6 | -66.8 | 285 | 25 |
| 2013-04-03T00:00 | 12000 | 214 | -49.7 | -71.8 | 278 | 24 |
| 2013-04-03T00:00 | 12432 | 200 | -52.9 | -73.4 | 284 | 23 |
| 2013-04-03T00:00 | 13000 | 183 | -57.5 | -75.4 | 281 | 23 |
| 2013-04-03T00:00 | 14000 | 156 | -64.8 | -80.8 | 284 | 23 |
| 2013-04-03T00:00 | 14228 | 150 | -66.9 | -81.5 | 284 | 21 |
| 2013-04-03T00:00 | 15000 | 132 | -70.6 | -83.2 | 283 | 19 |
| 2013-04-03T00:00 | 15554 | 120 | -73.5 | -85.8 | 303 | 21 |
| 2013-04-03T00:00 | 16000 | 111 | -74.1 | -86.7 | 316 | 17 |
| 2013-04-03T00:00 | 16616 | 100 | -75.2 | -89.1 | 274 | 10 |
| 2013-04-03T00:00 | 17000 | 94 | -77.0 | -90.6 | 253 | 13 |
| 2013-04-03T00:00 | 17223 | 90 | -78.1 | -91.5 | 277 | 12 |
| 2013-04-03T00:00 | 17891 | 80 | -79.6 | -92.8 | 293 | 8 |
| 2013-04-03T00:00 | 18000 | 79 | -77.5 | -91.0 | 315 | 10 |
| 2013-04-03T00:00 | 18262 | 75 | -76.2 | -90.5 | 30 | 4 |
| 2013-04-03T00:00 | 18660 | 70 | -76.6 | -91.4 | 256 | 5 |
| 2013-04-03T00:00 | 19000 | 66 | -77.2 | -91.9 | 236 | 4 |
| 2013-04-03T00:00 | 19551 | 60 | -73.9 | -90.6 | 253 | 2 |
| 2013-04-03T00:00 | 20000 | 56 | -69.2 | -87.6 | 269 | 6 |
| 2013-04-03T00:00 | 20633 | 50 | -69.6 | -91.9 | 199 | 3 |
| 2013-04-03T00:00 | 22000 | 40 | -59.7 | -90.6 | 127 | 1 |
| 2013-04-03T00:00 | 22004 | 40 | -59.8 | -90.7 | 116 | 1 |
| 2013-04-03T00:00 | 23806 | 30 | -58.3 | -89.6 | 59 | 13 |
| 2013-04-03T00:00 | 24000 | 29 | -57.8 | -89.3 | 76 | 12 |
| 2013-04-03T12:00 | 1377 | 865 | 28.2 | -6.2 | 310 | 5 |
| 2013-04-03T12:00 | 1500 | 853 | 25.1 | -9.9 | 297 | 7 |
| 2013-04-03T12:00 | 1530 | 850 | 24.7 | -11.7 | 300 | 6 |
| 2013-04-03T12:00 | 2000 | 805 | 20.4 | -11.0 | 323 | 5 |
| 2013-04-03T12:00 | 2055 | 800 | 19.0 | -11.0 | 32 | 5 |
| 2013-04-03T12:00 | 2326 | 775 | 17.2 | -13.5 | 314 | 7 |
| 2013-04-03T12:00 | 2500 | 759 | 15.6 | -12.7 | 311 | 8 |
| 2013-04-03T12:00 | 3000 | 715 | 11.0 | -16.3 | 285 | 7 |
| 2013-04-03T12:00 | 3181 | 700 | 9.5 | -20.6 | 288 | 7 |
| 2013-04-03T12:00 | 4000 | 634 | 5.7 | -36.3 | 279 | 6 |
| 2013-04-03T12:00 | 4445 | 600 | 4.5 | -41.1 | 289 | 9 |
| 2013-04-03T12:00 | 5000 | 560 | 0.6 | -43.7 | 257 | 11 |
| 2013-04-03T12:00 | 5500 | 526 | -2.1 | -45.6 | 248 | 9 |
| 2013-04-03T12:00 | 5901 | 500 | -5.5 | -44.2 | 248 | 9 |
| 2013-04-03T12:00 | 6000 | 494 | -6.1 | -44.6 | 245 | 9 |
| 2013-04-03T12:00 | 7000 | 434 | -13.4 | -49.8 | 279 | 10 |
| 2013-04-03T12:00 | 7611 | 400 | -16.9 | -52.4 | 288 | 11 |
| 2013-04-03T12:00 | 8000 | 380 | -20.1 | -52.2 | 287 | 12 |
| 2013-04-03T12:00 | 9000 | 331 | -29.3 | -54.5 | 266 | 15 |
| 2013-04-03T12:00 | 9692 | 300 | -34.3 | -59.7 | 286 | 17 |
| 2013-04-03T12:00 | 10000 | 287 | -36.4 | -62.7 | 284 | 15 |
| 2013-04-03T12:00 | 10945 | 250 | -42.2 | -67.3 | 277 | 20 |
| 2013-04-03T12:00 | 11000 | 248 | -42.6 | -67.6 | 275 | 20 |
| 2013-04-03T12:00 | 12000 | 213 | -49.3 | -74.3 | 267 | 19 |
| 2013-04-03T12:00 | 12418 | 200 | -52.6 | -75.4 | 253 | 23 |
| 2013-04-03T12:00 | 13000 | 183 | -56.3 | -78.3 | 255 | 24 |
| 2013-04-03T12:00 | 14000 | 156 | -64.2 | -83.5 | 268 | 20 |
| 2013-04-03T12:00 | 14221 | 150 | -65.9 | -84.0 | 269 | 20 |
| 2013-04-03T12:00 | 15000 | 132 | -69.7 | -86.3 | 298 | 12 |
| 2013-04-03T12:00 | 15553 | 120 | -72.7 | -88.1 | 320 | 13 |
| 2013-04-03T12:00 | 16000 | 111 | -75.0 | -90.0 | 328 | 7 |
| 2013-04-03T12:00 | 16610 | 100 | -77.6 | -92.3 | 248 | 10 |
| 2013-04-03T12:00 | 17000 | 93 | -80.1 | -93.8 | 277 | 11 |
| 2013-04-03T12:00 | 17208 | 90 | -79.8 | -93.5 | 278 | 10 |
| 2013-04-03T12:00 | 17878 | 80 | -79.6 | -93.9 | 291 | 5 |
| 2013-04-03T12:00 | 18000 | 78 | -79.6 | -93.9 | 274 | 5 |
| 2013-04-03T12:00 | 18243 | 75 | -79.6 | -93.9 | 220 | 3 |
| 2013-04-03T12:00 | 18636 | 70 | -78.0 | -93.3 | 279 | 4 |
| 2013-04-03T12:00 | 19000 | 66 | -74.0 | -90.7 | 37 | 3 |
| 2013-04-03T12:00 | 19531 | 60 | -73.9 | -92.4 | 264 | 7 |
| 2013-04-03T12:00 | 20000 | 55 | -68.3 | -90.8 | 327 | 6 |
| 2013-04-03T12:00 | 20625 | 50 | -63.5 | -89.5 | 356 | 5 |
| 2013-04-03T12:00 | 21999 | 40 | -61.9 | -92.2 | 49 | 9 |
| 2013-04-03T12:00 | 22000 | 40 | -61.9 | -92.2 | 49 | 9 |
| 2013-04-03T12:00 | 23788 | 30 | -58.0 | -89.4 | 85 | 5 |
| 2013-04-04T00:00 | 1377 | 864 | 17.2 | -11.4 | 20 | 2 |
| 2013-04-04T00:00 | 1500 | 851 | 24.2 | -12.1 | 329 | 6 |
| 2013-04-04T00:00 | 1514 | 850 | 24.2 | -12.1 | 328 | 6 |
| 2013-04-04T00:00 | 2000 | 804 | 20.3 | -12.2 | 298 | 5 |
| 2013-04-04T00:00 | 2039 | 800 | 19.0 | -12.0 | 29 | 5 |
| 2013-04-04T00:00 | 2310 | 775 | 17.4 | -13.3 | 301 | 4 |
| 2013-04-04T00:00 | 2500 | 758 | 15.7 | -13.6 | 286 | 4 |
| 2013-04-04T00:00 | 3000 | 714 | 12.9 | -16.8 | 136 | 6 |
| 2013-04-04T00:00 | 3168 | 700 | 11.6 | -17.9 | 136 | 5 |
| 2013-04-04T00:00 | 4000 | 633 | 6.3 | -35.9 | 269 | 7 |
| 2013-04-04T00:00 | 4435 | 600 | 3.4 | -41.8 | 241 | 5 |
| 2013-04-04T00:00 | 5000 | 559 | 0.7 | -43.7 | 247 | 11 |
| 2013-04-04T00:00 | 5500 | 525 | -2.1 | -45.6 | 246 | 14 |
| 2013-04-04T00:00 | 5891 | 500 | -4.6 | -47.3 | 251 | 16 |
| 2013-04-04T00:00 | 6000 | 493 | -5.7 | -44.3 | 253 | 15 |
| 2013-04-04T00:00 | 7000 | 433 | -13.9 | -50.2 | 222 | 16 |
| 2013-04-04T00:00 | 7600 | 400 | -18.2 | -53.3 | 211 | 16 |
| 2013-04-04T00:00 | 8000 | 379 | -20.9 | -55.2 | 218 | 15 |
| 2013-04-04T00:00 | 9000 | 330 | -28.7 | -52.9 | 239 | 17 |
| 2013-04-04T00:00 | 9680 | 300 | -34.1 | -58.3 | 239 | 16 |
| 2013-04-04T00:00 | 10000 | 287 | -36.8 | -61.6 | 233 | 17 |
| 2013-04-04T00:00 | 10928 | 250 | -44.6 | -62.0 | 231 | 17 |
| 2013-04-04T00:00 | 11000 | 247 | -45.2 | -61.9 | 230 | 17 |
| 2013-04-04T00:00 | 12000 | 213 | -50.0 | -72.1 | 251 | 21 |
| 2013-04-04T00:00 | 12396 | 200 | -52.3 | -75.2 | 254 | 23 |
| 2013-04-04T00:00 | 13000 | 182 | -55.2 | -77.5 | 255 | 19 |
| 2013-04-04T00:00 | 14000 | 155 | -61.6 | -82.5 | 262 | 19 |
| 2013-04-04T00:00 | 14214 | 150 | -63.2 | -83.9 | 274 | 17 |
| 2013-04-04T00:00 | 15000 | 132 | -69.4 | -85.3 | 253 | 14 |
| 2013-04-04T00:00 | 15553 | 120 | -72.9 | -87.7 | 214 | 15 |
| 2013-04-04T00:00 | 16000 | 111 | -74.9 | -88.8 | 220 | 19 |
| 2013-04-04T00:00 | 16610 | 100 | -76.3 | -89.5 | 241 | 12 |
| 2013-04-04T00:00 | 17000 | 94 | -76.1 | -89.8 | 242 | 10 |
| 2013-04-04T00:00 | 17219 | 90 | -77.0 | -91.1 | 234 | 11 |
| 2013-04-04T00:00 | 17890 | 80 | -79.7 | -92.9 | 259 | 5 |
| 2013-04-04T00:00 | 18000 | 79 | -80.3 | -93.4 | 269 | 5 |
| 2013-04-04T00:00 | 18255 | 75 | -80.2 | -93.3 | 229 | 7 |
| 2013-04-04T00:00 | 18647 | 70 | -78.2 | -91.7 | 225 | 5 |
| 2013-04-04T00:00 | 19000 | 66 | -80.0 | -93.2 | 152 | 7 |
| 2013-04-04T00:00 | 19526 | 60 | -75.6 | -89.9 | 261 | 1 |
| 2013-04-04T00:00 | 20000 | 55 | -69.7 | -86.3 | 204 | 9 |
| 2013-04-04T00:00 | 20610 | 50 | -65.2 | -86.8 | 225 | 2 |
| 2013-04-04T12:00 | 1377 | 864 | 30.8 | -5.7 | 240 | 6 |
| 2013-04-04T12:00 | 1500 | 852 | 27.3 | -13.4 | 248 | 9 |
| 2013-04-04T12:00 | 1521 | 850 | 27.1 | -13.5 | 249 | 9 |
| 2013-04-04T12:00 | 2000 | 805 | 23.1 | -12.9 | 234 | 10 |
| 2013-04-04T12:00 | 2050 | 800 | 22.0 | -13.0 | 23 | 9 |
| 2013-04-04T12:00 | 2324 | 775 | 19.9 | -13.9 | 220 | 10 |
| 2013-04-04T12:00 | 2500 | 759 | 18.4 | -13.7 | 223 | 11 |
| 2013-04-04T12:00 | 3000 | 716 | 13.2 | -14.6 | 219 | 9 |
| 2013-04-04T12:00 | 3186 | 700 | 11.2 | -14.5 | 215 | 9 |
| 2013-04-04T12:00 | 4000 | 634 | 3.3 | -16.4 | 224 | 10 |
| 2013-04-04T12:00 | 4442 | 600 | -0.6 | -19.7 | 222 | 10 |
| 2013-04-04T12:00 | 5000 | 560 | -0.1 | -40.4 | 210 | 11 |
| 2013-04-04T12:00 | 5500 | 526 | -2.1 | -39.0 | 235 | 11 |
| 2013-04-04T12:00 | 5893 | 500 | -5.1 | -37.3 | 253 | 13 |
| 2013-04-04T12:00 | 6000 | 493 | -5.9 | -39.6 | 254 | 14 |
| 2013-04-04T12:00 | 7000 | 433 | -13.2 | -45.1 | 235 | 22 |
| 2013-04-04T12:00 | 7602 | 400 | -18.0 | -50.7 | 221 | 23 |
| 2013-04-04T12:00 | 8000 | 379 | -20.7 | -49.1 | 219 | 23 |
| 2013-04-04T12:00 | 9000 | 330 | -29.8 | -50.3 | 229 | 18 |
| 2013-04-04T12:00 | 9678 | 300 | -35.3 | -53.0 | 232 | 16 |
| 2013-04-04T12:00 | 10000 | 286 | -37.8 | -51.0 | 233 | 17 |
| 2013-04-04T12:00 | 10923 | 250 | -42.9 | -65.3 | 254 | 28 |
| 2013-04-04T12:00 | 11000 | 247 | -43.6 | -65.9 | 255 | 30 |
| 2013-04-04T12:00 | 12000 | 213 | -50.6 | -73.8 | 266 | 33 |
| 2013-04-04T12:00 | 12395 | 200 | -53.1 | -74.6 | 271 | 32 |
| 2013-04-04T12:00 | 13000 | 182 | -56.4 | -78.4 | 276 | 35 |
| 2013-04-04T12:00 | 14000 | 155 | -63.4 | -81.9 | 246 | 18 |
| 2013-04-04T12:00 | 14202 | 150 | -64.4 | -82.8 | 233 | 18 |
| 2013-04-04T12:00 | 15000 | 132 | -69.0 | -86.5 | 248 | 20 |
| 2013-04-04T12:00 | 15540 | 120 | -73.7 | -88.9 | 246 | 21 |
| 2013-04-04T12:00 | 16000 | 111 | -76.2 | -90.5 | 240 | 21 |
| 2013-04-04T12:00 | 16596 | 100 | -75.6 | -90.0 | 216 | 16 |
| 2013-04-04T12:00 | 17000 | 93 | -76.9 | -91.6 | 246 | 10 |
| 2013-04-04T12:00 | 17202 | 90 | -78.2 | -92.7 | 256 | 5 |
| 2013-04-04T12:00 | 17868 | 80 | -80.8 | -95.0 | 170 | 9 |
| 2013-04-04T12:00 | 18000 | 78 | -80.5 | -94.7 | 178 | 10 |
| 2013-04-04T12:00 | 18233 | 75 | -79.8 | -94.1 | 196 | 8 |
| 2013-04-04T12:00 | 18627 | 70 | -76.6 | -91.4 | 174 | 13 |
| 2013-04-04T12:00 | 19000 | 66 | -73.1 | -89.1 | 191 | 12 |
| 2013-04-04T12:00 | 19529 | 60 | -69.9 | -89.2 | 241 | 9 |
| 2013-04-04T12:00 | 20000 | 56 | -67.5 | -90.2 | 316 | 8 |
| 2013-04-04T12:00 | 20626 | 50 | -66.5 | -91.8 | 85 | 4 |
| 2013-04-04T12:00 | 21996 | 40 | -61.7 | -92.0 | 87 | 11 |
| 2013-04-04T12:00 | 22000 | 40 | -61.7 | -92.0 | 87 | 11 |
| 2013-04-04T12:00 | 23798 | 30 | -57.1 | -88.8 | 127 | 11 |
| 2013-04-05T00:00 | 1377 | 863 | 19.1 | -12.0 | 340 | 1 |
| 2013-04-05T00:00 | 1500 | 851 | 26.6 | -12.0 | 272 | 6 |
| 2013-04-05T00:00 | 1508 | 850 | 26.6 | -12.0 | 272 | 6 |
| 2013-04-05T00:00 | 2000 | 803 | 22.5 | -13.3 | 278 | 8 |
| 2013-04-05T00:00 | 2037 | 800 | 22.0 | -13.0 | 27 | 7 |
| 2013-04-05T00:00 | 2310 | 775 | 19.8 | -13.9 | 268 | 7 |
| 2013-04-05T00:00 | 2500 | 758 | 18.0 | -14.0 | 264 | 7 |
| 2013-04-05T00:00 | 3000 | 715 | 13.3 | -14.5 | 260 | 9 |
| 2013-04-05T00:00 | 3173 | 700 | 11.6 | -14.2 | 257 | 11 |
| 2013-04-05T00:00 | 4000 | 633 | 3.9 | -14.3 | 240 | 12 |
| 2013-04-05T00:00 | 4433 | 600 | -0.1 | -14.4 | 233 | 15 |
| 2013-04-05T00:00 | 5000 | 559 | 0.1 | -40.2 | 224 | 17 |
| 2013-04-05T00:00 | 5500 | 525 | -2.7 | -35.4 | 219 | 15 |
| 2013-04-05T00:00 | 5882 | 500 | -6.2 | -35.3 | 230 | 16 |
| 2013-04-05T00:00 | 6000 | 493 | -7.1 | -35.9 | 230 | 18 |
| 2013-04-05T00:00 | 7000 | 433 | -13.7 | -43.8 | 228 | 22 |
| 2013-04-05T00:00 | 7587 | 400 | -18.5 | -46.1 | 226 | 21 |
| 2013-04-05T00:00 | 8000 | 378 | -21.5 | -47.2 | 215 | 26 |
| 2013-04-05T00:00 | 9000 | 330 | -28.6 | -40.2 | 237 | 25 |
| 2013-04-05T00:00 | 9665 | 300 | -33.5 | -56.8 | 251 | 27 |
| 2013-04-05T00:00 | 10000 | 286 | -34.8 | -65.4 | 257 | 30 |
| 2013-04-05T00:00 | 10926 | 250 | -42.0 | -50.9 | 266 | 35 |
| 2013-04-05T00:00 | 11000 | 247 | -42.6 | -50.7 | 266 | 35 |
| 2013-04-05T00:00 | 12000 | 213 | -49.9 | -62.8 | 264 | 39 |
| 2013-04-05T00:00 | 12400 | 200 | -52.9 | -69.6 | 265 | 36 |
| 2013-04-05T00:00 | 13000 | 182 | -57.6 | -72.5 | 268 | 33 |
| 2013-04-05T00:00 | 14000 | 155 | -63.1 | -79.4 | 233 | 27 |
| 2013-04-05T00:00 | 14204 | 150 | -65.0 | -81.0 | 226 | 27 |
| 2013-04-05T00:00 | 15000 | 132 | -68.6 | -84.0 | 229 | 30 |
| 2013-04-05T00:00 | 15545 | 120 | -69.9 | -85.7 | 243 | 29 |
| 2013-04-05T00:00 | 16000 | 111 | -72.5 | -87.9 | 256 | 23 |
| 2013-04-05T00:00 | 16619 | 100 | -73.7 | -89.7 | 216 | 13 |
| 2013-04-05T00:00 | 17000 | 94 | -76.7 | -92.1 | 200 | 10 |
| 2013-04-05T00:00 | 17226 | 90 | -78.7 | -93.2 | 194 | 12 |
| 2013-04-05T00:00 | 17890 | 80 | -82.4 | -95.2 | 210 | 20 |
| 2013-04-05T00:00 | 18000 | 78 | -81.7 | -94.6 | 209 | 18 |
| 2013-04-05T00:00 | 18254 | 75 | -78.9 | -91.7 | 202 | 17 |
| 2013-04-05T00:00 | 18647 | 70 | -79.7 | -93.0 | 188 | 17 |
| 2013-04-05T00:00 | 19000 | 66 | -74.7 | -88.6 | 233 | 14 |
| 2013-04-05T00:00 | 19543 | 60 | -73.0 | -89.0 | 282 | 4 |
| 2013-04-05T00:00 | 20000 | 56 | -74.0 | -91.5 | 178 | 4 |
| 2013-04-05T00:00 | 20612 | 50 | -68.3 | -88.0 | 211 | 9 |
| 2013-04-05T00:00 | 21983 | 40 | -61.5 | -88.0 | 188 | 2 |
| 2013-04-05T00:00 | 22000 | 40 | -61.5 | -88.0 | 194 | 2 |
| 2013-04-05T00:00 | 23778 | 30 | -58.6 | -89.9 | 48 | 7 |
| 2013-04-05T00:00 | 24000 | 29 | -56.9 | -88.6 | 49 | 11 |
| 2013-04-05T12:00 | 1377 | 864 | 29.4 | -5.3 | 270 | 7 |
| 2013-04-05T12:00 | 1500 | 852 | 26.3 | -10.5 | 296 | 9 |
| 2013-04-05T12:00 | 1520 | 850 | 26.2 | -10.6 | 296 | 9 |
| 2013-04-05T12:00 | 2000 | 804 | 21.1 | -10.4 | 265 | 10 |
| 2013-04-05T12:00 | 2047 | 800 | 20.0 | -10.0 | 26 | 9 |
| 2013-04-05T12:00 | 2319 | 775 | 18.1 | -11.7 | 250 | 10 |
| 2013-04-05T12:00 | 2500 | 759 | 16.5 | -12.0 | 250 | 11 |
| 2013-04-05T12:00 | 3000 | 715 | 13.0 | -12.2 | 229 | 17 |
| 2013-04-05T12:00 | 3177 | 700 | 11.5 | -12.7 | 224 | 17 |
| 2013-04-05T12:00 | 4000 | 633 | 4.0 | -13.7 | 223 | 18 |
| 2013-04-05T12:00 | 4437 | 600 | 0.0 | -15.1 | 230 | 19 |
| 2013-04-05T12:00 | 5000 | 559 | -3.5 | -12.6 | 240 | 22 |
| 2013-04-05T12:00 | 5500 | 525 | -6.9 | -12.4 | 255 | 21 |
| 2013-04-05T12:00 | 5874 | 500 | -9.0 | -17.1 | 236 | 22 |
| 2013-04-05T12:00 | 6000 | 492 | -9.7 | -24.4 | 233 | 24 |
| 2013-04-05T12:00 | 7000 | 431 | -14.6 | -28.4 | 238 | 23 |
| 2013-04-05T12:00 | 7568 | 400 | -17.8 | -46.9 | 244 | 21 |
| 2013-04-05T12:00 | 8000 | 377 | -20.3 | -50.4 | 235 | 18 |
| 2013-04-05T12:00 | 9000 | 329 | -28.2 | -54.9 | 237 | 25 |
| 2013-04-05T12:00 | 9656 | 300 | -33.1 | -44.6 | 256 | 33 |
| 2013-04-05T12:00 | 10000 | 286 | -36.0 | -44.2 | 256 | 36 |
| 2013-04-05T12:00 | 10916 | 250 | -41.4 | -59.9 | 253 | 39 |
| 2013-04-05T12:00 | 11000 | 247 | -42.1 | -59.3 | 253 | 39 |
| 2013-04-05T12:00 | 12000 | 212 | -50.8 | -67.2 | 249 | 42 |
| 2013-04-05T12:00 | 12388 | 200 | -54.3 | -68.7 | 248 | 42 |
| 2013-04-05T12:00 | 13000 | 182 | -58.8 | -71.3 | 247 | 42 |
| 2013-04-05T12:00 | 14000 | 154 | -66.0 | -75.9 | 242 | 39 |
| 2013-04-05T12:00 | 14174 | 150 | -67.5 | -77.5 | 238 | 39 |
| 2013-04-05T12:00 | 15000 | 131 | -70.2 | -82.1 | 256 | 35 |
| 2013-04-05T12:00 | 15500 | 120 | -73.9 | -86.5 | 255 | 27 |
| 2013-04-05T12:00 | 16000 | 110 | -73.4 | -86.5 | 249 | 19 |
| 2013-04-05T12:00 | 16558 | 100 | -77.9 | -90.9 | 233 | 20 |
| 2013-04-05T12:00 | 17000 | 93 | -77.1 | -90.2 | 239 | 22 |
| 2013-04-05T12:00 | 17160 | 90 | -77.3 | -90.4 | 246 | 22 |
| 2013-04-05T12:00 | 17839 | 80 | -76.6 | -91.4 | 241 | 14 |
| 2013-04-05T12:00 | 18000 | 78 | -77.9 | -92.5 | 229 | 14 |
| 2013-04-05T12:00 | 18208 | 75 | -77.4 | -92.7 | 239 | 13 |
| 2013-04-05T12:00 | 18605 | 70 | -74.3 | -90.9 | 244 | 9 |
| 2013-04-05T12:00 | 19000 | 66 | -72.0 | -90.9 | 279 | 6 |
| 2013-04-05T12:00 | 19513 | 60 | -70.7 | -91.1 | 228 | 8 |
| 2013-04-05T12:00 | 20000 | 55 | -67.1 | -92.2 | 305 | 5 |
| 2013-04-05T12:00 | 20609 | 50 | -66.9 | -92.1 | 300 | 4 |
| 2013-04-05T12:00 | 21989 | 40 | -60.3 | -91.0 | 118 | 7 |
| 2013-04-05T12:00 | 22000 | 40 | -60.2 | -91.0 | 120 | 8 |
| 2013-04-06T00:00 | 1377 | 864 | 19.0 | -10.0 | 280 | 2 |
| 2013-04-06T00:00 | 1500 | 852 | 21.1 | -14.4 | 291 | 7 |
| 2013-04-06T00:00 | 1515 | 850 | 21.1 | -14.4 | 291 | 7 |
| 2013-04-06T00:00 | 2000 | 803 | 17.7 | -11.0 | 270 | 10 |
| 2013-04-06T00:00 | 2035 | 800 | 17.0 | -11.0 | 27 | 10 |
| 2013-04-06T00:00 | 2305 | 775 | 15.7 | -29.4 | 272 | 12 |
| 2013-04-06T00:00 | 2500 | 757 | 15.0 | -41.0 | 269 | 15 |
| 2013-04-06T00:00 | 3000 | 714 | 12.1 | -36.0 | 264 | 23 |
| 2013-04-06T00:00 | 3159 | 700 | 10.7 | -37.0 | 266 | 23 |
| 2013-04-06T00:00 | 4000 | 632 | 3.5 | -10.5 | 245 | 26 |
| 2013-04-06T00:00 | 4417 | 600 | -0.2 | -9.3 | 240 | 27 |
| 2013-04-06T00:00 | 5000 | 558 | -5.4 | -10.5 | 247 | 27 |
| 2013-04-06T00:00 | 5500 | 523 | -5.9 | -33.8 | 256 | 25 |
| 2013-04-06T00:00 | 5854 | 500 | -7.0 | -48.9 | 261 | 25 |
| 2013-04-06T00:00 | 6000 | 491 | -7.7 | -49.4 | 258 | 26 |
| 2013-04-06T00:00 | 7000 | 431 | -14.9 | -44.7 | 255 | 28 |
| 2013-04-06T00:00 | 7556 | 400 | -17.7 | -48.5 | 242 | 29 |
| 2013-04-06T00:00 | 8000 | 377 | -20.6 | -50.7 | 239 | 31 |
| 2013-04-06T00:00 | 9000 | 328 | -29.5 | -55.9 | 240 | 30 |
| 2013-04-06T00:00 | 9638 | 300 | -34.6 | -55.8 | 239 | 33 |
| 2013-04-06T00:00 | 10000 | 285 | -37.3 | -58.8 | 243 | 35 |
| 2013-04-06T00:00 | 10893 | 250 | -41.3 | -58.6 | 256 | 49 |
| 2013-04-06T00:00 | 11000 | 246 | -42.3 | -58.4 | 254 | 48 |
| 2013-04-06T00:00 | 12000 | 212 | -51.1 | -58.2 | 249 | 49 |
| 2013-04-06T00:00 | 12365 | 200 | -54.3 | -62.0 | 251 | 49 |
| 2013-04-06T00:00 | 13000 | 181 | -59.2 | -67.1 | 252 | 49 |
| 2013-04-06T00:00 | 14000 | 154 | -63.9 | -79.4 | 245 | 42 |
| 2013-04-06T00:00 | 14158 | 150 | -64.1 | -80.3 | 246 | 41 |
| 2013-04-06T00:00 | 15000 | 131 | -68.5 | -85.3 | 262 | 36 |
| 2013-04-06T00:00 | 15504 | 120 | -69.9 | -86.5 | 256 | 28 |
| 2013-04-06T00:00 | 16000 | 110 | -73.1 | -89.1 | 242 | 27 |
| 2013-04-06T00:00 | 16573 | 100 | -74.7 | -90.5 | 243 | 27 |
| 2013-04-06T00:00 | 17000 | 93 | -74.6 | -89.7 | 256 | 25 |
| 2013-04-06T00:00 | 17183 | 90 | -75.3 | -90.3 | 256 | 25 |
| 2013-04-06T00:00 | 17859 | 80 | -79.5 | -93.8 | 247 | 21 |
| 2013-04-06T00:00 | 18000 | 78 | -79.5 | -93.8 | 249 | 20 |
| 2013-04-06T00:00 | 18225 | 75 | -79.2 | -93.6 | 248 | 19 |
| 2013-04-06T00:00 | 18616 | 70 | -78.2 | -92.8 | 217 | 11 |
| 2013-04-06T00:00 | 19000 | 66 | -73.9 | -89.8 | 193 | 12 |
| 2013-04-06T00:00 | 19524 | 60 | -65.5 | -85.7 | 213 | 12 |
| 2013-04-06T00:00 | 20000 | 56 | -64.6 | -88.0 | 261 | 5 |
| 2013-04-06T00:00 | 20634 | 50 | -67.3 | -90.1 | 208 | 7 |
| 2013-04-06T00:00 | 21991 | 40 | -62.9 | -89.0 | 213 | 8 |
| 2013-04-06T00:00 | 22000 | 40 | -62.8 | -88.9 | 212 | 8 |
| 2013-04-06T12:00 | 1377 | 864 | 23.1 | -8.9 | 320 | 9 |
| 2013-04-06T12:00 | 1500 | 852 | 19.5 | -11.7 | 306 | 11 |
| 2013-04-06T12:00 | 1514 | 850 | 19.4 | -11.8 | 306 | 11 |
| 2013-04-06T12:00 | 2000 | 803 | 14.9 | -16.4 | 316 | 12 |
| 2013-04-06T12:00 | 2030 | 800 | 14.0 | -19.0 | 31 | 12 |
| 2013-04-06T12:00 | 2297 | 775 | 13.8 | -27.7 | 305 | 20 |
| 2013-04-06T12:00 | 2500 | 757 | 15.1 | -40.9 | 289 | 23 |
| 2013-04-06T12:00 | 3000 | 713 | 12.8 | -42.3 | 287 | 21 |
| 2013-04-06T12:00 | 3153 | 700 | 11.5 | -43.2 | 284 | 21 |
| 2013-04-06T12:00 | 4000 | 632 | 5.1 | -47.1 | 265 | 24 |
| 2013-04-06T12:00 | 4415 | 600 | 2.0 | -49.1 | 280 | 22 |
| 2013-04-06T12:00 | 5000 | 558 | -1.0 | -51.0 | 273 | 22 |
| 2013-04-06T12:00 | 5500 | 524 | -5.1 | -53.6 | 265 | 25 |
| 2013-04-06T12:00 | 5861 | 500 | -7.4 | -55.1 | 262 | 25 |
| 2013-04-06T12:00 | 6000 | 491 | -8.0 | -55.5 | 262 | 24 |
| 2013-04-06T12:00 | 7000 | 431 | -14.7 | -54.2 | 266 | 28 |
| 2013-04-06T12:00 | 7560 | 400 | -19.3 | -57.4 | 263 | 28 |
| 2013-04-06T12:00 | 8000 | 377 | -23.6 | -60.4 | 260 | 27 |
| 2013-04-06T12:00 | 9000 | 328 | -31.6 | -60.8 | 269 | 33 |
| 2013-04-06T12:00 | 9622 | 300 | -35.9 | -62.4 | 267 | 34 |
| 2013-04-06T12:00 | 10000 | 284 | -38.5 | -64.4 | 271 | 36 |
| 2013-04-06T12:00 | 10870 | 250 | -42.9 | -66.5 | 265 | 49 |
| 2013-04-06T12:00 | 11000 | 245 | -43.4 | -66.8 | 264 | 51 |
| 2013-04-06T12:00 | 12000 | 211 | -51.4 | -62.2 | 253 | 54 |
| 2013-04-06T12:00 | 12339 | 200 | -54.3 | -63.8 | 254 | 54 |
| 2013-04-06T12:00 | 13000 | 180 | -59.0 | -73.2 | 252 | 50 |
| 2013-04-06T12:00 | 14000 | 153 | -63.5 | -83.0 | 248 | 46 |
| 2013-04-06T12:00 | 14136 | 150 | -64.4 | -83.7 | 249 | 46 |
| 2013-04-07T00:00 | 1377 | 864 | 14.4 | -7.6 | 200 | 3 |
| 2013-04-07T00:00 | 1500 | 851 | 18.4 | -7.8 | 218 | 5 |
| 2013-04-07T00:00 | 1513 | 850 | 18.3 | -7.9 | 220 | 5 |
| 2013-04-07T00:00 | 2000 | 803 | 21.0 | -37.3 | 283 | 11 |
| 2013-04-07T00:00 | 2033 | 800 | 20.8 | -37.5 | 287 | 11 |
| 2013-04-07T00:00 | 2305 | 775 | 18.7 | -38.7 | 308 | 11 |
| 2013-04-07T00:00 | 2500 | 757 | 17.1 | -32.8 | 308 | 9 |
| 2013-04-07T00:00 | 3000 | 714 | 12.9 | -35.5 | 295 | 9 |
| 2013-04-07T00:00 | 3164 | 700 | 11.8 | -43.0 | 289 | 9 |
| 2013-04-07T00:00 | 4000 | 632 | 5.0 | -40.8 | 289 | 13 |
| 2013-04-07T00:00 | 4426 | 600 | 1.8 | -36.2 | 284 | 14 |
| 2013-04-07T00:00 | 5000 | 559 | -2.4 | -42.0 | 280 | 18 |
| 2013-04-07T00:00 | 5500 | 524 | -6.1 | -38.0 | 277 | 14 |
| 2013-04-07T00:00 | 5866 | 500 | -9.1 | -42.1 | 272 | 16 |
| 2013-04-07T00:00 | 6000 | 491 | -10.2 | -42.8 | 275 | 16 |
| 2013-04-07T00:00 | 7000 | 431 | -16.6 | -49.6 | 270 | 23 |
| 2013-04-07T00:00 | 7554 | 400 | -21.1 | -55.4 | 265 | 22 |
| 2013-04-07T00:00 | 8000 | 376 | -24.8 | -55.7 | 262 | 24 |
| 2013-04-07T00:00 | 9000 | 328 | -30.6 | -54.4 | 283 | 33 |
| 2013-04-07T00:00 | 9617 | 300 | -35.3 | -57.2 | 281 | 36 |
| 2013-04-07T00:00 | 10000 | 284 | -37.8 | -58.4 | 285 | 42 |
| 2013-04-07T00:00 | 10864 | 250 | -44.1 | -61.6 | 279 | 49 |
| 2013-04-07T00:00 | 11000 | 245 | -44.9 | -63.5 | 278 | 50 |
| 2013-04-07T00:00 | 12000 | 210 | -52.5 | -67.6 | 274 | 46 |
| 2013-04-07T00:00 | 12324 | 200 | -53.7 | -71.6 | 264 | 46 |
| 2013-04-07T00:00 | 13000 | 180 | -57.0 | -76.7 | 258 | 45 |
| 2013-04-07T00:00 | 14000 | 153 | -63.6 | -82.1 | 261 | 45 |
| 2013-04-07T00:00 | 14131 | 150 | -64.5 | -82.8 | 264 | 43 |
| 2013-04-07T00:00 | 15000 | 130 | -66.0 | -86.1 | 271 | 33 |
| 2013-04-07T00:00 | 15487 | 120 | -67.3 | -88.4 | 259 | 28 |
| 2013-04-07T00:00 | 16000 | 110 | -70.2 | -90.7 | 280 | 24 |
| 2013-04-07T00:00 | 16570 | 100 | -73.1 | -93.1 | 277 | 23 |
| 2013-04-07T00:00 | 17000 | 93 | -76.4 | -94.5 | 268 | 20 |
| 2013-04-07T00:00 | 17179 | 90 | -77.3 | -95.2 | 256 | 20 |
| 2013-04-07T00:00 | 17861 | 80 | -76.0 | -93.1 | 255 | 19 |
| 2013-04-07T00:00 | 18000 | 78 | -77.0 | -94.0 | 258 | 20 |
| 2013-04-07T00:00 | 18232 | 75 | -74.4 | -91.8 | 273 | 18 |
| 2013-04-07T00:00 | 18634 | 70 | -74.4 | -91.9 | 252 | 11 |
| 2013-04-07T00:00 | 19000 | 66 | -72.6 | -90.4 | 220 | 14 |
| 2013-04-07T00:00 | 19538 | 60 | -70.8 | -89.9 | 262 | 11 |
| 2013-04-07T00:00 | 20000 | 56 | -65.7 | -87.1 | 249 | 5 |
| 2013-04-07T00:00 | 20633 | 50 | -66.4 | -89.4 | 201 | 8 |
| 2013-04-07T12:00 | 1377 | 864 | 28.0 | -7.8 | 220 | 3 |
| 2013-04-07T12:00 | 1500 | 852 | 24.7 | -20.0 | 192 | 5 |
| 2013-04-07T12:00 | 1521 | 850 | 24.4 | -20.3 | 189 | 5 |
| 2013-04-07T12:00 | 2000 | 804 | 19.6 | -21.1 | 198 | 2 |
| 2013-04-07T12:00 | 2045 | 800 | 19.0 | -23.0 | 23 | 2 |
| 2013-04-07T12:00 | 2316 | 775 | 16.9 | -23.0 | 263 | 3 |
| 2013-04-07T12:00 | 2500 | 758 | 15.1 | -24.3 | 276 | 4 |
| 2013-04-07T12:00 | 3000 | 714 | 11.2 | -29.5 | 312 | 6 |
| 2013-04-07T12:00 | 3170 | 700 | 10.3 | -30.2 | 295 | 7 |
| 2013-04-07T12:00 | 4000 | 633 | 4.1 | -34.6 | 295 | 12 |
| 2013-04-07T12:00 | 4427 | 600 | 1.7 | -36.3 | 292 | 12 |
| 2013-04-07T12:00 | 5000 | 559 | -2.4 | -45.8 | 286 | 13 |
| 2013-04-07T12:00 | 5500 | 524 | -5.1 | -41.2 | 280 | 14 |
| 2013-04-07T12:00 | 5869 | 500 | -8.3 | -43.6 | 285 | 15 |
| 2013-04-07T12:00 | 6000 | 492 | -9.2 | -50.4 | 283 | 17 |
| 2013-04-07T12:00 | 7000 | 431 | -14.1 | -47.8 | 287 | 23 |
| 2013-04-07T12:00 | 7568 | 400 | -19.0 | -47.9 | 279 | 23 |
| 2013-04-07T12:00 | 8000 | 377 | -21.9 | -47.5 | 277 | 25 |
| 2013-04-07T12:00 | 9000 | 329 | -30.8 | -50.4 | 273 | 26 |
| 2013-04-07T12:00 | 9636 | 300 | -36.8 | -51.4 | 272 | 30 |
| 2013-04-07T12:00 | 10000 | 285 | -38.9 | -58.5 | 276 | 37 |
| 2013-04-07T12:00 | 10877 | 250 | -44.2 | -66.4 | 287 | 43 |
| 2013-04-07T12:00 | 11000 | 245 | -45.4 | -67.3 | 290 | 44 |
| 2013-04-07T12:00 | 12000 | 211 | -54.1 | -65.2 | 288 | 49 |
| 2013-04-07T12:00 | 12331 | 200 | -56.3 | -68.1 | 282 | 46 |
| 2013-04-07T12:00 | 13000 | 180 | -58.8 | -78.2 | 277 | 39 |
| 2013-04-07T12:00 | 14000 | 153 | -64.5 | -84.9 | 270 | 38 |
| 2013-04-07T12:00 | 14127 | 150 | -65.4 | -84.5 | 272 | 38 |
| 2013-04-07T12:00 | 15000 | 130 | -65.3 | -86.8 | ||
| 2013-04-07T12:00 | 15483 | 120 | -67.2 | -90.0 | ||
| 2013-04-07T12:00 | 16000 | 110 | -71.2 | -93.1 | ||
| 2013-04-07T12:00 | 16560 | 100 | -74.8 | -94.4 | ||
| 2013-04-07T12:00 | 17000 | 93 | -77.0 | -96.1 | ||
| 2013-04-07T12:00 | 17166 | 90 | -77.2 | -95.1 | ||
| 2013-04-07T12:00 | 17840 | 80 | -77.1 | -95.0 | ||
| 2013-04-07T12:00 | 18000 | 78 | -76.4 | -94.5 | ||
| 2013-04-07T12:00 | 18212 | 75 | -75.5 | -93.7 | ||
| 2013-04-07T12:00 | 18613 | 70 | -73.7 | -93.5 | ||
| 2013-04-07T12:00 | 19000 | 66 | -72.1 | -92.2 | ||
| 2013-04-07T12:00 | 19524 | 60 | -69.7 | -91.9 | ||
| 2013-04-07T12:00 | 20000 | 55 | -66.6 | -91.8 | ||
| 2013-04-07T12:00 | 20627 | 50 | -64.3 | -90.1 | 307 | 8 |
| 2013-04-07T12:00 | 22000 | 40 | -61.3 | -91.7 | ||
| 2013-04-07T12:00 | 22003 | 40 | -61.3 | -91.7 | ||
| 2013-04-07T12:00 | 23796 | 30 | -58.3 | -89.6 | ||
| 2013-04-08T00:00 | 1377 | 864 | 17.7 | -15.6 | 110 | 4 |
| 2013-04-08T00:00 | 1500 | 852 | 23.1 | -14.6 | 157 | 6 |
| 2013-04-08T00:00 | 1521 | 850 | 23.1 | -12.9 | 162 | 6 |
| 2013-04-08T00:00 | 2000 | 804 | 19.2 | -21.3 | 181 | 7 |
| 2013-04-08T00:00 | 2042 | 800 | 18.0 | -21.0 | 18 | 6 |
| 2013-04-08T00:00 | 2313 | 775 | 16.5 | -21.2 | 167 | 6 |
| 2013-04-08T00:00 | 2500 | 758 | 14.9 | -19.1 | 158 | 4 |
| 2013-04-08T00:00 | 3000 | 714 | 10.6 | -21.0 | 138 | 4 |
| 2013-04-08T00:00 | 3167 | 700 | 10.0 | -24.3 | 139 | 4 |
| 2013-04-08T00:00 | 4000 | 632 | 4.7 | -47.4 | 264 | 4 |
| 2013-04-08T00:00 | 4426 | 600 | 2.3 | -48.9 | 238 | 6 |
| 2013-04-08T00:00 | 5000 | 559 | -1.1 | -44.9 | 275 | 12 |
| 2013-04-08T00:00 | 5500 | 524 | -4.3 | -47.1 | 250 | 12 |
| 2013-04-08T00:00 | 5873 | 500 | -6.7 | -42.4 | 263 | 11 |
| 2013-04-08T00:00 | 6000 | 492 | -7.7 | -41.0 | 265 | 12 |
| 2013-04-08T00:00 | 7000 | 432 | -14.6 | -50.7 | 262 | 17 |
| 2013-04-08T00:00 | 7576 | 400 | -17.8 | -53.0 | 270 | 23 |
| 2013-04-08T00:00 | 8000 | 378 | -21.1 | -55.4 | 268 | 26 |
| 2013-04-08T00:00 | 9000 | 329 | -28.0 | -35.9 | 265 | 24 |
| 2013-04-08T00:00 | 9661 | 300 | -33.2 | -39.2 | 279 | 28 |
| 2013-04-08T00:00 | 10000 | 286 | -35.9 | -42.1 | 280 | 28 |
| 2013-04-08T00:00 | 10915 | 250 | -43.2 | -52.2 | 282 | 27 |
| 2013-04-08T00:00 | 11000 | 247 | -44.0 | -53.1 | 283 | 27 |
| 2013-04-08T00:00 | 12000 | 212 | -52.7 | -61.8 | 283 | 35 |
| 2013-04-08T00:00 | 12376 | 200 | -55.9 | -63.7 | 283 | 36 |
| 2013-04-08T00:00 | 13000 | 181 | -60.8 | -70.1 | 286 | 35 |
| 2013-04-08T00:00 | 14000 | 154 | -66.0 | -76.7 | 261 | 34 |
| 2013-04-08T00:00 | 14152 | 150 | -66.2 | -77.6 | 262 | 32 |
| 2013-04-08T00:00 | 15000 | 130 | -65.6 | -82.1 | 261 | 28 |
| 2013-04-08T00:00 | 15501 | 120 | -69.2 | -87.6 | 257 | 28 |
| 2013-04-08T00:00 | 16000 | 110 | -72.3 | -90.1 | 268 | 26 |
| 2013-04-08T00:00 | 16573 | 100 | -74.6 | -92.0 | 278 | 21 |
| 2013-04-08T00:00 | 17000 | 93 | -74.7 | -92.1 | 262 | 14 |
| 2013-04-08T00:00 | 17185 | 90 | -74.9 | -92.2 | 261 | 11 |
| 2013-04-08T00:00 | 17872 | 80 | -73.5 | -91.1 | 259 | 2 |
| 2013-04-08T00:00 | 18000 | 78 | -74.5 | -91.9 | 201 | 4 |
| 2013-04-08T00:00 | 18246 | 75 | -76.8 | -93.8 | 180 | 5 |
| 2013-04-08T00:00 | 18642 | 70 | -77.0 | -94.0 | 288 | 4 |
| 2013-04-08T00:00 | 19000 | 66 | -74.6 | -92.0 | 292 | 11 |
| 2013-04-08T00:00 | 19542 | 60 | -69.7 | -89.0 | 237 | 5 |
| 2013-04-08T00:00 | 20000 | 56 | -70.0 | -90.6 | 269 | 8 |
| 2013-04-08T00:00 | 20631 | 50 | -68.4 | -91.0 | 349 | 2 |
| 2013-04-08T00:00 | 21992 | 40 | -61.6 | -92.0 | 286 | 6 |
| 2013-04-08T00:00 | 22000 | 40 | -61.5 | -91.9 | 288 | 6 |
| 2013-04-08T12:00 | 1377 | 866 | 26.8 | -6.1 | 100 | 5 |
| 2013-04-08T12:00 | 1500 | 853 | 22.7 | -11.7 | 120 | 6 |
| 2013-04-08T12:00 | 1535 | 850 | 22.3 | -12.1 | 125 | 6 |
| 2013-04-08T12:00 | 2000 | 805 | 17.5 | -12.2 | 132 | 5 |
| 2013-04-08T12:00 | 2055 | 800 | 16.0 | -12.0 | 13 | 4 |
| 2013-04-08T12:00 | 2324 | 775 | 14.5 | -13.5 | 143 | 4 |
| 2013-04-08T12:00 | 2500 | 759 | 13.2 | -15.5 | 169 | 4 |
| 2013-04-08T12:00 | 3000 | 715 | 11.4 | -43.2 | 272 | 4 |
| 2013-04-08T12:00 | 3175 | 700 | 9.9 | -37.5 | 261 | 4 |
| 2013-04-08T12:00 | 4000 | 633 | 4.0 | -41.4 | 237 | 11 |
| 2013-04-08T12:00 | 4431 | 600 | 1.4 | -39.3 | 227 | 9 |
| 2013-04-08T12:00 | 5000 | 559 | -0.8 | -44.7 | 263 | 13 |
| 2013-04-08T12:00 | 5500 | 525 | -4.5 | -43.5 | 243 | 13 |
| 2013-04-08T12:00 | 5878 | 500 | -7.0 | -48.9 | 243 | 14 |
| 2013-04-08T12:00 | 6000 | 492 | -7.8 | -45.8 | 247 | 15 |
| 2013-04-08T12:00 | 7000 | 432 | -15.2 | -43.5 | 263 | 14 |
| 2013-04-08T12:00 | 7577 | 400 | -18.2 | -38.6 | 265 | 20 |
| 2013-04-08T12:00 | 8000 | 378 | -20.2 | -44.1 | 265 | 18 |
| 2013-04-08T12:00 | 9000 | 330 | -27.4 | -41.9 | 270 | 24 |
| 2013-04-08T12:00 | 9669 | 300 | -33.5 | -42.3 | 276 | 23 |
| 2013-04-08T12:00 | 10000 | 286 | -36.1 | -47.0 | 273 | 25 |
| 2013-04-08T12:00 | 10919 | 250 | -44.8 | -53.2 | 277 | 27 |
| 2013-04-08T12:00 | 11000 | 247 | -45.5 | -53.4 | 278 | 27 |
| 2013-04-08T12:00 | 12000 | 212 | -52.3 | -61.7 | 288 | 35 |
| 2013-04-08T12:00 | 12378 | 200 | -55.8 | -66.2 | 289 | 37 |
| 2013-04-08T12:00 | 13000 | 181 | -61.1 | -68.6 | 291 | 38 |
| 2013-04-08T12:00 | 14000 | 154 | -67.3 | -74.4 | 277 | 30 |
| 2013-04-08T12:00 | 14150 | 150 | -67.3 | -75.2 | 264 | 30 |
| 2013-04-08T12:00 | 15000 | 130 | -67.1 | -80.2 | 273 | 32 |
| 2013-04-08T12:00 | 15485 | 120 | -71.1 | -86.8 | 271 | 31 |
| 2013-04-08T12:00 | 16000 | 110 | -72.7 | -89.6 | 276 | 25 |
| 2013-04-08T12:00 | 16557 | 100 | -73.3 | -91.0 | 248 | 17 |
| 2013-04-08T12:00 | 17000 | 93 | -74.7 | -92.1 | 233 | 15 |
| 2013-04-08T12:00 | 17171 | 90 | -75.8 | -93.0 | 242 | 17 |
| 2013-04-09T00:00 | 1377 | 866 | 18.9 | -9.1 | 110 | 4 |
| 2013-04-09T00:00 | 1500 | 854 | 22.4 | -12.0 | 125 | 6 |
| 2013-04-09T00:00 | 1538 | 850 | 22.3 | -12.1 | 128 | 7 |
| 2013-04-09T00:00 | 2000 | 806 | 18.4 | -12.5 | 165 | 6 |
| 2013-04-09T00:00 | 2058 | 800 | 17.0 | -11.0 | 16 | 5 |
| 2013-04-09T00:00 | 2328 | 775 | 15.6 | -13.7 | 157 | 4 |
| 2013-04-09T00:00 | 2500 | 759 | 14.3 | -12.8 | 124 | 3 |
| 2013-04-09T00:00 | 3000 | 715 | 10.2 | -15.3 | 4 | 2 |
| 2013-04-09T00:00 | 3179 | 700 | 8.6 | -15.8 | 16 | 3 |
| 2013-04-09T00:00 | 4000 | 633 | 5.5 | -46.9 | 276 | 6 |
| 2013-04-09T00:00 | 4439 | 600 | 3.5 | -37.9 | 265 | 7 |
| 2013-04-09T00:00 | 5000 | 560 | -0.9 | -31.1 | 262 | 8 |
| 2013-04-09T00:00 | 5500 | 525 | -3.8 | -40.3 | 247 | 13 |
| 2013-04-09T00:00 | 5889 | 500 | -6.5 | -40.1 | 257 | 14 |
| 2013-04-09T00:00 | 6000 | 493 | -7.4 | -40.8 | 254 | 15 |
| 2013-04-09T00:00 | 7000 | 433 | -14.0 | -40.2 | 258 | 19 |
| 2013-04-09T00:00 | 7596 | 400 | -15.8 | -35.4 | 264 | 23 |
| 2013-04-09T00:00 | 8000 | 379 | -19.4 | -31.1 | 264 | 23 |
| 2013-04-09T00:00 | 9000 | 331 | -26.4 | -41.0 | 262 | 25 |
| 2013-04-09T00:00 | 9692 | 300 | -33.1 | -42.4 | 260 | 26 |
| 2013-04-09T00:00 | 10000 | 287 | -36.1 | -43.0 | 261 | 25 |
| 2013-04-09T00:00 | 10943 | 250 | -43.6 | -50.7 | 270 | 29 |
| 2013-04-09T00:00 | 11000 | 248 | -44.1 | -50.9 | 271 | 29 |
| 2013-04-09T00:00 | 12000 | 213 | -51.5 | -64.2 | 261 | 29 |
| 2013-04-09T00:00 | 12405 | 200 | -54.7 | -67.8 | 268 | 31 |
| 2013-04-09T00:00 | 13000 | 182 | -60.3 | -67.1 | 271 | 33 |
| 2013-04-09T00:00 | 14000 | 155 | -66.6 | -73.5 | 267 | 33 |
| 2013-04-09T00:00 | 14180 | 150 | -67.1 | -75.0 | 259 | 33 |
| 2013-04-09T00:00 | 15000 | 131 | -66.7 | -78.3 | 256 | 28 |
| 2013-04-09T00:00 | 15520 | 120 | -68.7 | -85.5 | 243 | 17 |
| 2013-04-09T00:00 | 16000 | 111 | -72.7 | -90.4 | 243 | 15 |
| 2013-04-09T00:00 | 16590 | 100 | -74.8 | -92.2 | 222 | 17 |
| 2013-04-09T00:00 | 17000 | 93 | -76.3 | -93.4 | 233 | 20 |
| 2013-04-09T00:00 | 17199 | 90 | -76.4 | -93.5 | 259 | 17 |
| 2013-04-09T00:00 | 17884 | 80 | -74.5 | -91.9 | 274 | 8 |
| 2013-04-09T00:00 | 18000 | 78 | -75.3 | -93.6 | 268 | 8 |
| 2013-04-09T00:00 | 18259 | 75 | -74.3 | -92.8 | 258 | 2 |
| 2013-04-09T00:00 | 18660 | 70 | -75.7 | -93.9 | 227 | 3 |
| 2013-04-09T00:00 | 19000 | 66 | -74.8 | -93.2 | 162 | 5 |
| 2013-04-09T00:00 | 19557 | 60 | -74.6 | -93.0 | 198 | 5 |
| 2013-04-09T00:00 | 20000 | 56 | -71.1 | -90.2 | 196 | 7 |
| 2013-04-09T00:00 | 20642 | 50 | -65.9 | -91.3 | 226 | 6 |
| 2013-04-09T00:00 | 22000 | 40 | -59.8 | -90.7 | 216 | 4 |
| 2013-04-09T00:00 | 22011 | 40 | -59.7 | -90.6 | 211 | 4 |
| 2013-04-09T12:00 | 1377 | 866 | 28.5 | -6.0 | 130 | 8 |
| 2013-04-09T12:00 | 1500 | 854 | 24.6 | -11.8 | 149 | 10 |
| 2013-04-09T12:00 | 1536 | 850 | 24.0 | -12.3 | 151 | 10 |
| 2013-04-09T12:00 | 2000 | 806 | 19.9 | -12.6 | 132 | 9 |
| 2013-04-09T12:00 | 2060 | 800 | 19.0 | -13.0 | 13 | 8 |
| 2013-04-09T12:00 | 2331 | 775 | 16.6 | -13.9 | 134 | 6 |
| 2013-04-09T12:00 | 2500 | 760 | 16.2 | -18.1 | 197 | 5 |
| 2013-04-09T12:00 | 3000 | 716 | 12.2 | -15.4 | 259 | 6 |
| 2013-04-09T12:00 | 3188 | 700 | 10.7 | -14.9 | 264 | 7 |
| 2013-04-09T12:00 | 4000 | 635 | 5.2 | -3.1 | 276 | 14 |
| 2013-04-09T12:00 | 4453 | 600 | 1.5 | -5.2 | 263 | 12 |
| 2013-04-09T12:00 | 5000 | 560 | -2.9 | -7.0 | 249 | 9 |
| 2013-04-09T12:00 | 5500 | 526 | -5.6 | -10.9 | 250 | 9 |
| 2013-04-09T12:00 | 5894 | 500 | -8.0 | -14.2 | 250 | 10 |
| 2013-04-09T12:00 | 6000 | 493 | -9.0 | -14.3 | 254 | 10 |
| 2013-04-09T12:00 | 7000 | 433 | -13.6 | -24.0 | 253 | 20 |
| 2013-04-09T12:00 | 7599 | 400 | -17.1 | -34.3 | 246 | 22 |
| 2013-04-09T12:00 | 8000 | 379 | -19.5 | -38.5 | 244 | 25 |
| 2013-04-09T12:00 | 9000 | 331 | -27.2 | -45.0 | 240 | 27 |
| 2013-04-09T12:00 | 9690 | 300 | -33.2 | -51.2 | 230 | 29 |
| 2013-04-09T12:00 | 10000 | 287 | -35.6 | -52.2 | 237 | 29 |
| 2013-04-09T12:00 | 10942 | 250 | -44.1 | -56.6 | 233 | 30 |
| 2013-04-09T12:00 | 11000 | 248 | -44.6 | -57.4 | 232 | 31 |
| 2013-04-09T12:00 | 12000 | 213 | -53.4 | -58.1 | 250 | 33 |
| 2013-04-09T12:00 | 12400 | 200 | -54.2 | -66.6 | 261 | 38 |
| 2013-04-09T12:00 | 13000 | 182 | -59.6 | -69.8 | 261 | 39 |
| 2013-04-09T12:00 | 14000 | 155 | -68.3 | -74.4 | 262 | 40 |
| 2013-04-09T12:00 | 14176 | 150 | -68.3 | -75.0 | 258 | 38 |
| 2013-04-09T12:00 | 15000 | 131 | -67.2 | -78.7 | 249 | 31 |
| 2013-04-09T12:00 | 15511 | 120 | -69.6 | -85.5 | 242 | 25 |
| 2013-04-09T12:00 | 16000 | 111 | -73.3 | -90.1 | 234 | 30 |
| 2013-04-09T12:00 | 16578 | 100 | -74.5 | -90.3 | 242 | 26 |
| 2013-04-09T12:00 | 17000 | 93 | -76.1 | -91.6 | 235 | 23 |
| 2013-04-09T12:00 | 17188 | 90 | -77.3 | -92.6 | 236 | 21 |
| 2013-04-09T12:00 | 17861 | 80 | -78.8 | -93.9 | 241 | 14 |
| 2013-04-09T12:00 | 18000 | 78 | -78.8 | -93.9 | 254 | 15 |
| 2013-04-09T12:00 | 18229 | 75 | -74.9 | -90.6 | 250 | 11 |
| 2013-04-09T12:00 | 18637 | 70 | -69.4 | -87.8 | 251 | 10 |
| 2013-04-09T12:00 | 19000 | 66 | -70.3 | -89.5 | 346 | 5 |
| 2013-04-09T12:00 | 19554 | 60 | -70.9 | -91.3 | 265 | 10 |
| 2013-04-09T12:00 | 20000 | 56 | -72.0 | -92.1 | 303 | 12 |
| 2013-04-09T12:00 | 20644 | 50 | -62.1 | -86.1 | 312 | 6 |
| 2013-04-09T12:00 | 22000 | 40 | -61.1 | -87.7 | 35 | 7 |
| 2013-04-09T12:00 | 22023 | 40 | -61.2 | -87.7 | 39 | 8 |
| 2013-04-10T00:00 | 1377 | 865 | 22.3 | -8.4 | 110 | 5 |
| 2013-04-10T00:00 | 1500 | 852 | 25.2 | -11.3 | 141 | 8 |
| 2013-04-10T00:00 | 1525 | 850 | 25.1 | -11.4 | 147 | 8 |
| 2013-04-10T00:00 | 2000 | 805 | 21.2 | -11.6 | 167 | 9 |
| 2013-04-10T00:00 | 2051 | 800 | 20.0 | -12.0 | 16 | 8 |
| 2013-04-10T00:00 | 2324 | 775 | 18.8 | -10.1 | 192 | 7 |
| 2013-04-10T00:00 | 2500 | 759 | 17.7 | -10.1 | 219 | 8 |
| 2013-04-10T00:00 | 3000 | 716 | 13.6 | -11.7 | 255 | 11 |
| 2013-04-10T00:00 | 3186 | 700 | 12.0 | -12.3 | 256 | 12 |
| 2013-04-10T00:00 | 4000 | 634 | 4.4 | -13.9 | 263 | 18 |
| 2013-04-10T00:00 | 4447 | 600 | 0.3 | -14.8 | 266 | 19 |
| 2013-04-10T00:00 | 5000 | 560 | -2.5 | -9.6 | 250 | 19 |
| 2013-04-10T00:00 | 5500 | 525 | -5.9 | -11.4 | 242 | 17 |
| 2013-04-10T00:00 | 5887 | 500 | -9.3 | -12.4 | 245 | 17 |
| 2013-04-10T00:00 | 6000 | 493 | -10.1 | -13.5 | 249 | 18 |
| 2013-04-10T00:00 | 7000 | 432 | -13.3 | -58.9 | 254 | 25 |
| 2013-04-10T00:00 | 7585 | 400 | -16.5 | -31.2 | 245 | 32 |
| 2013-04-10T00:00 | 8000 | 378 | -20.2 | -32.0 | 241 | 33 |
| 2013-04-10T00:00 | 9000 | 330 | -27.8 | -39.8 | 251 | 37 |
| 2013-04-10T00:00 | 9675 | 300 | -33.4 | -42.5 | 247 | 37 |
| 2013-04-10T00:00 | 10000 | 286 | -36.0 | -44.4 | 244 | 37 |
| 2013-04-10T00:00 | 10930 | 250 | -43.3 | -57.0 | 239 | 39 |
| 2013-04-10T00:00 | 11000 | 247 | -43.5 | -58.0 | 239 | 39 |
| 2013-04-10T00:00 | 12000 | 213 | -49.7 | -67.5 | 240 | 43 |
| 2013-04-10T00:00 | 12402 | 200 | -53.4 | -66.3 | 239 | 43 |
| 2013-04-10T00:00 | 13000 | 182 | -59.1 | -66.4 | 242 | 42 |
| 2013-04-10T00:00 | 14000 | 155 | -67.8 | -73.0 | 244 | 44 |
| 2013-04-10T00:00 | 14182 | 150 | -69.4 | -74.7 | 245 | 45 |
| 2013-04-10T00:00 | 15000 | 131 | -67.5 | -79.7 | 257 | 38 |
| 2013-04-10T00:00 | 15524 | 120 | -69.2 | -83.9 | 247 | 35 |
| 2013-04-10T00:00 | 16000 | 111 | -71.3 | -86.9 | 250 | 33 |
| 2013-04-10T00:00 | 16602 | 100 | -70.9 | -88.1 | 275 | 28 |
| 2013-04-10T00:00 | 17000 | 94 | -72.7 | -89.6 | 269 | 21 |
| 2013-04-10T00:00 | 17221 | 90 | -74.6 | -91.1 | 267 | 20 |
| 2013-04-10T00:00 | 17898 | 80 | -79.0 | -94.1 | 248 | 12 |
| 2013-04-10T00:00 | 18000 | 79 | -79.5 | -94.5 | 245 | 11 |
| 2013-04-10T00:00 | 18263 | 75 | -79.8 | -94.7 | 224 | 9 |
| 2013-04-10T00:00 | 18661 | 70 | -73.2 | -89.2 | 279 | 13 |
| 2013-04-10T00:00 | 19000 | 66 | -71.4 | -87.7 | 215 | 7 |
| 2013-04-10T00:00 | 19570 | 60 | -72.2 | -90.0 | 299 | 6 |
| 2013-04-10T00:00 | 20000 | 56 | -69.7 | -88.0 | 325 | 4 |
| 2013-04-10T00:00 | 20660 | 50 | -64.6 | -86.3 | ||
| 2013-04-10T12:00 | 1377 | 865 | 29.5 | -6.6 | 170 | 6 |
| 2013-04-10T12:00 | 1500 | 853 | 26.2 | -12.2 | 146 | 9 |
| 2013-04-10T12:00 | 1526 | 850 | 25.9 | -12.5 | 147 | 9 |
| 2013-04-10T12:00 | 2000 | 805 | 21.3 | -12.8 | 185 | 8 |
| 2013-04-10T12:00 | 2054 | 800 | 20.0 | -13.0 | 18 | 8 |
| 2013-04-10T12:00 | 2326 | 775 | 18.2 | -13.9 | 167 | 6 |
| 2013-04-10T12:00 | 2500 | 759 | 16.5 | -14.0 | 184 | 6 |
| 2013-04-10T12:00 | 3000 | 716 | 12.8 | -8.3 | 257 | 10 |
| 2013-04-10T12:00 | 3185 | 700 | 11.3 | -9.6 | 250 | 11 |
| 2013-04-10T12:00 | 4000 | 634 | 4.9 | -13.9 | 255 | 18 |
| 2013-04-10T12:00 | 4446 | 600 | 0.8 | -14.4 | 256 | 20 |
| 2013-04-10T12:00 | 5000 | 560 | -4.3 | -13.1 | 257 | 21 |
| 2013-04-10T12:00 | 5500 | 525 | -6.3 | -38.2 | 267 | 21 |
| 2013-04-10T12:00 | 5882 | 500 | -7.5 | -39.1 | 267 | 19 |
| 2013-04-10T12:00 | 6000 | 493 | -7.9 | -36.6 | 270 | 18 |
| 2013-04-10T12:00 | 7000 | 432 | -14.0 | -44.0 | 266 | 22 |
| 2013-04-10T12:00 | 7586 | 400 | -17.9 | -53.1 | 261 | 24 |
| 2013-04-10T12:00 | 8000 | 378 | -21.6 | -53.3 | 266 | 24 |
| 2013-04-10T12:00 | 9000 | 330 | -29.1 | -61.2 | 264 | 30 |
| 2013-04-10T12:00 | 9665 | 300 | -33.6 | -54.2 | 257 | 32 |
| 2013-04-10T12:00 | 10000 | 286 | -36.4 | -52.8 | 261 | 34 |
| 2013-04-10T12:00 | 10916 | 250 | -43.2 | -59.2 | 252 | 41 |
| 2013-04-10T12:00 | 11000 | 247 | -43.5 | -59.9 | 252 | 42 |
| 2013-04-10T12:00 | 12000 | 212 | -51.8 | -67.0 | 258 | 45 |
| 2013-04-10T12:00 | 12382 | 200 | -55.0 | -69.8 | 260 | 44 |
| 2013-04-10T12:00 | 13000 | 181 | -58.5 | -74.3 | 251 | 44 |
| 2013-04-10T12:00 | 14000 | 154 | -66.7 | -77.6 | 252 | 47 |
| 2013-04-10T12:00 | 14167 | 150 | -66.9 | -78.9 | 249 | 48 |
| 2013-04-10T12:00 | 15000 | 131 | -70.4 | -85.0 | 267 | 45 |
| 2013-04-10T12:00 | 15501 | 120 | -71.1 | -86.1 | 271 | 35 |
| 2013-04-10T12:00 | 16000 | 110 | -72.4 | -88.5 | 272 | 32 |
| 2013-04-10T12:00 | 16570 | 100 | -75.6 | -91.3 | 277 | 29 |
| 2013-04-10T12:00 | 17000 | 93 | -71.1 | -88.2 | 262 | 19 |
| 2013-04-10T12:00 | 17186 | 90 | -72.8 | -90.5 | 251 | 18 |
| 2013-04-10T12:00 | 17867 | 80 | -76.0 | -93.1 | 251 | 20 |
| 2013-04-10T12:00 | 18000 | 78 | -75.6 | -92.8 | 253 | 20 |
| 2013-04-10T12:00 | 18240 | 75 | -77.4 | -94.3 | 246 | 21 |
| 2013-04-10T12:00 | 18638 | 70 | -74.3 | -91.8 | 302 | 16 |
| 2013-04-10T12:00 | 19000 | 66 | -72.0 | -90.9 | 280 | 11 |
| 2013-04-10T12:00 | 19547 | 60 | -71.6 | -91.8 | 35 | 4 |
| 2013-04-10T12:00 | 20000 | 56 | -67.9 | -88.9 | 57 | 1 |
| 2013-04-10T12:00 | 20642 | 50 | -65.2 | -88.5 | 342 | 7 |
| 2013-04-10T12:00 | 22000 | 40 | -58.8 | -85.9 | 45 | 10 |
| 2013-04-10T12:00 | 22021 | 40 | -58.8 | -85.9 | 48 | 10 |
| 2013-04-11T00:00 | 1377 | 863 | 21.3 | -2.5 | 330 | 2 |
| 2013-04-11T00:00 | 1500 | 851 | 25.2 | -5.1 | 322 | 7 |
| 2013-04-11T00:00 | 1516 | 850 | 25.1 | -5.2 | 325 | 7 |
| 2013-04-11T00:00 | 2000 | 804 | 21.4 | -3.9 | 291 | 7 |
| 2013-04-11T00:00 | 2042 | 800 | 21.0 | -3.0 | 28 | 6 |
| 2013-04-11T00:00 | 2315 | 775 | 19.5 | -4.0 | 251 | 8 |
| 2013-04-11T00:00 | 2500 | 758 | 17.8 | -4.1 | 244 | 9 |
| 2013-04-11T00:00 | 3000 | 715 | 13.1 | -4.0 | 248 | 11 |
| 2013-04-11T00:00 | 3178 | 700 | 11.3 | -3.6 | 256 | 13 |
| 2013-04-11T00:00 | 4000 | 633 | 3.9 | -7.2 | 259 | 15 |
| 2013-04-11T00:00 | 4437 | 600 | 0.0 | -8.4 | 259 | 18 |
| 2013-04-11T00:00 | 5000 | 559 | -2.2 | -28.8 | 281 | 16 |
| 2013-04-11T00:00 | 5500 | 525 | -4.6 | -31.7 | 291 | 18 |
| 2013-04-11T00:00 | 5878 | 500 | -7.1 | -37.3 | 286 | 16 |
| 2013-04-11T00:00 | 6000 | 492 | -8.2 | -38.1 | 290 | 15 |
| 2013-04-11T00:00 | 7000 | 432 | -14.3 | -59.6 | 288 | 17 |
| 2013-04-11T00:00 | 7581 | 400 | -18.8 | -57.1 | 286 | 18 |
| 2013-04-11T00:00 | 8000 | 378 | -21.8 | -59.2 | 288 | 21 |
| 2013-04-11T00:00 | 9000 | 329 | -29.5 | -59.3 | 280 | 24 |
| 2013-04-11T00:00 | 9656 | 300 | -35.3 | -61.9 | 281 | 24 |
| 2013-04-11T00:00 | 10000 | 285 | -38.5 | -66.0 | 283 | 24 |
| 2013-04-11T00:00 | 10897 | 250 | -45.5 | -69.9 | 280 | 26 |
| 2013-04-11T00:00 | 11000 | 246 | -46.5 | -70.6 | 279 | 26 |
| 2013-04-11T00:00 | 12000 | 211 | -51.5 | -73.3 | 269 | 38 |
| 2013-04-11T00:00 | 12353 | 200 | -53.0 | -77.2 | 264 | 42 |
| 2013-04-11T00:00 | 13000 | 181 | -55.8 | -79.4 | 268 | 49 |
| 2013-04-11T00:00 | 14000 | 154 | -63.6 | -80.5 | 267 | 49 |
| 2013-04-11T00:00 | 14159 | 150 | -65.0 | -81.7 | 270 | 49 |
| 2013-04-11T00:00 | 15000 | 130 | -71.0 | -85.5 | 275 | 38 |
| 2013-04-11T00:00 | 15488 | 120 | -72.4 | -86.7 | 270 | 32 |
| 2013-04-11T00:00 | 16000 | 110 | -72.7 | -88.1 | 264 | 24 |
| 2013-04-11T00:00 | 16556 | 100 | -75.1 | -90.8 | 264 | 31 |
| 2013-04-11T00:00 | 17000 | 93 | -74.4 | -90.2 | 277 | 26 |
| 2013-04-11T00:00 | 17168 | 90 | -73.3 | -89.3 | 278 | 20 |
| 2013-04-11T00:00 | 17855 | 80 | -73.4 | -90.1 | 304 | 23 |
| 2013-04-11T00:00 | 18000 | 78 | -71.0 | -88.2 | 316 | 20 |
| 2013-04-11T00:00 | 18237 | 75 | -70.4 | -88.6 | 345 | 12 |
| 2013-04-11T00:00 | 18643 | 70 | -73.1 | -90.8 | 55 | 4 |
| 2013-04-11T00:00 | 19000 | 66 | -76.2 | -94.3 | 162 | 4 |
| 2013-04-11T00:00 | 19538 | 60 | -74.8 | -93.2 | 320 | 3 |
| 2013-04-11T00:00 | 20000 | 56 | -70.7 | -89.8 | 314 | 8 |
| 2013-04-11T00:00 | 20626 | 50 | -65.8 | -88.9 | 78 | 4 |
| 2013-04-11T00:00 | 21999 | 40 | -59.8 | -90.7 | 42 | 1 |
| 2013-04-11T00:00 | 22000 | 40 | -59.8 | -90.7 | 42 | 1 |
| 2013-04-11T12:00 | 1377 | 864 | 30.8 | -0.7 | 270 | 8 |
| 2013-04-11T12:00 | 1500 | 852 | 27.2 | -7.0 | 283 | 8 |
| 2013-04-11T12:00 | 1517 | 850 | 27.0 | -7.2 | 283 | 8 |
| 2013-04-11T12:00 | 2000 | 804 | 22.5 | -7.2 | 275 | 8 |
| 2013-04-11T12:00 | 2045 | 800 | 22.0 | -7.0 | 27 | 8 |
| 2013-04-11T12:00 | 2319 | 775 | 19.5 | -7.7 | 249 | 9 |
| 2013-04-11T12:00 | 2500 | 759 | 17.9 | -8.2 | 247 | 8 |
| 2013-04-11T12:00 | 3000 | 715 | 13.1 | -9.3 | 243 | 11 |
| 2013-04-11T12:00 | 3180 | 700 | 11.6 | -9.4 | 234 | 12 |
| 2013-04-11T12:00 | 4000 | 634 | 5.2 | -26.4 | 250 | 11 |
| 2013-04-11T12:00 | 4444 | 600 | 1.4 | -29.3 | 253 | 9 |
| 2013-04-11T12:00 | 5000 | 560 | -2.4 | -28.0 | 268 | 7 |
| 2013-04-11T12:00 | 5500 | 525 | -2.9 | -52.3 | 286 | 5 |
| 2013-04-11T12:00 | 5888 | 500 | -5.9 | -44.5 | 306 | 5 |
| 2013-04-11T12:00 | 6000 | 493 | -6.9 | -45.2 | 320 | 6 |
| 2013-04-11T12:00 | 7000 | 433 | -14.7 | -48.2 | 301 | 6 |
| 2013-04-11T12:00 | 7589 | 400 | -19.4 | -48.2 | 321 | 8 |
| 2013-04-11T12:00 | 8000 | 378 | -22.6 | -48.1 | 303 | 9 |
| 2013-04-11T12:00 | 9000 | 329 | -30.6 | -58.3 | 284 | 14 |
| 2013-04-11T12:00 | 9657 | 300 | -35.9 | -62.4 | 293 | 13 |
| 2013-04-11T12:00 | 10000 | 285 | -38.8 | -64.6 | 291 | 14 |
| 2013-04-11T12:00 | 10897 | 250 | -45.7 | -70.0 | 283 | 12 |
| 2013-04-11T12:00 | 11000 | 246 | -46.5 | -70.6 | 282 | 12 |
| 2013-04-11T12:00 | 12000 | 211 | -51.4 | -74.4 | 268 | 28 |
| 2013-04-11T12:00 | 12354 | 200 | -53.1 | -77.3 | 272 | 30 |
| 2013-04-11T12:00 | 13000 | 181 | -57.2 | -80.5 | 272 | 36 |
| 2013-04-11T12:00 | 14000 | 154 | -64.1 | -83.4 | 275 | 40 |
| 2013-04-11T12:00 | 14159 | 150 | -65.2 | -83.4 | 277 | 38 |
| 2013-04-11T12:00 | 15000 | 131 | -68.4 | -86.0 | 270 | 28 |
| 2013-04-11T12:00 | 15499 | 120 | -70.4 | -88.6 | 271 | 23 |
| 2013-04-11T12:00 | 16000 | 110 | -73.7 | -92.3 | 279 | 23 |
| 2013-04-11T12:00 | 16567 | 100 | -76.3 | -93.4 | 276 | 26 |
| 2013-04-11T12:00 | 17000 | 93 | -76.0 | -93.1 | 301 | 19 |
| 2013-04-11T12:00 | 17176 | 90 | -74.6 | -92.0 | 299 | 14 |
| 2013-04-11T12:00 | 17858 | 80 | -76.1 | -93.2 | 290 | 13 |
| 2013-04-11T12:00 | 18000 | 78 | -75.7 | -92.9 | 317 | 13 |
| 2013-04-11T12:00 | 18232 | 75 | -74.8 | -92.2 | 338 | 13 |
| 2013-04-11T12:00 | 18633 | 70 | -73.8 | -92.4 | 265 | 7 |
| 2013-04-11T12:00 | 19000 | 66 | -73.3 | -93.2 | 301 | 10 |
| 2013-04-11T12:00 | 19538 | 60 | -69.8 | -90.4 | 12 | 14 |
| 2013-04-11T12:00 | 20000 | 56 | -69.3 | -91.7 | 69 | 8 |
| 2013-04-11T12:00 | 20631 | 50 | -65.1 | -90.7 | 17 | 5 |
| 2013-04-11T12:00 | 22000 | 40 | -60.8 | -91.4 | 64 | 12 |
| 2013-04-11T12:00 | 23808 | 30 | -56.9 | -88.7 | 118 | 9 |
| 2013-04-11T12:00 | 24000 | 29 | -55.7 | -87.8 | 121 | 8 |
| 2013-04-12T00:00 | 1377 | 863 | 18.7 | -8.4 | 90 | 1 |
| 2013-04-12T00:00 | 1500 | 851 | 26.8 | -8.6 | 20 | 1 |
| 2013-04-12T00:00 | 1511 | 850 | 26.8 | -10.2 | 14 | 1 |
| 2013-04-12T00:00 | 2000 | 804 | 22.8 | -9.1 | 222 | 4 |
| 2013-04-12T00:00 | 2041 | 800 | 22.0 | -8.0 | 22 | 4 |
| 2013-04-12T00:00 | 2315 | 775 | 19.8 | -7.5 | 222 | 7 |
| 2013-04-12T00:00 | 2500 | 758 | 18.0 | -7.3 | 230 | 7 |
| 2013-04-12T00:00 | 3000 | 715 | 13.3 | -8.5 | 244 | 11 |
| 2013-04-12T00:00 | 3177 | 700 | 11.9 | -8.6 | 243 | 12 |
| 2013-04-12T00:00 | 4000 | 633 | 4.4 | -18.5 | 230 | 8 |
| 2013-04-12T00:00 | 4438 | 600 | 0.7 | -27.5 | 238 | 4 |
| 2013-04-12T00:00 | 5000 | 559 | -2.7 | -33.9 | 195 | 4 |
| 2013-04-12T00:00 | 5500 | 525 | -5.9 | -35.0 | 197 | 5 |
| 2013-04-12T00:00 | 5877 | 500 | -7.4 | -45.6 | 201 | 7 |
| 2013-04-12T00:00 | 6000 | 492 | -7.9 | -49.5 | 205 | 8 |
| 2013-04-12T00:00 | 7000 | 432 | -14.3 | -53.9 | 238 | 7 |
| 2013-04-12T00:00 | 7579 | 400 | -19.0 | -49.5 | 251 | 8 |
| 2013-04-12T00:00 | 8000 | 378 | -22.9 | -50.8 | 256 | 7 |
| 2013-04-12T00:00 | 9000 | 329 | -31.5 | -63.0 | 264 | 12 |
| 2013-04-12T00:00 | 9642 | 300 | -37.3 | -49.9 | 265 | 11 |
| 2013-04-12T00:00 | 10000 | 285 | -40.8 | -50.4 | 275 | 10 |
| 2013-04-12T00:00 | 10876 | 250 | -44.8 | -72.9 | 265 | 20 |
| 2013-04-12T00:00 | 11000 | 245 | -45.5 | -76.1 | 266 | 22 |
| 2013-04-12T00:00 | 12000 | 211 | -51.1 | -71.0 | 269 | 33 |
| 2013-04-12T00:00 | 12340 | 200 | -53.4 | -72.9 | 268 | 36 |
| 2013-04-12T00:00 | 13000 | 180 | -57.8 | -76.4 | 268 | 34 |
| 2013-04-12T00:00 | 14000 | 154 | -64.1 | -80.9 | 283 | 25 |
| 2013-04-12T00:00 | 14140 | 150 | -64.9 | -81.6 | 284 | 23 |
| 2013-04-12T00:00 | 15000 | 130 | -67.6 | -85.3 | 271 | 19 |
| 2013-04-12T00:00 | 15486 | 120 | -68.1 | -86.7 | 282 | 17 |
| 2013-04-12T00:00 | 16000 | 110 | -70.9 | -90.0 | 291 | 15 |
| 2013-04-12T00:00 | 16566 | 100 | -74.1 | -92.6 | 297 | 13 |
| 2013-04-12T00:00 | 17000 | 93 | -74.2 | -91.7 | 309 | 10 |
| 2013-04-12T00:00 | 17178 | 90 | -74.5 | -91.9 | 327 | 6 |
| 2013-04-12T00:00 | 17857 | 80 | -76.6 | -93.6 | 287 | 7 |
| 2013-04-12T00:00 | 18000 | 78 | -75.7 | -92.0 | 248 | 3 |
| 2013-04-12T00:00 | 18231 | 75 | -74.0 | -90.6 | 257 | 8 |
| 2013-04-12T00:00 | 18634 | 70 | -73.6 | -91.2 | 309 | 8 |
| 2013-04-12T00:00 | 19000 | 66 | -70.0 | -88.3 | 5 | 9 |
| 2013-04-12T12:00 | 1377 | 863 | 32.7 | -0.3 | 210 | 9 |
| 2013-04-12T12:00 | 1500 | 851 | 29.4 | -6.7 | 206 | 6 |
| 2013-04-12T12:00 | 1509 | 850 | 29.3 | -6.8 | 207 | 6 |
| 2013-04-12T12:00 | 2000 | 804 | 24.3 | -6.8 | 230 | 8 |
| 2013-04-12T12:00 | 2041 | 800 | 23.0 | -7.0 | 23 | 8 |
| 2013-04-12T12:00 | 2317 | 775 | 21.1 | -7.4 | 228 | 9 |
| 2013-04-12T12:00 | 2500 | 759 | 19.3 | -7.9 | 238 | 10 |
| 2013-04-12T12:00 | 3000 | 715 | 14.5 | -8.8 | 232 | 9 |
| 2013-04-12T12:00 | 3182 | 700 | 12.8 | -9.0 | 243 | 9 |
| 2013-04-12T12:00 | 4000 | 634 | 4.6 | -10.3 | 213 | 11 |
| 2013-04-12T12:00 | 4445 | 600 | 0.1 | -11.6 | 214 | 12 |
| 2013-04-12T12:00 | 5000 | 560 | -5.3 | -12.0 | 202 | 10 |
| 2013-04-12T12:00 | 5500 | 525 | -7.2 | -38.8 | 240 | 11 |
| 2013-04-12T12:00 | 5876 | 500 | -8.6 | -43.8 | 245 | 11 |
| 2013-04-12T12:00 | 6000 | 492 | -9.5 | -47.0 | 250 | 11 |
| 2013-04-12T12:00 | 7000 | 432 | -15.7 | -54.9 | 232 | 9 |
| 2013-04-12T12:00 | 7568 | 400 | -19.9 | -48.6 | 233 | 12 |
| 2013-04-12T12:00 | 8000 | 377 | -23.2 | -37.8 | 240 | 13 |
| 2013-04-12T12:00 | 9000 | 328 | -32.7 | -44.2 | 225 | 14 |
| 2013-04-12T12:00 | 9625 | 300 | -38.8 | -45.2 | 224 | 14 |
| 2013-04-12T12:00 | 10000 | 284 | -42.3 | -46.4 | 232 | 17 |
| 2013-04-12T12:00 | 10855 | 250 | -45.9 | -73.7 | 243 | 23 |
| 2013-04-12T12:00 | 11000 | 245 | -47.0 | -72.6 | 243 | 23 |
| 2013-04-12T12:00 | 12000 | 210 | -51.8 | -74.8 | 241 | 26 |
| 2013-04-12T12:00 | 12311 | 200 | -53.3 | -77.5 | 243 | 31 |
| 2013-04-12T12:00 | 13000 | 180 | -57.1 | -79.0 | 254 | 33 |
| 2013-04-12T12:00 | 14000 | 153 | -61.7 | -82.6 | 248 | 27 |
| 2013-04-12T12:00 | 14121 | 150 | -62.4 | -84.6 | 252 | 25 |
| 2013-04-12T12:00 | 15000 | 130 | -66.8 | -88.0 | 253 | 23 |
| 2013-04-12T12:00 | 15474 | 120 | -68.8 | -89.6 | 256 | 16 |
| 2013-04-12T12:00 | 16000 | 110 | -71.7 | -91.9 | 268 | 15 |
| 2013-04-12T12:00 | 16549 | 100 | -74.4 | -94.1 | 264 | 12 |
| 2013-04-12T12:00 | 17000 | 93 | -75.0 | -93.3 | 254 | 15 |
| 2013-04-12T12:00 | 17160 | 90 | -75.8 | -94.0 | 267 | 15 |
| 2013-04-12T12:00 | 17838 | 80 | -76.9 | -94.9 | 316 | 7 |
| 2013-04-12T12:00 | 18000 | 78 | -72.7 | -91.5 | 279 | 4 |
| 2013-04-12T12:00 | 18216 | 75 | -72.8 | -91.5 | 355 | 4 |
| 2013-04-12T12:00 | 18621 | 70 | -70.0 | -90.6 | 22 | 3 |
| 2013-04-12T12:00 | 19000 | 66 | -70.5 | -91.0 | 143 | 8 |
| 2013-04-12T12:00 | 19533 | 60 | -71.8 | -92.0 | 244 | 2 |
| 2013-04-12T12:00 | 20000 | 55 | -69.4 | -91.7 | 105 | 2 |
| 2013-04-13T00:00 | 1377 | 863 | 21.5 | -3.0 | 100 | 2 |
| 2013-04-13T00:00 | 1500 | 851 | 27.7 | -4.2 | 164 | 2 |
| 2013-04-13T00:00 | 1509 | 850 | 27.7 | -4.2 | 165 | 2 |
| 2013-04-13T00:00 | 2000 | 804 | 23.6 | -5.4 | 185 | 4 |
| 2013-04-13T00:00 | 2041 | 800 | 23.0 | -5.0 | 18 | 4 |
| 2013-04-13T00:00 | 2316 | 775 | 20.9 | -6.6 | 175 | 7 |
| 2013-04-13T00:00 | 2500 | 759 | 19.0 | -7.3 | 180 | 8 |
| 2013-04-13T00:00 | 3000 | 715 | 14.4 | -8.2 | 182 | 10 |
| 2013-04-13T00:00 | 3181 | 700 | 12.6 | -8.5 | 180 | 10 |
| 2013-04-13T00:00 | 4000 | 634 | 4.9 | -9.2 | 187 | 10 |
| 2013-04-13T00:00 | 4446 | 600 | 0.7 | -9.6 | 195 | 10 |
| 2013-04-13T00:00 | 5000 | 560 | -4.7 | -10.0 | 200 | 11 |
| 2013-04-13T00:00 | 5500 | 525 | -9.4 | -13.0 | 191 | 12 |
| 2013-04-13T00:00 | 5873 | 500 | -12.9 | -14.5 | 208 | 11 |
| 2013-04-13T00:00 | 6000 | 492 | -13.8 | -16.3 | 215 | 11 |
| 2013-04-13T00:00 | 7000 | 431 | -17.0 | -38.3 | 251 | 13 |
| 2013-04-13T00:00 | 7554 | 400 | -22.3 | -34.9 | 243 | 15 |
| 2013-04-13T00:00 | 8000 | 376 | -26.1 | -37.1 | 253 | 14 |
| 2013-04-13T00:00 | 9000 | 327 | -33.0 | -57.5 | 277 | 19 |
| 2013-04-13T00:00 | 9599 | 300 | -37.8 | -54.0 | 278 | 20 |
| 2013-04-13T00:00 | 10000 | 283 | -41.8 | -54.9 | 279 | 20 |
| 2013-04-13T00:00 | 10826 | 250 | -48.4 | -62.3 | 283 | 22 |
| 2013-04-13T00:00 | 11000 | 244 | -50.0 | -62.5 | 282 | 23 |
| 2013-04-13T00:00 | 12000 | 209 | -52.5 | -70.5 | 267 | 27 |
| 2013-04-13T00:00 | 12270 | 200 | -52.0 | -73.7 | 262 | 27 |
| 2013-04-13T00:00 | 13000 | 179 | -54.9 | -80.5 | 257 | 23 |
| 2013-04-13T00:00 | 14000 | 153 | -58.8 | -83.5 | 263 | 22 |
| 2013-04-13T00:00 | 14104 | 150 | -59.7 | -84.2 | 261 | 22 |
| 2013-04-13T00:00 | 15000 | 130 | -64.3 | -87.7 | 268 | 15 |
| 2013-04-13T00:00 | 15472 | 120 | -67.3 | -90.1 | 240 | 15 |
| 2013-04-13T00:00 | 16000 | 110 | -69.3 | -90.0 | 249 | 19 |
| 2013-04-13T00:00 | 16559 | 100 | -71.7 | -91.9 | 286 | 14 |
| 2013-04-13T00:00 | 17000 | 93 | -73.8 | -92.4 | 269 | 9 |
| 2013-04-13T00:00 | 17176 | 90 | -75.2 | -93.5 | 251 | 8 |
| 2013-04-13T00:00 | 17858 | 80 | -74.8 | -93.2 | 234 | 7 |
| 2013-04-13T00:00 | 18000 | 78 | -75.1 | -92.4 | 244 | 9 |
| 2013-04-13T00:00 | 18233 | 75 | -74.2 | -91.7 | 256 | 5 |
| 2013-04-13T00:00 | 18636 | 70 | -74.1 | -91.6 | 246 | 5 |
| 2013-04-13T00:00 | 19000 | 66 | -71.4 | -89.4 | 149 | 4 |
| 2013-04-13T00:00 | 19546 | 60 | -70.3 | -89.5 | 123 | 9 |
| 2013-04-13T00:00 | 20000 | 56 | -68.1 | -89.0 | 110 | 8 |
| 2013-04-13T00:00 | 20642 | 50 | -65.1 | -88.4 | 136 | 8 |
| 2013-04-13T00:00 | 22000 | 40 | -59.0 | -86.1 | 157 | 2 |
| 2013-04-13T00:00 | 22014 | 40 | -59.0 | -86.1 | 144 | 2 |
| 2013-04-13T12:00 | 1377 | 864 | 31.4 | -1.3 | 180 | 12 |
| 2013-04-13T12:00 | 1500 | 852 | 27.8 | -7.9 | 184 | 13 |
| 2013-04-13T12:00 | 1525 | 850 | 27.4 | -6.9 | 184 | 14 |
| 2013-04-13T12:00 | 2000 | 805 | 23.0 | -7.8 | 181 | 14 |
| 2013-04-13T12:00 | 2055 | 800 | 22.0 | -8.0 | 18 | 13 |
| 2013-04-13T12:00 | 2329 | 775 | 20.0 | -8.2 | 173 | 13 |
| 2013-04-13T12:00 | 2500 | 760 | 18.4 | -7.8 | 170 | 14 |
| 2013-04-13T12:00 | 3000 | 716 | 13.9 | -4.7 | 183 | 11 |
| 2013-04-13T12:00 | 3192 | 700 | 12.0 | -5.0 | 185 | 11 |
| 2013-04-13T12:00 | 4000 | 635 | 4.9 | -7.2 | 192 | 11 |
| 2013-04-13T12:00 | 4456 | 600 | 0.5 | -7.9 | 195 | 10 |
| 2013-04-13T12:00 | 5000 | 560 | -4.4 | -8.5 | 204 | 10 |
| 2013-04-13T12:00 | 5500 | 526 | -8.5 | -11.8 | 213 | 12 |
| 2013-04-13T12:00 | 5886 | 500 | -11.5 | -13.8 | 215 | 12 |
| 2013-04-13T12:00 | 6000 | 493 | -12.3 | -14.9 | 220 | 12 |
| 2013-04-13T12:00 | 7000 | 432 | -18.6 | -44.9 | 255 | 10 |
| 2013-04-13T12:00 | 7562 | 400 | -22.5 | -38.5 | 252 | 7 |
| 2013-04-13T12:00 | 8000 | 377 | -26.7 | -38.5 | 261 | 8 |
| 2013-04-13T12:00 | 9000 | 327 | -32.0 | -59.3 | 243 | 13 |
| 2013-04-13T12:00 | 9612 | 300 | -36.9 | -58.5 | 252 | 18 |
| 2013-04-13T12:00 | 10000 | 284 | -40.2 | -63.1 | 249 | 19 |
| 2013-04-13T12:00 | 10845 | 250 | -46.9 | -53.7 | 261 | 21 |
| 2013-04-13T12:00 | 11000 | 244 | -48.2 | -54.7 | 262 | 22 |
| 2013-04-13T12:00 | 12000 | 209 | -56.8 | -62.5 | 255 | 30 |
| 2013-04-13T12:00 | 12285 | 200 | -56.5 | -69.4 | 263 | 33 |
| 2013-04-13T12:00 | 13000 | 179 | -55.2 | -78.9 | 266 | 43 |
| 2013-04-13T12:00 | 14000 | 153 | -61.2 | -85.3 | 267 | 30 |
| 2013-04-13T12:00 | 14101 | 150 | -61.6 | -85.7 | 260 | 27 |
| 2013-04-13T12:00 | 15000 | 130 | -65.4 | -88.6 | 257 | 31 |
| 2013-04-13T12:00 | 15468 | 120 | -67.0 | -89.8 | 272 | 23 |
| 2013-04-13T12:00 | 16000 | 110 | -70.5 | -92.6 | 268 | 21 |
| 2013-04-14T00:00 | 1377 | 866 | 27.4 | 1.8 | 170 | 5 |
| 2013-04-14T00:00 | 1500 | 854 | 27.3 | -1.5 | 144 | 7 |
| 2013-04-14T00:00 | 1540 | 850 | 26.9 | -1.9 | 148 | 8 |
| 2013-04-14T00:00 | 2000 | 806 | 22.9 | -2.6 | 165 | 11 |
| 2013-04-14T00:00 | 2070 | 800 | 22.3 | -3.1 | 168 | 12 |
| 2013-04-14T00:00 | 2344 | 775 | 19.7 | -3.8 | 169 | 11 |
| 2013-04-14T00:00 | 2500 | 761 | 18.2 | -3.8 | 169 | 13 |
| 2013-04-14T00:00 | 3000 | 717 | 13.5 | -5.1 | 176 | 16 |
| 2013-04-14T00:00 | 3206 | 700 | 11.5 | -5.0 | 178 | 16 |
| 2013-04-14T00:00 | 4000 | 636 | 4.3 | -6.6 | 185 | 11 |
| 2013-04-14T00:00 | 4467 | 600 | -0.2 | -7.6 | 186 | 11 |
| 2013-04-14T00:00 | 5000 | 561 | -4.7 | -8.8 | 207 | 9 |
| 2013-04-14T00:00 | 5500 | 526 | -8.6 | -10.3 | 244 | 4 |
| 2013-04-14T00:00 | 5895 | 500 | -11.7 | -14.3 | 236 | 7 |
| 2013-04-14T00:00 | 6000 | 493 | -12.3 | -15.0 | 244 | 7 |
| 2013-04-14T00:00 | 7000 | 432 | -19.7 | -26.4 | 250 | 12 |
| 2013-04-14T00:00 | 7564 | 400 | -24.0 | -26.5 | 234 | 10 |
| 2013-04-14T00:00 | 8000 | 377 | -27.1 | -30.0 | 225 | 9 |
| 2013-04-14T00:00 | 9000 | 327 | -35.2 | -38.7 | 212 | 15 |
| 2013-04-14T00:00 | 9598 | 300 | -38.6 | -54.2 | 241 | 20 |
| 2013-04-14T00:00 | 10000 | 283 | -40.7 | -59.3 | 243 | 24 |
| 2013-04-14T00:00 | 10828 | 250 | -47.4 | -58.0 | 261 | 26 |
| 2013-04-14T00:00 | 11000 | 244 | -48.4 | -60.8 | 265 | 29 |
| 2013-04-14T00:00 | 12000 | 209 | -53.1 | -69.1 | 262 | 44 |
| 2013-04-14T00:00 | 12279 | 200 | -52.1 | -71.0 | 262 | 45 |
| 2013-04-14T00:00 | 13000 | 179 | -56.2 | -77.0 | 267 | 54 |
| 2013-04-14T00:00 | 14000 | 153 | -60.9 | -82.0 | 276 | 36 |
| 2013-04-14T00:00 | 14101 | 150 | -61.3 | -83.7 | 270 | 33 |
| 2013-04-14T00:00 | 15000 | 130 | -59.7 | -86.6 | 266 | 22 |
| 2013-04-14T00:00 | 15493 | 120 | -62.3 | -92.5 | 257 | 12 |
| 2013-04-14T00:00 | 16000 | 110 | -66.8 | -92.0 | 229 | 14 |
| 2013-04-14T00:00 | 16593 | 100 | -70.4 | -94.7 | 247 | 16 |
| 2013-04-14T00:00 | 17000 | 93 | -71.6 | -93.4 | 243 | 14 |
| 2013-04-14T00:00 | 17216 | 90 | -72.2 | -93.9 | 244 | 15 |
| 2013-04-14T00:00 | 17903 | 80 | -75.7 | -95.1 | 227 | 10 |
| 2013-04-14T00:00 | 18000 | 79 | -76.1 | -95.4 | 224 | 10 |
| 2013-04-14T00:00 | 18276 | 75 | -76.2 | -95.5 | 233 | 11 |
| 2013-04-14T00:00 | 18676 | 70 | -73.7 | -92.3 | 245 | 9 |
| 2013-04-14T00:00 | 19000 | 66 | -69.5 | -88.9 | 194 | 3 |
| 2013-04-14T00:00 | 19594 | 60 | -68.7 | -91.2 | 129 | 7 |
| 2013-04-14T00:00 | 20000 | 56 | -68.4 | -90.9 | 23 | 3 |
| 2013-04-14T00:00 | 20697 | 50 | -63.5 | -89.5 | 117 | 3 |
| 2013-04-14T12:00 | 1377 | 867 | 30.6 | -0.9 | 140 | 2 |
| 2013-04-14T12:00 | 1500 | 855 | 27.1 | -5.8 | 162 | 4 |
| 2013-04-14T12:00 | 1549 | 850 | 26.7 | -6.1 | 159 | 4 |
| 2013-04-14T12:00 | 2000 | 807 | 22.4 | -7.3 | 144 | 5 |
| 2013-04-14T12:00 | 2077 | 800 | 21.0 | -7.0 | 14 | 5 |
| 2013-04-14T12:00 | 2350 | 775 | 19.0 | -7.3 | 158 | 5 |
| 2013-04-14T12:00 | 2500 | 762 | 17.6 | -7.7 | 166 | 5 |
| 2013-04-14T12:00 | 3000 | 718 | 12.8 | -8.3 | 154 | 6 |
| 2013-04-14T12:00 | 3210 | 700 | 10.9 | -7.8 | 164 | 6 |
| 2013-04-14T12:00 | 4000 | 636 | 4.2 | -9.2 | 205 | 10 |
| 2013-04-14T12:00 | 4469 | 600 | -0.2 | -13.1 | 221 | 12 |
| 2013-04-14T12:00 | 5000 | 561 | -4.9 | -14.7 | 209 | 12 |
| 2013-04-14T12:00 | 5500 | 526 | -9.3 | -16.2 | 196 | 13 |
| 2013-04-14T12:00 | 5895 | 500 | -12.0 | -17.8 | 195 | 10 |
| 2013-04-14T12:00 | 6000 | 493 | -12.5 | -18.4 | 196 | 10 |
| 2013-04-14T12:00 | 7000 | 432 | -18.6 | -25.4 | 213 | 9 |
| 2013-04-14T12:00 | 7568 | 400 | -23.1 | -29.1 | 239 | 10 |
| 2013-04-14T12:00 | 8000 | 377 | -26.8 | -32.8 | 243 | 10 |
| 2013-04-14T12:00 | 9000 | 327 | -35.0 | -41.6 | 246 | 14 |
| 2013-04-14T12:00 | 9602 | 300 | -40.1 | -47.0 | 248 | 18 |
| 2013-04-14T12:00 | 10000 | 283 | -43.5 | -49.3 | 250 | 14 |
| 2013-04-14T12:00 | 10818 | 250 | -50.7 | -56.3 | 263 | 21 |
| 2013-04-14T12:00 | 11000 | 243 | -49.2 | -64.3 | 270 | 30 |
| 2013-04-14T12:00 | 12000 | 209 | -49.6 | -74.6 | 267 | 50 |
| 2013-04-14T12:00 | 12277 | 200 | -51.4 | -76.0 | 270 | 51 |
| 2013-04-14T12:00 | 13000 | 179 | -55.7 | -81.1 | 273 | 50 |
| 2013-04-14T12:00 | 14000 | 152 | -61.9 | -84.2 | 274 | 33 |
| 2013-04-14T12:00 | 14099 | 150 | -62.3 | -86.2 | 269 | 31 |
| 2013-04-14T12:00 | 15000 | 129 | -67.8 | -88.8 | 243 | 38 |
| 2013-04-14T12:00 | 15457 | 120 | -65.6 | -88.7 | 260 | 34 |
| 2013-04-14T12:00 | 16000 | 110 | -66.2 | -89.2 | 273 | 23 |
| 2013-04-14T12:00 | 16555 | 100 | -70.1 | -94.5 | 272 | 20 |
| 2013-04-14T12:00 | 17000 | 93 | -71.9 | -93.6 | 248 | 17 |
| 2013-04-14T12:00 | 17178 | 90 | -71.9 | -93.6 | 264 | 19 |
| 2013-04-14T12:00 | 17868 | 80 | -73.5 | -94.9 | 269 | 12 |
| 2013-04-14T12:00 | 18000 | 78 | -73.7 | -95.1 | 264 | 11 |
| 2013-04-14T12:00 | 18245 | 75 | -71.3 | -93.2 | 253 | 8 |
| 2013-04-14T12:00 | 18656 | 70 | -69.5 | -91.8 | 60 | 4 |
| 2013-04-14T12:00 | 19000 | 66 | -71.6 | -93.4 | 31 | 2 |
| 2013-04-14T12:00 | 19572 | 60 | -68.4 | -90.9 | 72 | 3 |
| 2013-04-14T12:00 | 20000 | 56 | -63.5 | -89.5 | 226 | 5 |
| 2013-04-14T12:00 | 20687 | 50 | -62.5 | -88.8 | 321 | 6 |
| 2013-04-14T12:00 | 22000 | 40 | -61.3 | -91.7 | 47 | 8 |
| 2013-04-14T12:00 | 22066 | 40 | -61.7 | -92.0 | 53 | 9 |
| 2013-04-14T12:00 | 23860 | 30 | -56.7 | -88.5 | 87 | 8 |
| 2013-04-14T12:00 | 24000 | 29 | -56.2 | -88.1 | 84 | 12 |
| 2013-04-15T00:00 | 1377 | 867 | 25.4 | 4.0 | 10 | 6 |
| 2013-04-15T00:00 | 1500 | 855 | 25.4 | 0.2 | 6 | 9 |
| 2013-04-15T00:00 | 1550 | 850 | 24.9 | -0.2 | 6 | 10 |
| 2013-04-15T00:00 | 2000 | 807 | 21.6 | -3.6 | 350 | 5 |
| 2013-04-15T00:00 | 2076 | 800 | 21.0 | -4.0 | 35 | 3 |
| 2013-04-15T00:00 | 2349 | 775 | 19.0 | -7.3 | 225 | 2 |
| 2013-04-15T00:00 | 2500 | 761 | 17.7 | -8.4 | 204 | 3 |
| 2013-04-15T00:00 | 3000 | 718 | 13.1 | -9.3 | 195 | 4 |
| 2013-04-15T00:00 | 3210 | 700 | 11.0 | -9.9 | 183 | 5 |
| 2013-04-15T00:00 | 4000 | 636 | 3.4 | -11.3 | 204 | 8 |
| 2013-04-15T00:00 | 4466 | 600 | -1.2 | -11.9 | 188 | 10 |
| 2013-04-15T00:00 | 5000 | 561 | -6.7 | -12.6 | 184 | 11 |
| 2013-04-15T00:00 | 5500 | 526 | -11.4 | -13.8 | 199 | 11 |
| 2013-04-15T00:00 | 5883 | 500 | -13.3 | -16.3 | 199 | 14 |
| 2013-04-15T00:00 | 6000 | 492 | -14.0 | -16.8 | 197 | 15 |
| 2013-04-15T00:00 | 7000 | 431 | -19.7 | -22.0 | 234 | 17 |
| 2013-04-15T00:00 | 7552 | 400 | -23.7 | -25.8 | 237 | 15 |
| 2013-04-15T00:00 | 8000 | 376 | -27.6 | -30.7 | 255 | 13 |
| 2013-04-15T00:00 | 9000 | 326 | -35.6 | -39.7 | 223 | 15 |
| 2013-04-15T00:00 | 9581 | 300 | -40.6 | -44.4 | 236 | 25 |
| 2013-04-15T00:00 | 10000 | 282 | -44.2 | -47.3 | 247 | 27 |
| 2013-04-15T00:00 | 10801 | 250 | -46.3 | -68.1 | 265 | 36 |
| 2013-04-15T00:00 | 11000 | 243 | -46.8 | -70.8 | 265 | 40 |
| 2013-04-15T00:00 | 12000 | 209 | -50.1 | -73.4 | 271 | 60 |
| 2013-04-15T00:00 | 12273 | 200 | -51.9 | -73.6 | 271 | 60 |
| 2013-04-15T00:00 | 13000 | 179 | -55.3 | -79.0 | 276 | 56 |
| 2013-04-15T00:00 | 14000 | 152 | -60.2 | -82.8 | 265 | 39 |
| 2013-04-15T00:00 | 14097 | 150 | -60.9 | -83.4 | 263 | 39 |
| 2013-04-15T00:00 | 15000 | 130 | -62.5 | -86.3 | 261 | 38 |
| 2013-04-15T00:00 | 15472 | 120 | -65.1 | -88.4 | 274 | 30 |
| 2013-04-15T00:00 | 16000 | 110 | -68.4 | -90.9 | 264 | 26 |
| 2013-04-15T00:00 | 16569 | 100 | -68.8 | -91.3 | 270 | 20 |
| 2013-04-15T00:00 | 17000 | 93 | -70.7 | -92.7 | 275 | 15 |
| 2013-04-15T00:00 | 17195 | 90 | -71.5 | -93.3 | 277 | 13 |
| 2013-04-15T00:00 | 17887 | 80 | -73.3 | -93.2 | 244 | 10 |
| 2013-04-15T00:00 | 18000 | 79 | -73.3 | -93.2 | 251 | 10 |
| 2013-04-15T00:00 | 18266 | 75 | -73.2 | -93.1 | 269 | 7 |
| 2013-04-15T00:00 | 18668 | 70 | -73.8 | -93.6 | 262 | 6 |
| 2013-04-15T00:00 | 19000 | 66 | -75.2 | -93.5 | 261 | 9 |
| 2013-04-15T00:00 | 19574 | 60 | -69.3 | -90.0 | 290 | 4 |
| 2013-04-15T12:00 | 1377 | 866 | 30.0 | -3.6 | 200 | 7 |
| 2013-04-15T12:00 | 1500 | 854 | 26.6 | -8.8 | 210 | 7 |
| 2013-04-15T12:00 | 1542 | 850 | 26.2 | -9.1 | 211 | 7 |
| 2013-04-15T12:00 | 2000 | 806 | 21.7 | -8.9 | 211 | 7 |
| 2013-04-15T12:00 | 2069 | 800 | 21.0 | -9.0 | 21 | 7 |
| 2013-04-15T12:00 | 2342 | 775 | 18.4 | -9.5 | 212 | 7 |
| 2013-04-15T12:00 | 2500 | 761 | 16.9 | -9.8 | 199 | 6 |
| 2013-04-15T12:00 | 3000 | 717 | 12.0 | -10.9 | 199 | 6 |
| 2013-04-15T12:00 | 3199 | 700 | 10.1 | -11.2 | 208 | 8 |
| 2013-04-15T12:00 | 4000 | 635 | 2.2 | -12.4 | 201 | 8 |
| 2013-04-15T12:00 | 4451 | 600 | -2.2 | -13.1 | 207 | 8 |
| 2013-04-15T12:00 | 5000 | 560 | -7.4 | -14.2 | 191 | 7 |
| 2013-04-15T12:00 | 5500 | 525 | -12.0 | -15.3 | 175 | 7 |
| 2013-04-15T12:00 | 5864 | 500 | -13.8 | -16.1 | 195 | 8 |
| 2013-04-15T12:00 | 6000 | 491 | -14.5 | -16.1 | 219 | 10 |
| 2013-04-15T12:00 | 7000 | 430 | -21.7 | -25.7 | 232 | 13 |
| 2013-04-15T12:00 | 7523 | 400 | -25.5 | -28.1 | 241 | 17 |
| 2013-04-15T12:00 | 8000 | 374 | -28.8 | -32.4 | 237 | 15 |
| 2013-04-15T12:00 | 9000 | 325 | -37.4 | -43.7 | 242 | 17 |
| 2013-04-15T12:00 | 9543 | 300 | -39.9 | -67.1 | 262 | 22 |
| 2013-04-15T12:00 | 10000 | 281 | -41.7 | -70.5 | 273 | 26 |
| 2013-04-15T12:00 | 10771 | 250 | -47.1 | -72.7 | 272 | 33 |
| 2013-04-15T12:00 | 11000 | 242 | -47.8 | -75.1 | 267 | 38 |
| 2013-04-15T12:00 | 12000 | 207 | -52.1 | -78.4 | 264 | 44 |
| 2013-04-15T12:00 | 12228 | 200 | -52.8 | -77.1 | 267 | 48 |
| 2013-04-15T12:00 | 13000 | 177 | -55.8 | -81.2 | 267 | 44 |
| 2013-04-15T12:00 | 14000 | 151 | -59.0 | -86.1 | 265 | 41 |
| 2013-04-15T12:00 | 14058 | 150 | -58.6 | -85.8 | 267 | 40 |
| 2013-04-15T12:00 | 15000 | 129 | -63.1 | -89.2 | 269 | 32 |
| 2013-04-15T12:00 | 15438 | 120 | -65.8 | -91.2 | 270 | 26 |
| 2013-04-15T12:00 | 16000 | 109 | -69.6 | -91.9 | 249 | 18 |
| 2013-04-15T12:00 | 16525 | 100 | -72.1 | -93.8 | 256 | 25 |
| 2013-04-15T12:00 | 17000 | 92 | -72.9 | -92.9 | 267 | 21 |
| 2013-04-15T12:00 | 17144 | 90 | -72.5 | -92.5 | 260 | 21 |
| 2013-04-15T12:00 | 17828 | 80 | -75.6 | -95.0 | 279 | 22 |
| 2013-04-15T12:00 | 18000 | 78 | -71.0 | -91.4 | 307 | 18 |
| 2013-04-15T12:00 | 18209 | 75 | -70.7 | -91.1 | 321 | 14 |
| 2013-04-15T12:00 | 18622 | 70 | -65.9 | -89.0 | 5 | 12 |
| 2013-04-15T12:00 | 19000 | 66 | -67.2 | -92.3 | 47 | 9 |
| 2013-04-15T12:00 | 19548 | 60 | -68.8 | -93.5 | 28 | 6 |
| 2013-04-15T12:00 | 20000 | 56 | -64.6 | -90.3 | 76 | 9 |
| 2013-04-15T12:00 | 20656 | 50 | -64.7 | -90.4 | 20 | 4 |
| 2013-04-15T12:00 | 22000 | 40 | -62.0 | -88.3 | 59 | 4 |
| 2013-04-15T12:00 | 22036 | 40 | -62.1 | -88.4 | 57 | 3 |
| 2013-04-16T00:00 | 1377 | 866 | 21.4 | 8.3 | 90 | 6 |
| 2013-04-16T00:00 | 1500 | 854 | 21.6 | 2.9 | 89 | 8 |
| 2013-04-16T00:00 | 1537 | 850 | 21.4 | 2.7 | 92 | 8 |
| 2013-04-16T00:00 | 2000 | 805 | 17.4 | 1.5 | 108 | 5 |
| 2013-04-16T00:00 | 2058 | 800 | 17.0 | 1.0 | 8 | 3 |
| 2013-04-16T00:00 | 2327 | 775 | 15.3 | 0.4 | 31 | 3 |
| 2013-04-16T00:00 | 2500 | 759 | 13.7 | -0.7 | 351 | 3 |
| 2013-04-16T00:00 | 3000 | 715 | 9.0 | -1.4 | 343 | 5 |
| 2013-04-16T00:00 | 3178 | 700 | 7.5 | -1.7 | 303 | 5 |
| 2013-04-16T00:00 | 4000 | 633 | 0.4 | -3.5 | 276 | 8 |
| 2013-04-16T00:00 | 4423 | 600 | -2.5 | -6.8 | 293 | 10 |
| 2013-04-16T00:00 | 5000 | 558 | -6.5 | -9.7 | 279 | 9 |
| 2013-04-16T00:00 | 5500 | 523 | -10.7 | -12.5 | 273 | 13 |
| 2013-04-16T00:00 | 5842 | 500 | -12.4 | -33.2 | 275 | 14 |
| 2013-04-16T00:00 | 6000 | 490 | -13.6 | -34.8 | 277 | 14 |
| 2013-04-16T00:00 | 7000 | 429 | -20.0 | -24.5 | 277 | 7 |
| 2013-04-16T00:00 | 7508 | 400 | -24.1 | -27.9 | 232 | 3 |
| 2013-04-16T00:00 | 8000 | 374 | -28.2 | -32.7 | 239 | 10 |
| 2013-04-16T00:00 | 9000 | 324 | -36.9 | -42.9 | 261 | 10 |
| 2013-04-16T00:00 | 9533 | 300 | -41.5 | -44.9 | 252 | 14 |
| 2013-04-16T00:00 | 10000 | 280 | -44.5 | -60.7 | 269 | 17 |
| 2013-04-16T00:00 | 10751 | 250 | -48.3 | -69.7 | 274 | 29 |
| 2013-04-16T00:00 | 11000 | 241 | -49.1 | -72.6 | 273 | 34 |
| 2013-04-16T00:00 | 12000 | 206 | -54.1 | -76.6 | 268 | 43 |
| 2013-04-16T00:00 | 12197 | 200 | -54.8 | -77.2 | 266 | 45 |
| 2013-04-16T00:00 | 13000 | 176 | -58.8 | -79.1 | 268 | 53 |
| 2013-04-16T00:00 | 14000 | 150 | -55.7 | -83.6 | 270 | 34 |
| 2013-04-16T00:00 | 14018 | 150 | -55.5 | -83.5 | 270 | 33 |
| 2013-04-16T00:00 | 15000 | 128 | -62.4 | -88.6 | 263 | 32 |
| 2013-04-16T00:00 | 15413 | 120 | -61.7 | -88.1 | 279 | 25 |
| 2013-04-16T00:00 | 16000 | 109 | -64.2 | -90.0 | 269 | 17 |
| 2013-04-16T00:00 | 16528 | 100 | -67.7 | -92.7 | 248 | 17 |
| 2013-04-16T00:00 | 17000 | 92 | -70.7 | -92.7 | 263 | 13 |
| 2013-04-16T00:00 | 17155 | 90 | -71.7 | -93.5 | 265 | 12 |
| 2013-04-16T00:00 | 17856 | 80 | -68.2 | -90.8 | 192 | 4 |
| 2013-04-16T00:00 | 18000 | 78 | -69.2 | -91.5 | 190 | 6 |
| 2013-04-16T00:00 | 18241 | 75 | -71.5 | -93.3 | 197 | 7 |
| 2013-04-16T00:00 | 18645 | 70 | -74.3 | -95.6 | 233 | 6 |
| 2013-04-16T00:00 | 19000 | 66 | -76.4 | -95.7 | 257 | 7 |
| 2013-04-16T00:00 | 19543 | 60 | -69.8 | -90.4 | 353 | 4 |
| 2013-04-16T00:00 | 20000 | 56 | -66.8 | -88.0 | 194 | 2 |
| 2013-04-16T00:00 | 20646 | 50 | -64.5 | -90.3 | 32 | 2 |
| 2013-04-16T00:00 | 22000 | 40 | -61.7 | -88.1 | 76 | 10 |
| 2013-04-16T00:00 | 22012 | 40 | -61.5 | -88.0 | 78 | 9 |
| 2013-04-16T12:00 | 1377 | 863 | 30.2 | 1.7 | 230 | 7 |
| 2013-04-16T12:00 | 1500 | 851 | 26.3 | -5.3 | 218 | 9 |
| 2013-04-16T12:00 | 1509 | 850 | 26.3 | -5.3 | 218 | 9 |
| 2013-04-16T12:00 | 2000 | 803 | 21.5 | -7.0 | 231 | 7 |
| 2013-04-16T12:00 | 2037 | 800 | 21.0 | -7.0 | 23 | 6 |
| 2013-04-16T12:00 | 2310 | 775 | 18.6 | -6.9 | 223 | 7 |
| 2013-04-16T12:00 | 2500 | 758 | 16.7 | -7.7 | 224 | 7 |
| 2013-04-16T12:00 | 3000 | 714 | 11.9 | -8.0 | 224 | 10 |
| 2013-04-16T12:00 | 3169 | 700 | 10.3 | -8.4 | 219 | 10 |
| 2013-04-16T12:00 | 4000 | 632 | 2.4 | -9.8 | 237 | 12 |
| 2013-04-16T12:00 | 4422 | 600 | -1.7 | -11.0 | 256 | 10 |
| 2013-04-16T12:00 | 5000 | 558 | -6.7 | -17.7 | 249 | 11 |
| 2013-04-16T12:00 | 5500 | 523 | -10.9 | -29.0 | 235 | 8 |
| 2013-04-16T12:00 | 5839 | 500 | -14.2 | -31.9 | 227 | 9 |
| 2013-04-16T12:00 | 6000 | 490 | -15.6 | -26.4 | 219 | 10 |
| 2013-04-16T12:00 | 7000 | 428 | -22.3 | -47.8 | 268 | 12 |
| 2013-04-16T12:00 | 7493 | 400 | -26.4 | -50.1 | 276 | 12 |
| 2013-04-16T12:00 | 8000 | 373 | -29.5 | -53.6 | 267 | 15 |
| 2013-04-16T12:00 | 9000 | 323 | -37.9 | -59.3 | 259 | 17 |
| 2013-04-16T12:00 | 9510 | 300 | -41.6 | -59.5 | 263 | 21 |
| 2013-04-16T12:00 | 10000 | 279 | -44.7 | -65.7 | 268 | 23 |
| 2013-04-16T12:00 | 10726 | 250 | -48.8 | -72.4 | 271 | 29 |
| 2013-04-16T12:00 | 11000 | 240 | -50.2 | -72.2 | 272 | 31 |
| 2013-04-16T12:00 | 12000 | 205 | -54.3 | -75.6 | 271 | 36 |
| 2013-04-16T12:00 | 12169 | 200 | -53.9 | -76.5 | 269 | 36 |
| 2013-04-16T12:00 | 13000 | 176 | -56.5 | -79.9 | 262 | 42 |
| 2013-04-16T12:00 | 13997 | 150 | -59.0 | -86.1 | 264 | 40 |
| 2013-04-16T12:00 | 14000 | 150 | -59.0 | -86.1 | 264 | 40 |
| 2013-04-16T12:00 | 15000 | 128 | -61.2 | -87.7 | 260 | 34 |
| 2013-04-16T12:00 | 15386 | 120 | -62.8 | -88.9 | 271 | 32 |
| 2013-04-16T12:00 | 16000 | 109 | -64.8 | -90.4 | 274 | 20 |
| 2013-04-16T12:00 | 16496 | 100 | -68.9 | -91.3 | 259 | 16 |
| 2013-04-16T12:00 | 17000 | 92 | -70.7 | -92.7 | 258 | 21 |
| 2013-04-16T12:00 | 17122 | 90 | -70.3 | -92.4 | 259 | 23 |
| 2013-04-16T12:00 | 17819 | 80 | -71.4 | -93.3 | 268 | 19 |
| 2013-04-16T12:00 | 18000 | 78 | -71.5 | -93.3 | 263 | 17 |
| 2013-04-16T12:00 | 18201 | 75 | -70.2 | -92.3 | 272 | 13 |
| 2013-04-16T12:00 | 18619 | 70 | -65.2 | -88.5 | 248 | 2 |
| 2013-04-16T12:00 | 19000 | 66 | -68.2 | -90.8 | 91 | 1 |
| 2013-04-16T12:00 | 19546 | 60 | -69.0 | -91.4 | 20 | 5 |
| 2013-04-17T00:00 | 1377 | 862 | 20.4 | -5.4 | 340 | 3 |
| 2013-04-17T00:00 | 1495 | 850 | 24.3 | -10.6 | 328 | 4 |
| 2013-04-17T00:00 | 1500 | 850 | 24.3 | -10.5 | 328 | 4 |
| 2013-04-17T00:00 | 2000 | 802 | 19.9 | -13.9 | 300 | 9 |
| 2013-04-17T00:00 | 2020 | 800 | 19.0 | -12.0 | 29 | 8 |
| 2013-04-17T00:00 | 2291 | 775 | 17.3 | -12.3 | 285 | 11 |
| 2013-04-17T00:00 | 2500 | 756 | 15.5 | -11.0 | 274 | 11 |
| 2013-04-17T00:00 | 3000 | 713 | 11.4 | -11.4 | 254 | 9 |
| 2013-04-17T00:00 | 3147 | 700 | 10.1 | -11.8 | 241 | 10 |
| 2013-04-17T00:00 | 4000 | 631 | 2.1 | -14.1 | 220 | 14 |
| 2013-04-17T00:00 | 4400 | 600 | -1.7 | -14.5 | 221 | 14 |
| 2013-04-17T00:00 | 5000 | 556 | -7.4 | -13.8 | 213 | 17 |
| 2013-04-17T00:00 | 5500 | 521 | -12.0 | -23.7 | 221 | 16 |
| 2013-04-17T00:00 | 5816 | 500 | -15.0 | -26.8 | 230 | 16 |
| 2013-04-17T00:00 | 6000 | 488 | -16.4 | -33.2 | 235 | 17 |
| 2013-04-17T00:00 | 7000 | 426 | -23.3 | -45.7 | 243 | 16 |
| 2013-04-17T00:00 | 7463 | 400 | -26.8 | -48.6 | 249 | 15 |
| 2013-04-17T00:00 | 8000 | 371 | -29.9 | -56.2 | 270 | 18 |
| 2013-04-17T00:00 | 9000 | 322 | -37.3 | -63.4 | 273 | 23 |
| 2013-04-17T00:00 | 9483 | 300 | -40.5 | -66.0 | 279 | 24 |
| 2013-04-17T00:00 | 10000 | 278 | -43.9 | -68.6 | 277 | 26 |
| 2013-04-17T00:00 | 10704 | 250 | -48.4 | -72.1 | 274 | 24 |
| 2013-04-17T00:00 | 11000 | 239 | -50.4 | -72.4 | 269 | 23 |
| 2013-04-17T00:00 | 12000 | 205 | -53.4 | -76.0 | 270 | 35 |
| 2013-04-17T00:00 | 12150 | 200 | -53.6 | -77.7 | 266 | 37 |
| 2013-04-17T00:00 | 13000 | 175 | -57.7 | -82.7 | 271 | 42 |
| 2013-04-17T00:00 | 13974 | 150 | -59.0 | -86.1 | 267 | 34 |
| 2013-04-17T00:00 | 14000 | 149 | -59.2 | -86.2 | 267 | 33 |
| 2013-04-17T00:00 | 15000 | 127 | -63.4 | -89.4 | 265 | 30 |
| 2013-04-17T00:00 | 15355 | 120 | -64.9 | -90.5 | 269 | 28 |
| 2013-04-17T00:00 | 16000 | 108 | -66.2 | -91.5 | 260 | 22 |
| 2013-04-17T00:00 | 16459 | 100 | -68.2 | -90.8 | 253 | 26 |
| 2013-04-17T00:00 | 17000 | 91 | -68.2 | -90.8 | 267 | 19 |
| 2013-04-17T00:00 | 17091 | 90 | -67.9 | -90.5 | 270 | 16 |
| 2013-04-17T00:00 | 17802 | 80 | -67.5 | -92.5 | 284 | 5 |
| 2013-04-17T00:00 | 18000 | 77 | -69.1 | -93.7 | 273 | 3 |
| 2013-04-17T00:00 | 18188 | 75 | -69.6 | -94.1 | 204 | 3 |
| 2013-04-17T00:00 | 18598 | 70 | -70.4 | -94.7 | 218 | 4 |
| 2013-04-17T00:00 | 19000 | 66 | -67.9 | -92.8 | 297 | 3 |
| 2013-04-17T00:00 | 19523 | 60 | -68.1 | -92.9 | 179 | 4 |
| 2013-04-17T00:00 | 20000 | 55 | -65.8 | -91.2 | 132 | 7 |
| 2013-04-17T00:00 | 20629 | 50 | -65.0 | -90.6 | 266 | 5 |
| 2013-04-17T00:00 | 22000 | 40 | -62.7 | -92.8 | 138 | 8 |
| 2013-04-17T00:00 | 22007 | 40 | -62.7 | -92.8 | 138 | 8 |
| 2013-04-17T12:00 | 1377 | 862 | 27.7 | -2.2 | 200 | 5 |
| 2013-04-17T12:00 | 1499 | 850 | 25.2 | -7.3 | 208 | 7 |
| 2013-04-17T12:00 | 1500 | 850 | 25.2 | -7.3 | 208 | 7 |
| 2013-04-17T12:00 | 2000 | 802 | 20.0 | -9.2 | 215 | 8 |
| 2013-04-17T12:00 | 2023 | 800 | 19.0 | -9.0 | 21 | 7 |
| 2013-04-17T12:00 | 2295 | 775 | 17.2 | -9.6 | 217 | 9 |
| 2013-04-17T12:00 | 2500 | 757 | 15.2 | -9.6 | 214 | 9 |
| 2013-04-17T12:00 | 3000 | 713 | 10.4 | -10.4 | 243 | 8 |
| 2013-04-17T12:00 | 3149 | 700 | 8.9 | -10.1 | 246 | 7 |
| 2013-04-17T12:00 | 4000 | 631 | 0.7 | -12.3 | 216 | 7 |
| 2013-04-17T12:00 | 4397 | 600 | -2.8 | -13.0 | 231 | 11 |
| 2013-04-17T12:00 | 5000 | 556 | -7.3 | -13.7 | 230 | 23 |
| 2013-04-17T12:00 | 5500 | 521 | -12.0 | -15.2 | 228 | 24 |
| 2013-04-17T12:00 | 5811 | 500 | -14.7 | -18.6 | 230 | 23 |
| 2013-04-17T12:00 | 6000 | 488 | -16.3 | -20.6 | 236 | 23 |
| 2013-04-17T12:00 | 7000 | 426 | -22.5 | -41.0 | 275 | 15 |
| 2013-04-17T12:00 | 7463 | 400 | -25.9 | -44.5 | 286 | 16 |
| 2013-04-17T12:00 | 8000 | 371 | -30.6 | -50.9 | 290 | 18 |
| 2013-04-17T12:00 | 9000 | 322 | -39.2 | -57.4 | 278 | 20 |
| 2013-04-17T12:00 | 9470 | 300 | -41.5 | -65.4 | 282 | 28 |
| 2013-04-17T12:00 | 10000 | 277 | -42.7 | -69.2 | 282 | 36 |
| 2013-04-17T12:00 | 10694 | 250 | -47.5 | -71.4 | 287 | 30 |
| 2013-04-17T12:00 | 11000 | 239 | -48.7 | -72.3 | 286 | 28 |
| 2013-04-17T12:00 | 12000 | 205 | -52.2 | -78.5 | 272 | 41 |
| 2013-04-17T12:00 | 12149 | 200 | -53.2 | -79.3 | 275 | 44 |
| 2013-04-17T12:00 | 13000 | 175 | -55.3 | -83.3 | 269 | 39 |
| 2013-04-17T12:00 | 13975 | 150 | -59.6 | -86.6 | 261 | 36 |
| 2013-04-17T12:00 | 14000 | 149 | -59.8 | -86.7 | 261 | 37 |
| 2013-04-17T12:00 | 15000 | 127 | -62.9 | -89.0 | 262 | 33 |
| 2013-04-17T12:00 | 15353 | 120 | -65.0 | -90.6 | 259 | 28 |
| 2013-04-17T12:00 | 16000 | 108 | -68.2 | -93.0 | 262 | 25 |
| 2013-04-17T12:00 | 16451 | 100 | -69.6 | -94.1 | 266 | 23 |
| 2013-04-17T12:00 | 17000 | 91 | -69.9 | -92.1 | 275 | 21 |
| 2013-04-17T12:00 | 17077 | 90 | -69.7 | -91.9 | 269 | 21 |
| 2013-04-17T12:00 | 17785 | 80 | -65.5 | -91.0 | 295 | 11 |
| 2013-04-17T12:00 | 18000 | 77 | -66.6 | -91.8 | 296 | 7 |
| 2013-04-17T12:00 | 18175 | 75 | -67.5 | -92.5 | 275 | 9 |
| 2013-04-17T12:00 | 18590 | 70 | -67.3 | -92.4 | 308 | 5 |
| 2013-04-17T12:00 | 19000 | 65 | -68.6 | -93.3 | 51 | 6 |
| 2013-04-17T12:00 | 19516 | 60 | -68.3 | -93.1 | 87 | 5 |
| 2013-04-17T12:00 | 20000 | 55 | -66.5 | -91.7 | 358 | 4 |
| 2013-04-17T12:00 | 20617 | 50 | -63.7 | -89.7 | 48 | 10 |
| 2013-04-17T12:00 | 22000 | 40 | -60.5 | -91.2 | 71 | 10 |
| 2013-04-17T12:00 | 22003 | 40 | -60.5 | -91.2 | 71 | 10 |
| 2013-04-17T12:00 | 23817 | 30 | -56.1 | -88.1 | 129 | 4 |
| 2013-04-17T12:00 | 24000 | 29 | -55.3 | -87.5 | 140 | 4 |
| 2013-04-18T00:00 | 1377 | 861 | 18.1 | -8.9 | 20 | 2 |
| 2013-04-18T00:00 | 1488 | 850 | 24.0 | -9.4 | 353 | 4 |
| 2013-04-18T00:00 | 1500 | 849 | 24.0 | -9.4 | 351 | 4 |
| 2013-04-18T00:00 | 2000 | 801 | 19.9 | -10.3 | 283 | 4 |
| 2013-04-18T00:00 | 2013 | 800 | 19.0 | -10.0 | 28 | 3 |
| 2013-04-18T00:00 | 2285 | 775 | 17.4 | -11.2 | 250 | 5 |
| 2013-04-18T00:00 | 2500 | 756 | 15.4 | -11.9 | 230 | 6 |
| 2013-04-18T00:00 | 3000 | 712 | 10.7 | -11.9 | 221 | 7 |
| 2013-04-18T00:00 | 3140 | 700 | 9.3 | -12.5 | 219 | 7 |
| 2013-04-18T00:00 | 4000 | 630 | 0.9 | -14.7 | 237 | 10 |
| 2013-04-18T00:00 | 4388 | 600 | -2.8 | -16.5 | 240 | 12 |
| 2013-04-18T00:00 | 5000 | 555 | -7.0 | -32.6 | 237 | 10 |
| 2013-04-18T00:00 | 5500 | 520 | -10.8 | -32.5 | 243 | 9 |
| 2013-04-18T00:00 | 5804 | 500 | -13.4 | -33.4 | 247 | 9 |
| 2013-04-18T00:00 | 6000 | 487 | -14.8 | -35.8 | 254 | 10 |
| 2013-04-18T00:00 | 7000 | 426 | -22.4 | -50.4 | 242 | 11 |
| 2013-04-18T00:00 | 7460 | 400 | -26.0 | -54.8 | 259 | 16 |
| 2013-04-18T00:00 | 8000 | 371 | -30.0 | -59.6 | 263 | 16 |
| 2013-04-18T00:00 | 9000 | 322 | -37.4 | -63.5 | 270 | 20 |
| 2013-04-18T00:00 | 9478 | 300 | -40.8 | -66.2 | 277 | 22 |
| 2013-04-18T00:00 | 10000 | 278 | -43.3 | -68.1 | 267 | 25 |
| 2013-04-18T00:00 | 10702 | 250 | -46.7 | -70.8 | 267 | 36 |
| 2013-04-18T00:00 | 11000 | 239 | -49.4 | -70.5 | 268 | 38 |
| 2013-04-18T00:00 | 12000 | 205 | -53.9 | -73.3 | 279 | 41 |
| 2013-04-18T00:00 | 12151 | 200 | -53.6 | -75.0 | 277 | 40 |
| 2013-04-18T00:00 | 13000 | 175 | -56.6 | -81.8 | 269 | 39 |
| 2013-04-18T00:00 | 13974 | 150 | -61.3 | -87.9 | 263 | 40 |
| 2013-04-18T00:00 | 14000 | 149 | -61.5 | -88.0 | 263 | 40 |
| 2013-04-18T00:00 | 15000 | 127 | -64.0 | -87.5 | 283 | 33 |
| 2013-04-18T00:00 | 15344 | 120 | -64.2 | -87.7 | 284 | 27 |
| 2013-04-18T00:00 | 16000 | 108 | -65.7 | -88.9 | 272 | 20 |
| 2013-04-18T00:00 | 16450 | 100 | -68.0 | -90.6 | 255 | 19 |
| 2013-04-18T00:00 | 17000 | 91 | -70.1 | -92.2 | 262 | 20 |
| 2013-04-18T00:00 | 17080 | 90 | -70.4 | -92.5 | 258 | 19 |
| 2013-04-18T00:00 | 17782 | 80 | -69.7 | -91.9 | 214 | 10 |
| 2013-04-18T00:00 | 18000 | 77 | -69.8 | -92.0 | 221 | 8 |
| 2013-04-18T00:00 | 18166 | 75 | -69.8 | -92.0 | 243 | 7 |
| 2013-04-18T00:00 | 18577 | 70 | -69.4 | -91.7 | 283 | 6 |
| 2013-04-18T00:00 | 19000 | 65 | -69.8 | -92.0 | 349 | 7 |
| 2013-04-18T00:00 | 19499 | 60 | -67.1 | -89.9 | 61 | 2 |
| 2013-04-18T12:00 | 1377 | 860 | 29.6 | -5.2 | 190 | 8 |
| 2013-04-18T12:00 | 1475 | 850 | 26.4 | -10.5 | 193 | 9 |
| 2013-04-18T12:00 | 1500 | 848 | 25.9 | -10.8 | 191 | 10 |
| 2013-04-18T12:00 | 2000 | 800 | 20.8 | -10.7 | 198 | 10 |
| 2013-04-18T12:00 | 2002 | 800 | 20.0 | -10.0 | 19 | 10 |
| 2013-04-18T12:00 | 2274 | 775 | 18.3 | -11.5 | 209 | 9 |
| 2013-04-18T12:00 | 2500 | 755 | 16.1 | -11.3 | 211 | 9 |
| 2013-04-18T12:00 | 3000 | 711 | 11.0 | -12.4 | 192 | 10 |
| 2013-04-18T12:00 | 3131 | 700 | 9.8 | -12.7 | 190 | 9 |
| 2013-04-18T12:00 | 4000 | 629 | 1.1 | -14.1 | 183 | 8 |
| 2013-04-18T12:00 | 4381 | 600 | -2.4 | -16.5 | 199 | 11 |
| 2013-04-18T12:00 | 5000 | 555 | -6.8 | -35.7 | 210 | 11 |
| 2013-04-18T12:00 | 5500 | 520 | -11.0 | -40.2 | 228 | 8 |
| 2013-04-18T12:00 | 5798 | 500 | -12.8 | -39.2 | 240 | 10 |
| 2013-04-18T12:00 | 6000 | 487 | -13.5 | -45.3 | 260 | 8 |
| 2013-04-18T12:00 | 7000 | 426 | -19.8 | -52.0 | 296 | 8 |
| 2013-04-18T12:00 | 7470 | 400 | -22.2 | -59.5 | 298 | 13 |
| 2013-04-18T12:00 | 8000 | 372 | -26.8 | -57.2 | 287 | 19 |
| 2013-04-18T12:00 | 9000 | 323 | -34.9 | -60.2 | 283 | 24 |
| 2013-04-18T12:00 | 9512 | 300 | -39.2 | -63.6 | 288 | 23 |
| 2013-04-18T12:00 | 10000 | 279 | -42.9 | -66.4 | 282 | 22 |
| 2013-04-18T12:00 | 10737 | 250 | -48.0 | -66.8 | 276 | 27 |
| 2013-04-18T12:00 | 11000 | 240 | -48.9 | -69.2 | 279 | 27 |
| 2013-04-18T12:00 | 12000 | 206 | -54.4 | -72.8 | 269 | 32 |
| 2013-04-18T12:00 | 12184 | 200 | -55.7 | -73.9 | 271 | 32 |
| 2013-04-18T12:00 | 13000 | 176 | -58.6 | -78.0 | 261 | 37 |
| 2013-04-18T12:00 | 13992 | 150 | -60.9 | -87.6 | 267 | 30 |
| 2013-04-18T12:00 | 14000 | 150 | -60.9 | -87.5 | 267 | 30 |
| 2013-04-18T12:00 | 15000 | 127 | -66.1 | -91.5 | 262 | 29 |
| 2013-04-18T12:00 | 15355 | 120 | -68.7 | -91.2 | 254 | 33 |
| 2013-04-18T12:00 | 16000 | 108 | -69.6 | -91.9 | 260 | 20 |
| 2013-04-18T12:00 | 16444 | 100 | -69.2 | -91.6 | 276 | 21 |
| 2013-04-18T12:00 | 17000 | 91 | -67.8 | -90.5 | 285 | 17 |
| 2013-04-18T12:00 | 17075 | 90 | -66.8 | -89.7 | 290 | 15 |
| 2013-04-18T12:00 | 17783 | 80 | -69.5 | -94.0 | 239 | 11 |
| 2013-04-18T12:00 | 18000 | 77 | -71.5 | -95.5 | 242 | 12 |
| 2013-04-18T12:00 | 18166 | 75 | -71.8 | -95.7 | 259 | 11 |
| 2013-04-19T00:00 | 1377 | 859 | 18.5 | -7.8 | 140 | 2 |
| 2013-04-19T00:00 | 1473 | 850 | 24.5 | -9.1 | 220 | 4 |
| 2013-04-19T00:00 | 1500 | 847 | 24.7 | -8.9 | 228 | 5 |
| 2013-04-19T00:00 | 1998 | 800 | 20.0 | -8.0 | 24 | 5 |
| 2013-04-19T00:00 | 2000 | 800 | 20.4 | -8.9 | 239 | 5 |
| 2013-04-19T00:00 | 2270 | 775 | 18.0 | -9.0 | 250 | 5 |
| 2013-04-19T00:00 | 2500 | 754 | 15.8 | -9.1 | 238 | 4 |
| 2013-04-19T00:00 | 3000 | 711 | 11.1 | -11.0 | 237 | 4 |
| 2013-04-19T00:00 | 3127 | 700 | 9.8 | -10.9 | 246 | 3 |
| 2013-04-19T00:00 | 4000 | 629 | 1.6 | -14.1 | 186 | 2 |
| 2013-04-19T00:00 | 4378 | 600 | -1.6 | -16.1 | 97 | 4 |
| 2013-04-19T00:00 | 5000 | 555 | -7.0 | -16.9 | 83 | 8 |
| 2013-04-19T00:00 | 5500 | 520 | -9.1 | -44.1 | 207 | 5 |
| 2013-04-19T00:00 | 5800 | 500 | -10.1 | -41.1 | 252 | 6 |
| 2013-04-19T00:00 | 6000 | 487 | -12.1 | -39.8 | 266 | 9 |
| 2013-04-19T00:00 | 7000 | 427 | -19.3 | -43.4 | 279 | 11 |
| 2013-04-19T00:00 | 7477 | 400 | -23.5 | -45.9 | 279 | 12 |
| 2013-04-19T00:00 | 8000 | 372 | -27.5 | -48.4 | 274 | 13 |
| 2013-04-19T00:00 | 9000 | 323 | -35.8 | -50.1 | 272 | 16 |
| 2013-04-19T00:00 | 9511 | 300 | -38.7 | -66.2 | 265 | 24 |
| 2013-04-19T00:00 | 10000 | 279 | -41.6 | -66.8 | 264 | 28 |
| 2013-04-19T00:00 | 10742 | 250 | -47.4 | -68.0 | 262 | 23 |
| 2013-04-19T00:00 | 11000 | 240 | -49.0 | -70.2 | 257 | 27 |
| 2013-04-19T00:00 | 12000 | 206 | -54.5 | -71.5 | 254 | 37 |
| 2013-04-19T00:00 | 12190 | 200 | -55.4 | -73.7 | 254 | 40 |
| 2013-04-19T00:00 | 13000 | 176 | -58.0 | -78.5 | 255 | 38 |
| 2013-04-19T00:00 | 13999 | 150 | -60.7 | -85.0 | 261 | 35 |
| 2013-04-19T00:00 | 14000 | 150 | -60.7 | -85.0 | 261 | 35 |
| 2013-04-19T00:00 | 15000 | 128 | -64.1 | -89.9 | 264 | 26 |
| 2013-04-19T00:00 | 15372 | 120 | -64.8 | -90.4 | 273 | 25 |
| 2013-04-19T00:00 | 16000 | 108 | -66.5 | -91.7 | 266 | 17 |
| 2013-04-19T00:00 | 16475 | 100 | -69.0 | -91.4 | 273 | 16 |
| 2013-04-19T00:00 | 17000 | 92 | -70.3 | -92.4 | 266 | 9 |
| 2013-04-19T00:00 | 17101 | 90 | -70.5 | -92.6 | 265 | 10 |
| 2013-04-19T00:00 | 17796 | 80 | -71.2 | -91.5 | 243 | 8 |
| 2013-04-19T00:00 | 18000 | 77 | -70.5 | -91.0 | 244 | 8 |
| 2013-04-19T00:00 | 18179 | 75 | -69.0 | -89.8 | 281 | 7 |
| 2013-04-19T00:00 | 18593 | 70 | -69.6 | -91.9 | 98 | 1 |
| 2013-04-19T00:00 | 19000 | 65 | -73.1 | -93.0 | 251 | 5 |
| 2013-04-19T00:00 | 19507 | 60 | -66.7 | -89.6 | 105 | 1 |
| 2013-04-19T00:00 | 20000 | 55 | -66.7 | -89.6 | 57 | 7 |
| 2013-04-19T00:00 | 20612 | 50 | -65.7 | -91.2 | 212 | 6 |
| 2013-04-19T00:00 | 21993 | 40 | -61.0 | -91.5 | 93 | 3 |
| 2013-04-19T00:00 | 22000 | 40 | -61.0 | -91.5 | 93 | 3 |
| 2013-04-19T12:00 | 1377 | 861 | 29.0 | -2.1 | 180 | 7 |
| 2013-04-19T12:00 | 1490 | 850 | 25.4 | -7.1 | 188 | 12 |
| 2013-04-19T12:00 | 1500 | 849 | 25.4 | -7.1 | 188 | 12 |
| 2013-04-19T12:00 | 2000 | 802 | 20.7 | -7.7 | 203 | 11 |
| 2013-04-19T12:00 | 2016 | 800 | 20.0 | -7.0 | 20 | 10 |
| 2013-04-19T12:00 | 2289 | 775 | 17.9 | -8.2 | 210 | 7 |
| 2013-04-19T12:00 | 2500 | 756 | 15.7 | -8.5 | 209 | 8 |
| 2013-04-19T12:00 | 3000 | 712 | 10.9 | -9.4 | 204 | 10 |
| 2013-04-19T12:00 | 3145 | 700 | 9.5 | -10.1 | 208 | 8 |
| 2013-04-19T12:00 | 4000 | 630 | 1.1 | -11.6 | 211 | 8 |
| 2013-04-19T12:00 | 4394 | 600 | -2.7 | -12.7 | 229 | 10 |
| 2013-04-19T12:00 | 5000 | 556 | -5.3 | -41.4 | 239 | 8 |
| 2013-04-19T12:00 | 5500 | 521 | -8.6 | -43.7 | 244 | 12 |
| 2013-04-19T12:00 | 5819 | 500 | -10.9 | -48.1 | 238 | 14 |
| 2013-04-19T12:00 | 6000 | 488 | -11.8 | -46.1 | 242 | 12 |
| 2013-04-19T12:00 | 7000 | 428 | -20.7 | -43.7 | 253 | 11 |
| 2013-04-19T12:00 | 7488 | 400 | -25.0 | -50.0 | 254 | 13 |
| 2013-04-19T12:00 | 8000 | 373 | -29.3 | -41.1 | 260 | 13 |
| 2013-04-19T12:00 | 9000 | 323 | -35.9 | -64.1 | 265 | 15 |
| 2013-04-19T12:00 | 9517 | 300 | -38.6 | -64.5 | 266 | 28 |
| 2013-04-19T12:00 | 10000 | 280 | -41.5 | -68.3 | 261 | 29 |
| 2013-04-19T12:00 | 10748 | 250 | -46.6 | -69.4 | 260 | 30 |
| 2013-04-19T12:00 | 11000 | 241 | -48.2 | -70.6 | 258 | 32 |
| 2013-04-19T12:00 | 12000 | 206 | -53.9 | -74.2 | 249 | 36 |
| 2013-04-19T12:00 | 12198 | 200 | -54.0 | -78.0 | 251 | 37 |
| 2013-04-19T12:00 | 13000 | 176 | -56.1 | -83.9 | 246 | 38 |
| 2013-04-19T12:00 | 14000 | 151 | -60.4 | -87.1 | 262 | 32 |
| 2013-04-19T12:00 | 14020 | 150 | -60.6 | -87.3 | 262 | 32 |
| 2013-04-19T12:00 | 15000 | 128 | -66.0 | -91.4 | 266 | 29 |
| 2013-04-19T12:00 | 15385 | 120 | -67.9 | -90.5 | 264 | 24 |
| 2013-04-19T12:00 | 16000 | 108 | -69.3 | -91.6 | 272 | 22 |
| 2013-04-19T12:00 | 16476 | 100 | -68.3 | -90.9 | 276 | 18 |
| 2013-04-19T12:00 | 17000 | 92 | -68.4 | -90.9 | 268 | 9 |
| 2013-04-19T12:00 | 17110 | 90 | -68.7 | -91.2 | 247 | 7 |
| 2013-04-19T12:00 | 17808 | 80 | -71.9 | -93.6 | 260 | 10 |
| 2013-04-19T12:00 | 18000 | 77 | -73.1 | -94.6 | 267 | 10 |
| 2013-04-19T12:00 | 18186 | 75 | -72.3 | -94.0 | 277 | 12 |
| 2013-04-19T12:00 | 18604 | 70 | -64.2 | -90.0 | 338 | 7 |
| 2013-04-19T12:00 | 19000 | 66 | -65.8 | -91.2 | 87 | 4 |
| 2013-04-19T12:00 | 19539 | 60 | -67.9 | -92.8 | 126 | 4 |
| 2013-04-19T12:00 | 20000 | 56 | -68.4 | -93.2 | 186 | 3 |
| 2013-04-19T12:00 | 20641 | 50 | -64.7 | -90.4 | 36 | 7 |
| 2013-04-19T12:00 | 22000 | 40 | -60.3 | -91.0 | 118 | 6 |
| 2013-04-19T12:00 | 22015 | 40 | -60.3 | -91.0 | 119 | 6 |
| 2013-04-19T12:00 | 23818 | 30 | -58.5 | -89.8 | 132 | 2 |
| 2013-04-19T12:00 | 24000 | 29 | -57.0 | -88.7 | 126 | 4 |
| 2013-04-19T12:00 | 24975 | 25 | -55.9 | -87.9 | 53 | 5 |
| 2013-04-19T12:00 | 25000 | 25 | -55.8 | -87.8 | 50 | 5 |
| 2013-04-20T00:00 | 1377 | 860 | 18.7 | -9.3 | 90 | 1 |
| 2013-04-20T00:00 | 1483 | 850 | 26.1 | -9.2 | 147 | 3 |
| 2013-04-20T00:00 | 1500 | 848 | 26.2 | -9.1 | 154 | 3 |
| 2013-04-20T00:00 | 2000 | 801 | 21.9 | -11.0 | 161 | 3 |
| 2013-04-20T00:00 | 2011 | 800 | 21.0 | -11.0 | 16 | 2 |
| 2013-04-20T00:00 | 2284 | 775 | 19.2 | -10.8 | 169 | 4 |
| 2013-04-20T00:00 | 2500 | 756 | 17.0 | -11.6 | 191 | 4 |
| 2013-04-20T00:00 | 3000 | 712 | 12.2 | -12.1 | 193 | 5 |
| 2013-04-20T00:00 | 3144 | 700 | 10.8 | -12.6 | 198 | 5 |
| 2013-04-20T00:00 | 4000 | 631 | 2.5 | -11.4 | 203 | 9 |
| 2013-04-20T00:00 | 4399 | 600 | -1.4 | -12.9 | 199 | 9 |
| 2013-04-20T00:00 | 5000 | 556 | -5.0 | -35.6 | 236 | 7 |
| 2013-04-20T00:00 | 5500 | 522 | -8.1 | -33.5 | 243 | 8 |
| 2013-04-20T00:00 | 5827 | 500 | -11.2 | -29.3 | 243 | 8 |
| 2013-04-20T00:00 | 6000 | 489 | -12.9 | -29.7 | 242 | 9 |
| 2013-04-20T00:00 | 7000 | 428 | -19.3 | -46.7 | 241 | 4 |
| 2013-04-20T00:00 | 7498 | 400 | -21.9 | -56.0 | 259 | 6 |
| 2013-04-20T00:00 | 8000 | 374 | -24.8 | -58.1 | 265 | 14 |
| 2013-04-20T00:00 | 9000 | 325 | -31.2 | -53.0 | 277 | 28 |
| 2013-04-20T00:00 | 9560 | 300 | -35.7 | -50.0 | 268 | 33 |
| 2013-04-20T00:00 | 10000 | 282 | -39.2 | -47.6 | 262 | 36 |
| 2013-04-20T00:00 | 10801 | 250 | -45.4 | -54.4 | 259 | 45 |
| 2013-04-20T00:00 | 11000 | 243 | -47.1 | -57.2 | 257 | 46 |
| 2013-04-20T00:00 | 12000 | 208 | -52.0 | -74.9 | 243 | 47 |
| 2013-04-20T00:00 | 12264 | 200 | -53.4 | -76.1 | 243 | 45 |
| 2013-04-20T00:00 | 13000 | 178 | -58.6 | -78.0 | 252 | 40 |
| 2013-04-20T00:00 | 14000 | 152 | -65.1 | -81.7 | 263 | 37 |
| 2013-04-20T00:00 | 14059 | 150 | -65.4 | -82.0 | 264 | 37 |
| 2013-04-20T00:00 | 15000 | 129 | -66.2 | -86.2 | 268 | 25 |
| 2013-04-20T00:00 | 15412 | 120 | -68.1 | -87.8 | 269 | 22 |
| 2013-04-20T00:00 | 16000 | 109 | -70.8 | -89.9 | 284 | 20 |
| 2013-04-20T00:00 | 16494 | 100 | -71.9 | -90.9 | 289 | 16 |
| 2013-04-20T00:00 | 17000 | 92 | -73.1 | -91.8 | 277 | 16 |
| 2013-04-20T00:00 | 17113 | 90 | -73.8 | -92.4 | 278 | 17 |
| 2013-04-20T00:00 | 17802 | 80 | -72.7 | -91.5 | 274 | 11 |
| 2013-04-20T00:00 | 18000 | 77 | -71.3 | -90.3 | 293 | 9 |
| 2013-04-20T00:00 | 18183 | 75 | -70.6 | -89.8 | 325 | 6 |
| 2013-04-20T00:00 | 18595 | 70 | -68.6 | -89.5 | 320 | 8 |
| 2013-04-20T00:00 | 19000 | 65 | -69.4 | -90.1 | 186 | 4 |
| 2013-04-20T00:00 | 19517 | 60 | -67.4 | -90.1 | 347 | 8 |
| 2013-04-20T00:00 | 20000 | 55 | -64.9 | -88.2 | 50 | 12 |
| 2013-04-20T00:00 | 20626 | 50 | -64.3 | -90.1 | 189 | 7 |
| 2013-04-20T00:00 | 21999 | 40 | -61.6 | -88.0 | 186 | 5 |
| 2013-04-20T00:00 | 22000 | 40 | -61.6 | -88.1 | 186 | 5 |
| 2013-04-20T00:00 | 23798 | 30 | -56.9 | -88.7 | 98 | 5 |
| 2013-04-20T00:00 | 24000 | 29 | -57.7 | -89.2 | 57 | 3 |
| 2013-04-20T00:00 | 24952 | 25 | -56.5 | -88.3 | 136 | 5 |
| 2013-04-20T00:00 | 25000 | 25 | -56.4 | -88.3 | 132 | 4 |
| 2013-04-20T12:00 | 1377 | 862 | 30.5 | -2.0 | 230 | 8 |
| 2013-04-20T12:00 | 1498 | 850 | 26.5 | -6.3 | 221 | 12 |
| 2013-04-20T12:00 | 1500 | 850 | 26.5 | -6.3 | 221 | 12 |
| 2013-04-20T12:00 | 2000 | 803 | 21.8 | -7.8 | 217 | 15 |
| 2013-04-20T12:00 | 2028 | 800 | 21.0 | -7.0 | 21 | 14 |
| 2013-04-20T12:00 | 2300 | 775 | 18.9 | -8.2 | 213 | 14 |
| 2013-04-20T12:00 | 2500 | 757 | 17.1 | -8.1 | 209 | 15 |
| 2013-04-20T12:00 | 3000 | 714 | 12.1 | -9.5 | 216 | 13 |
| 2013-04-20T12:00 | 3160 | 700 | 10.5 | -9.7 | 215 | 13 |
| 2013-04-20T12:00 | 4000 | 632 | 2.3 | -11.6 | 215 | 12 |
| 2013-04-20T12:00 | 4414 | 600 | -1.6 | -12.8 | 213 | 12 |
| 2013-04-20T12:00 | 5000 | 557 | -7.0 | -18.3 | 222 | 9 |
| 2013-04-20T12:00 | 5500 | 522 | -8.7 | -31.4 | 221 | 9 |
| 2013-04-20T12:00 | 5836 | 500 | -11.9 | -32.1 | 209 | 11 |
| 2013-04-20T12:00 | 6000 | 489 | -13.4 | -33.3 | 208 | 11 |
| 2013-04-20T12:00 | 7000 | 429 | -17.7 | -52.9 | 238 | 18 |
| 2013-04-20T12:00 | 7513 | 400 | -20.0 | -41.5 | 241 | 17 |
| 2013-04-20T12:00 | 8000 | 374 | -24.4 | -30.7 | 239 | 17 |
| 2013-04-20T12:00 | 9000 | 326 | -32.8 | -39.0 | 244 | 17 |
| 2013-04-20T12:00 | 9569 | 300 | -37.6 | -42.7 | 241 | 21 |
| 2013-04-20T12:00 | 10000 | 282 | -39.5 | -54.5 | 243 | 33 |
| 2013-04-20T12:00 | 10810 | 250 | -44.1 | -57.0 | 237 | 49 |
| 2013-04-20T12:00 | 11000 | 243 | -45.3 | -52.8 | 232 | 49 |
| 2013-04-20T12:00 | 12000 | 209 | -53.4 | -67.4 | 235 | 47 |
| 2013-04-20T12:00 | 12270 | 200 | -55.3 | -71.1 | 239 | 42 |
| 2013-04-20T12:00 | 13000 | 178 | -59.0 | -77.4 | 247 | 32 |
| 2013-04-20T12:00 | 14000 | 152 | -63.9 | -84.4 | 256 | 29 |
| 2013-04-20T12:00 | 14068 | 150 | -64.6 | -85.0 | 256 | 30 |
| 2013-04-20T12:00 | 15000 | 129 | -65.7 | -88.9 | 268 | 25 |
| 2013-04-20T12:00 | 15422 | 120 | -67.4 | -90.1 | 270 | 20 |
| 2013-04-20T12:00 | 16000 | 109 | -69.2 | -93.8 | 265 | 16 |
| 2013-04-20T12:00 | 16512 | 100 | -71.0 | -95.2 | 264 | 14 |
| 2013-04-20T12:00 | 17000 | 92 | -72.4 | -94.0 | 267 | 15 |
| 2013-04-20T12:00 | 17133 | 90 | -72.8 | -94.4 | 266 | 13 |
| 2013-04-20T12:00 | 17825 | 80 | -72.2 | -93.9 | 294 | 9 |
| 2013-04-20T12:00 | 18000 | 78 | -71.9 | -93.6 | 328 | 8 |
| 2013-04-20T12:00 | 18205 | 75 | -71.2 | -93.1 | 334 | 4 |
| 2013-04-20T12:00 | 18615 | 70 | -69.4 | -91.7 | 302 | 4 |
| 2013-04-20T12:00 | 19000 | 66 | -68.6 | -93.3 | 316 | 4 |
| 2013-04-20T12:00 | 19541 | 60 | -68.3 | -93.1 | 90 | 3 |
| 2013-04-20T12:00 | 20000 | 56 | -69.1 | -93.7 | 347 | 4 |
| 2013-04-20T12:00 | 20641 | 50 | -62.3 | -92.5 | 41 | 8 |
| 2013-04-20T12:00 | 22000 | 40 | -62.7 | -92.8 | 145 | 7 |
| 2013-04-20T12:00 | 22015 | 40 | -62.7 | -92.8 | 146 | 8 |
| 2013-04-20T12:00 | 23809 | 30 | -55.1 | -87.4 | 192 | 9 |
| 2013-04-20T12:00 | 24000 | 29 | -54.0 | -86.6 | 190 | 9 |
| 2013-04-20T12:00 | 24978 | 25 | -55.0 | -87.3 | 87 | 2 |
| 2013-04-20T12:00 | 25000 | 25 | -55.1 | -87.3 | 91 | 2 |
| 2013-04-21T00:00 | 1377 | 861 | 20.9 | -5.8 | 120 | 2 |
| 2013-04-21T00:00 | 1490 | 850 | 26.6 | -7.5 | 193 | 2 |
| 2013-04-21T00:00 | 1500 | 849 | 26.5 | -7.5 | 198 | 3 |
| 2013-04-21T00:00 | 2000 | 802 | 22.1 | -8.6 | 230 | 5 |
| 2013-04-21T00:00 | 2019 | 800 | 22.0 | -7.0 | 22 | 5 |
| 2013-04-21T00:00 | 2292 | 775 | 19.4 | -8.7 | 218 | 6 |
| 2013-04-21T00:00 | 2500 | 756 | 17.4 | -8.6 | 222 | 6 |
| 2013-04-21T00:00 | 3000 | 713 | 12.6 | -9.7 | 227 | 8 |
| 2013-04-21T00:00 | 3153 | 700 | 11.1 | -9.8 | 226 | 9 |
| 2013-04-21T00:00 | 4000 | 631 | 2.9 | -12.1 | 226 | 10 |
| 2013-04-21T00:00 | 4409 | 600 | -1.1 | -13.0 | 233 | 11 |
| 2013-04-21T00:00 | 5000 | 557 | -6.8 | -13.6 | 223 | 12 |
| 2013-04-21T00:00 | 5500 | 522 | -11.7 | -15.0 | 221 | 13 |
| 2013-04-21T00:00 | 5827 | 500 | -14.8 | -15.8 | 221 | 14 |
| 2013-04-21T00:00 | 6000 | 489 | -16.1 | -17.7 | 230 | 15 |
| 2013-04-21T00:00 | 7000 | 428 | -18.6 | -41.9 | 244 | 19 |
| 2013-04-21T00:00 | 7499 | 400 | -23.2 | -42.8 | 253 | 19 |
| 2013-04-21T00:00 | 8000 | 373 | -27.3 | -51.8 | 245 | 18 |
| 2013-04-21T00:00 | 9000 | 324 | -34.8 | -53.7 | 244 | 28 |
| 2013-04-21T00:00 | 9536 | 300 | -38.4 | -58.9 | 241 | 34 |
| 2013-04-21T00:00 | 10000 | 280 | -39.8 | -62.8 | 231 | 38 |
| 2013-04-21T00:00 | 10776 | 250 | -44.9 | -66.9 | 234 | 36 |
| 2013-04-21T00:00 | 11000 | 242 | -46.8 | -66.6 | 232 | 39 |
| 2013-04-21T00:00 | 12000 | 208 | -51.3 | -75.9 | 238 | 34 |
| 2013-04-21T00:00 | 12238 | 200 | -52.3 | -78.6 | 236 | 32 |
| 2013-04-21T00:00 | 13000 | 178 | -56.8 | -82.0 | 246 | 32 |
| 2013-04-21T00:00 | 14000 | 151 | -60.0 | -84.4 | 253 | 23 |
| 2013-04-21T00:00 | 14057 | 150 | -60.1 | -84.5 | 255 | 23 |
| 2013-04-21T00:00 | 15000 | 129 | -64.5 | -90.2 | 256 | 23 |
| 2013-04-21T00:00 | 15430 | 120 | -66.2 | -91.5 | 267 | 18 |
| 2013-04-21T00:00 | 16000 | 109 | -68.9 | -91.3 | 275 | 12 |
| 2013-04-21T00:00 | 16522 | 100 | -71.4 | -93.3 | 286 | 9 |
| 2013-04-21T00:00 | 17000 | 92 | -72.6 | -94.2 | 293 | 11 |
| 2013-04-21T00:00 | 17141 | 90 | -73.1 | -93.0 | 306 | 12 |
| 2013-04-21T00:00 | 17829 | 80 | -73.4 | -93.3 | 347 | 7 |
| 2013-04-21T00:00 | 18000 | 78 | -74.5 | -94.1 | 337 | 8 |
| 2013-04-21T00:00 | 18205 | 75 | -74.2 | -93.9 | 331 | 10 |
| 2013-04-21T00:00 | 18608 | 70 | -73.5 | -92.2 | 353 | 7 |
| 2013-04-21T00:00 | 19000 | 66 | -70.2 | -90.7 | 305 | 3 |
| 2013-04-21T00:00 | 19522 | 60 | -70.4 | -90.9 | 210 | 5 |
| 2013-04-21T00:00 | 20000 | 55 | -64.0 | -87.5 | 21 | 7 |
| 2013-04-21T00:00 | 20632 | 50 | -63.3 | -89.4 | 140 | 5 |
| 2013-04-21T00:00 | 22000 | 40 | -62.6 | -92.7 | 323 | 2 |
| 2013-04-21T00:00 | 22006 | 40 | -62.6 | -92.7 | 314 | 2 |
| 2013-04-21T12:00 | 1377 | 862 | 31.1 | 1.5 | 220 | 11 |
| 2013-04-21T12:00 | 1497 | 850 | 27.0 | -4.8 | 231 | 13 |
| 2013-04-21T12:00 | 1500 | 850 | 26.9 | -4.8 | 231 | 13 |
| 2013-04-21T12:00 | 2000 | 802 | 22.0 | -5.7 | 240 | 12 |
| 2013-04-21T12:00 | 2026 | 800 | 21.0 | -5.0 | 24 | 11 |
| 2013-04-21T12:00 | 2299 | 775 | 19.1 | -6.4 | 243 | 12 |
| 2013-04-21T12:00 | 2500 | 757 | 17.1 | -6.0 | 247 | 12 |
| 2013-04-21T12:00 | 3000 | 713 | 12.3 | -6.6 | 240 | 14 |
| 2013-04-21T12:00 | 3159 | 700 | 10.7 | -7.1 | 243 | 14 |
| 2013-04-21T12:00 | 4000 | 632 | 2.7 | -8.6 | 249 | 11 |
| 2013-04-21T12:00 | 4415 | 600 | -1.5 | -8.9 | 243 | 11 |
| 2013-04-21T12:00 | 5000 | 557 | -6.9 | -9.6 | 235 | 15 |
| 2013-04-21T12:00 | 5500 | 522 | -10.8 | -18.7 | 236 | 13 |
| 2013-04-21T12:00 | 5834 | 500 | -13.0 | -31.9 | 233 | 10 |
| 2013-04-21T12:00 | 6000 | 489 | -14.5 | -32.6 | 233 | 10 |
| 2013-04-21T12:00 | 7000 | 428 | -20.0 | -52.1 | 234 | 17 |
| 2013-04-21T12:00 | 7500 | 400 | -23.7 | -47.0 | 234 | 19 |
| 2013-04-21T12:00 | 8000 | 373 | -27.7 | -47.8 | 223 | 19 |
| 2013-04-21T12:00 | 9000 | 324 | -35.3 | -57.2 | 247 | 25 |
| 2013-04-21T12:00 | 9532 | 300 | -39.8 | -52.5 | 237 | 24 |
| 2013-04-21T12:00 | 10000 | 280 | -44.3 | -54.1 | 237 | 22 |
| 2013-04-21T12:00 | 10748 | 250 | -48.7 | -63.4 | 233 | 22 |
| 2013-04-21T12:00 | 11000 | 241 | -47.8 | -68.3 | 231 | 26 |
| 2013-04-21T12:00 | 12000 | 207 | -50.1 | -76.9 | 237 | 24 |
| 2013-04-21T12:00 | 12212 | 200 | -51.5 | -80.6 | 237 | 25 |
| 2013-04-21T12:00 | 13000 | 177 | -54.4 | -82.7 | 246 | 20 |
| 2013-04-21T12:00 | 14000 | 151 | -57.9 | -85.3 | 248 | 20 |
| 2013-04-21T12:00 | 14050 | 150 | -58.1 | -85.5 | 248 | 20 |
| 2013-04-21T12:00 | 15000 | 129 | -63.3 | -89.3 | 257 | 19 |
| 2013-04-21T12:00 | 15432 | 120 | -65.8 | -91.2 | 262 | 18 |
| 2013-04-21T12:00 | 16000 | 109 | -68.3 | -90.9 | 270 | 16 |
| 2013-04-21T12:00 | 16524 | 100 | -71.4 | -93.3 | 291 | 12 |
| 2013-04-21T12:00 | 17000 | 92 | -72.5 | -94.2 | 284 | 10 |
| 2013-04-21T12:00 | 17146 | 90 | -72.9 | -94.4 | 298 | 12 |
| 2013-04-21T12:00 | 17834 | 80 | -73.9 | -93.7 | 336 | 10 |
| 2013-04-21T12:00 | 18000 | 78 | -74.2 | -93.9 | 344 | 9 |
| 2013-04-21T12:00 | 18211 | 75 | -72.6 | -92.6 | 326 | 8 |
| 2013-04-21T12:00 | 18618 | 70 | -72.3 | -94.0 | 314 | 3 |
| 2013-04-21T12:00 | 19000 | 66 | -70.2 | -92.3 | 340 | 5 |
| 2013-04-21T12:00 | 19535 | 60 | -68.7 | -91.2 | 358 | 7 |
| 2013-04-21T12:00 | 20000 | 56 | -66.2 | -89.2 | 122 | 6 |
| 2013-04-21T12:00 | 20636 | 50 | -65.9 | -91.3 | 258 | 4 |
| 2013-04-21T12:00 | 22000 | 40 | -63.4 | -89.4 | 83 | 3 |
| 2013-04-21T12:00 | 22001 | 40 | -63.4 | -89.4 | 83 | 3 |
| 2013-04-22T00:00 | 1377 | 860 | 18.5 | -7.0 | 340 | 1 |
| 2013-04-22T00:00 | 1478 | 850 | 25.8 | -8.1 | 263 | 5 |
| 2013-04-22T00:00 | 1500 | 848 | 25.7 | -9.5 | 269 | 5 |
| 2013-04-22T00:00 | 2000 | 801 | 21.6 | -10.0 | 259 | 6 |
| 2013-04-22T00:00 | 2006 | 800 | 21.0 | -10.0 | 25 | 5 |
| 2013-04-22T00:00 | 2279 | 775 | 18.9 | -10.1 | 248 | 5 |
| 2013-04-22T00:00 | 2500 | 755 | 16.8 | -10.8 | 247 | 5 |
| 2013-04-22T00:00 | 3000 | 712 | 11.9 | -11.7 | 247 | 5 |
| 2013-04-22T00:00 | 3139 | 700 | 10.6 | -11.4 | 247 | 5 |
| 2013-04-22T00:00 | 4000 | 630 | 2.2 | -13.6 | 237 | 5 |
| 2013-04-22T00:00 | 4392 | 600 | -1.7 | -13.5 | 236 | 6 |
| 2013-04-22T00:00 | 5000 | 556 | -6.4 | -26.8 | 242 | 6 |
| 2013-04-22T00:00 | 5500 | 521 | -9.7 | -34.7 | 255 | 6 |
| 2013-04-22T00:00 | 5813 | 500 | -11.2 | -43.6 | 245 | 9 |
| 2013-04-22T00:00 | 6000 | 488 | -12.1 | -46.3 | 251 | 10 |
| 2013-04-22T00:00 | 7000 | 427 | -20.5 | -46.4 | 267 | 12 |
| 2013-04-22T00:00 | 7484 | 400 | -23.5 | -51.3 | 247 | 15 |
| 2013-04-22T00:00 | 8000 | 373 | -27.3 | -49.0 | 236 | 21 |
| 2013-04-22T00:00 | 9000 | 324 | -35.5 | -51.6 | 247 | 25 |
| 2013-04-22T00:00 | 9519 | 300 | -39.8 | -55.3 | 248 | 27 |
| 2013-04-22T00:00 | 10000 | 279 | -43.8 | -53.7 | 246 | 27 |
| 2013-04-22T00:00 | 10738 | 250 | -48.9 | -54.0 | 227 | 33 |
| 2013-04-22T00:00 | 11000 | 240 | -50.2 | -60.3 | 232 | 29 |
| 2013-04-22T00:00 | 12000 | 206 | -48.4 | -78.3 | 243 | 19 |
| 2013-04-22T00:00 | 12204 | 200 | -49.7 | -79.2 | 244 | 18 |
| 2013-04-22T00:00 | 13000 | 177 | -54.0 | -86.6 | 234 | 21 |
| 2013-04-22T00:00 | 14000 | 151 | -59.3 | -86.3 | 249 | 20 |
| 2013-04-22T00:00 | 14046 | 150 | -59.7 | -86.7 | 250 | 21 |
| 2013-04-22T00:00 | 15000 | 129 | -63.8 | -89.7 | 257 | 17 |
| 2013-04-22T00:00 | 15420 | 120 | -65.7 | -91.1 | 267 | 19 |
| 2013-04-22T00:00 | 16000 | 109 | -68.8 | -93.5 | 262 | 21 |
| 2013-04-22T00:00 | 16516 | 100 | -70.0 | -94.4 | 291 | 16 |
| 2013-04-22T00:00 | 17000 | 92 | -71.4 | -93.3 | 299 | 15 |
| 2013-04-22T00:00 | 17139 | 90 | -71.9 | -93.6 | 301 | 13 |
| 2013-04-22T00:00 | 17831 | 80 | -73.6 | -95.0 | 328 | 11 |
| 2013-04-22T00:00 | 18000 | 78 | -73.9 | -95.2 | 329 | 8 |
| 2013-04-22T00:00 | 18208 | 75 | -74.2 | -95.4 | 26 | 5 |
| 2013-04-22T00:00 | 18608 | 70 | -75.6 | -95.1 | 183 | 2 |
| 2013-04-22T00:00 | 19000 | 66 | -69.0 | -89.8 | 336 | 6 |
| 2013-04-22T00:00 | 19522 | 60 | -68.8 | -91.2 | 128 | 5 |
| 2013-04-22T00:00 | 20000 | 55 | -66.2 | -89.2 | 338 | 7 |
| 2013-04-22T00:00 | 20629 | 50 | -63.2 | -89.3 | 130 | 10 |
| 2013-04-22T00:00 | 22000 | 40 | -59.0 | -90.1 | 199 | 8 |
| 2013-04-22T00:00 | 22006 | 40 | -58.9 | -90.0 | 200 | 8 |
| 2013-04-22T00:00 | 23810 | 30 | -55.2 | -87.5 | 28 | 8 |
| 2013-04-22T00:00 | 24000 | 29 | -55.5 | -87.6 | 83 | 4 |
| 2013-04-22T00:00 | 24981 | 25 | -53.0 | -85.9 | 67 | 3 |
| 2013-04-22T00:00 | 25000 | 25 | -53.0 | -85.9 | 80 | 3 |
| 2013-04-22T12:00 | 1377 | 859 | 26.8 | 8.8 | 180 | 4 |
| 2013-04-22T12:00 | 1472 | 850 | 24.3 | 3.6 | 193 | 6 |
| 2013-04-22T12:00 | 1500 | 847 | 23.9 | 3.3 | 192 | 6 |
| 2013-04-22T12:00 | 1997 | 800 | 18.0 | 2.0 | 21 | 5 |
| 2013-04-22T12:00 | 2000 | 800 | 18.9 | 2.8 | 213 | 5 |
| 2013-04-22T12:00 | 2268 | 775 | 16.4 | 1.0 | 235 | 4 |
| 2013-04-22T12:00 | 2500 | 754 | 15.2 | -6.3 | 244 | 5 |
| 2013-04-22T12:00 | 3000 | 711 | 10.9 | -9.9 | 279 | 6 |
| 2013-04-22T12:00 | 3124 | 700 | 9.7 | -10.4 | 278 | 5 |
| 2013-04-22T12:00 | 4000 | 629 | 1.3 | -12.4 | 271 | 5 |
| 2013-04-22T12:00 | 4375 | 600 | -2.5 | -12.8 | 273 | 4 |
| 2013-04-22T12:00 | 5000 | 554 | -6.3 | -36.6 | 243 | 8 |
| 2013-04-22T12:00 | 5500 | 520 | -10.1 | -42.8 | 249 | 11 |
| 2013-04-22T12:00 | 5795 | 500 | -11.8 | -39.6 | 261 | 13 |
| 2013-04-22T12:00 | 6000 | 487 | -13.0 | -44.9 | 261 | 13 |
| 2013-04-22T12:00 | 7000 | 426 | -20.7 | -49.1 | 264 | 12 |
| 2013-04-22T12:00 | 7463 | 400 | -23.9 | -50.3 | 270 | 13 |
| 2013-04-22T12:00 | 8000 | 371 | -28.4 | -53.8 | 262 | 11 |
| 2013-04-22T12:00 | 9000 | 322 | -37.5 | -56.7 | 261 | 12 |
| 2013-04-22T12:00 | 9487 | 300 | -41.1 | -57.9 | 263 | 15 |
| 2013-04-22T12:00 | 10000 | 278 | -45.3 | -61.5 | 255 | 16 |
| 2013-04-22T12:00 | 10707 | 250 | -45.1 | -71.1 | 267 | 22 |
| 2013-04-22T12:00 | 11000 | 239 | -47.4 | -72.9 | 272 | 20 |
| 2013-04-22T12:00 | 12000 | 205 | -50.6 | -77.2 | 247 | 23 |
| 2013-04-22T12:00 | 12171 | 200 | -50.8 | -80.1 | 253 | 25 |
| 2013-04-22T12:00 | 13000 | 176 | -53.5 | -82.0 | 261 | 23 |
| 2013-04-22T12:00 | 14000 | 150 | -58.4 | -89.7 | 246 | 28 |
| 2013-04-22T12:00 | 14014 | 150 | -58.6 | -89.9 | 246 | 29 |
| 2013-04-22T12:00 | 15000 | 128 | -62.4 | -92.5 | 255 | 25 |
| 2013-04-22T12:00 | 15396 | 120 | -65.4 | -94.7 | 250 | 29 |
| 2013-04-22T12:00 | 16000 | 109 | -67.5 | -92.5 | 268 | 23 |
| 2013-04-22T12:00 | 16494 | 100 | -67.5 | -92.5 | 282 | 15 |
| 2013-04-22T12:00 | 17000 | 92 | -70.1 | -94.5 | 259 | 7 |
| 2013-04-22T12:00 | 17125 | 90 | -71.0 | -95.1 | 253 | 7 |
| 2013-04-22T12:00 | 17812 | 80 | -75.8 | -96.7 | 290 | 9 |
| 2013-04-22T12:00 | 18000 | 77 | -75.4 | -96.4 | 305 | 11 |
| 2013-04-22T12:00 | 18186 | 75 | -75.3 | -96.3 | 318 | 12 |
| 2013-04-22T12:00 | 18592 | 70 | -70.0 | -92.2 | 98 | 4 |
| 2013-04-22T12:00 | 19000 | 65 | -71.1 | -93.0 | 162 | 8 |
| 2013-04-22T12:00 | 19505 | 60 | -71.1 | -93.0 | 193 | 6 |
| 2013-04-22T12:00 | 20000 | 55 | -67.2 | -92.3 | 226 | 3 |
| 2013-04-22T12:00 | 20602 | 50 | -64.2 | -93.9 | 269 | 7 |
| 2013-04-22T12:00 | 21981 | 40 | -61.2 | -91.7 | 240 | 3 |
| 2013-04-22T12:00 | 22000 | 40 | -61.3 | -91.7 | 249 | 3 |
| 2013-04-22T12:00 | 23782 | 30 | -58.8 | -90.0 | 117 | 8 |
| 2013-04-22T12:00 | 24000 | 29 | -58.2 | -89.5 | 129 | 9 |
| 2013-04-22T12:00 | 24937 | 25 | -54.9 | -87.2 | 125 | 4 |
| 2013-04-22T12:00 | 25000 | 25 | -55.0 | -87.3 | 115 | 5 |
| 2013-04-23T00:00 | 1377 | 858 | 21.2 | -1.3 | 300 | 2 |
| 2013-04-23T00:00 | 1461 | 850 | 23.9 | -4.3 | 306 | 4 |
| 2013-04-23T00:00 | 1500 | 846 | 23.5 | -5.4 | 303 | 5 |
| 2013-04-23T00:00 | 1986 | 800 | 20.0 | -9.0 | 29 | 9 |
| 2013-04-23T00:00 | 2000 | 799 | 19.8 | -9.3 | 297 | 10 |
| 2013-04-23T00:00 | 2257 | 775 | 17.4 | -8.6 | 297 | 9 |
| 2013-04-23T00:00 | 2500 | 753 | 15.2 | -6.9 | 283 | 8 |
| 2013-04-23T00:00 | 3000 | 710 | 10.4 | -7.7 | 267 | 7 |
| 2013-04-23T00:00 | 3113 | 700 | 9.3 | -8.3 | 263 | 7 |
| 2013-04-23T00:00 | 4000 | 628 | 1.0 | -10.4 | 220 | 9 |
| 2013-04-23T00:00 | 4363 | 600 | -2.5 | -10.7 | 232 | 8 |
| 2013-04-23T00:00 | 5000 | 553 | -8.6 | -15.8 | 214 | 8 |
| 2013-04-23T00:00 | 5500 | 519 | -10.6 | -36.4 | 263 | 14 |
| 2013-04-23T00:00 | 5778 | 500 | -12.5 | -34.6 | 246 | 12 |
| 2013-04-23T00:00 | 6000 | 486 | -13.2 | -40.7 | 251 | 13 |
| 2013-04-23T00:00 | 7000 | 425 | -21.3 | -34.0 | 255 | 15 |
| 2013-04-23T00:00 | 7447 | 400 | -22.7 | -40.1 | 261 | 21 |
| 2013-04-23T00:00 | 8000 | 371 | -27.4 | -42.3 | 251 | 23 |
| 2013-04-23T00:00 | 9000 | 322 | -36.4 | -42.0 | 258 | 25 |
| 2013-04-23T00:00 | 9481 | 300 | -40.2 | -44.9 | 259 | 30 |
| 2013-04-23T00:00 | 10000 | 278 | -44.0 | -52.6 | 257 | 33 |
| 2013-04-23T00:00 | 10701 | 250 | -48.0 | -65.5 | 252 | 34 |
| 2013-04-23T00:00 | 11000 | 239 | -49.8 | -68.3 | 247 | 31 |
| 2013-04-23T00:00 | 12000 | 205 | -53.8 | -73.2 | 242 | 38 |
| 2013-04-23T00:00 | 12145 | 200 | -54.0 | -75.3 | 243 | 41 |
| 2013-04-23T00:00 | 13000 | 175 | -53.8 | -82.3 | 245 | 41 |
| 2013-04-23T00:00 | 13982 | 150 | -57.5 | -89.1 | 245 | 41 |
| 2013-04-23T00:00 | 14000 | 150 | -57.5 | -89.1 | 246 | 41 |
| 2013-04-23T00:00 | 15000 | 128 | -60.1 | -90.9 | 265 | 23 |
| 2013-04-23T00:00 | 15377 | 120 | -61.8 | -92.1 | 248 | 17 |
| 2013-04-23T00:00 | 16000 | 108 | -64.5 | -94.1 | 232 | 17 |
| 2013-04-23T00:00 | 16490 | 100 | -67.8 | -96.5 | 233 | 13 |
| 2013-04-23T00:00 | 17000 | 92 | -71.7 | -95.7 | 238 | 17 |
| 2013-04-23T00:00 | 17117 | 90 | -72.3 | -96.1 | 244 | 16 |
| 2013-04-23T00:00 | 17805 | 80 | -75.0 | -96.1 | 225 | 16 |
| 2013-04-23T00:00 | 18000 | 77 | -74.6 | -95.8 | 241 | 14 |
| 2013-04-23T00:00 | 18180 | 75 | -74.6 | -95.8 | 242 | 10 |
| 2013-04-23T00:00 | 18581 | 70 | -74.4 | -94.1 | 276 | 8 |
| 2013-04-23T00:00 | 19000 | 65 | -70.6 | -91.0 | 286 | 7 |
| 2013-04-23T00:00 | 19496 | 60 | -67.4 | -90.1 | 305 | 6 |
| 2013-04-23T00:00 | 20000 | 55 | -63.7 | -89.6 | 198 | 6 |
| 2013-04-23T00:00 | 20613 | 50 | -63.5 | -93.4 | 122 | 2 |
| 2013-04-23T00:00 | 21989 | 40 | -61.9 | -92.2 | 167 | 3 |
| 2013-04-23T00:00 | 22000 | 40 | -62.0 | -92.3 | 163 | 3 |
| 2013-04-23T12:00 | 1377 | 858 | 28.5 | -4.8 | 260 | 3 |
| 2013-04-23T12:00 | 1455 | 850 | 25.3 | -9.8 | 237 | 9 |
| 2013-04-23T12:00 | 1500 | 846 | 25.0 | -10.0 | 236 | 9 |
| 2013-04-23T12:00 | 1981 | 800 | 20.0 | -11.0 | 21 | 6 |
| 2013-04-23T12:00 | 2000 | 798 | 20.2 | -11.1 | 210 | 7 |
| 2013-04-23T12:00 | 2253 | 775 | 17.7 | -11.0 | 215 | 6 |
| 2013-04-23T12:00 | 2500 | 753 | 15.3 | -11.2 | 230 | 6 |
| 2013-04-23T12:00 | 3000 | 709 | 10.4 | -12.2 | 239 | 7 |
| 2013-04-23T12:00 | 3109 | 700 | 9.3 | -12.5 | 241 | 7 |
| 2013-04-23T12:00 | 4000 | 628 | 0.7 | -14.1 | 229 | 4 |
| 2013-04-23T12:00 | 4357 | 600 | -2.9 | -14.9 | 216 | 5 |
| 2013-04-23T12:00 | 5000 | 553 | -8.7 | -18.0 | 197 | 6 |
| 2013-04-23T12:00 | 5500 | 518 | -12.6 | -27.0 | 232 | 11 |
| 2013-04-23T12:00 | 5769 | 500 | -14.2 | -31.4 | 237 | 12 |
| 2013-04-23T12:00 | 6000 | 485 | -15.8 | -36.0 | 248 | 16 |
| 2013-04-23T12:00 | 7000 | 424 | -21.9 | -27.7 | 233 | 23 |
| 2013-04-23T12:00 | 7428 | 400 | -26.1 | -29.2 | 228 | 23 |
| 2013-04-23T12:00 | 8000 | 369 | -29.7 | -48.8 | 232 | 25 |
| 2013-04-23T12:00 | 9000 | 320 | -36.8 | -58.4 | 237 | 34 |
| 2013-04-23T12:00 | 9451 | 300 | -40.3 | -61.3 | 236 | 37 |
| 2013-04-23T12:00 | 10000 | 277 | -44.6 | -66.7 | 235 | 37 |
| 2013-04-23T12:00 | 10668 | 250 | -49.8 | -66.4 | 231 | 36 |
| 2013-04-23T12:00 | 11000 | 238 | -51.0 | -66.8 | 232 | 36 |
| 2013-04-23T12:00 | 12000 | 203 | -56.0 | -73.4 | 236 | 34 |
| 2013-04-23T12:00 | 12106 | 200 | -56.1 | -73.6 | 235 | 36 |
| 2013-04-23T12:00 | 13000 | 174 | -56.5 | -79.9 | 241 | 46 |
| 2013-04-23T12:00 | 13932 | 150 | -56.8 | -84.5 | 254 | 42 |
| 2013-04-23T12:00 | 14000 | 148 | -57.1 | -88.8 | 254 | 41 |
| 2013-04-23T12:00 | 15000 | 127 | -56.9 | -88.6 | 241 | 26 |
| 2013-04-23T12:00 | 15344 | 120 | -60.1 | -90.9 | 237 | 24 |
| 2013-04-23T12:00 | 16000 | 108 | -65.8 | -95.0 | 226 | 25 |
| 2013-04-23T12:00 | 16456 | 100 | -69.7 | -94.2 | 231 | 25 |
| 2013-04-23T12:00 | 17000 | 91 | -71.6 | -95.6 | 236 | 25 |
| 2013-04-23T12:00 | 17082 | 90 | -71.0 | -95.1 | 242 | 25 |
| 2013-04-23T12:00 | 17782 | 80 | -68.6 | -93.3 | 274 | 10 |
| 2013-04-23T12:00 | 18000 | 77 | -68.9 | -93.5 | 235 | 8 |
| 2013-04-23T12:00 | 18169 | 75 | -69.8 | -94.2 | 218 | 8 |
| 2013-04-23T12:00 | 18578 | 70 | -70.1 | -94.5 | 235 | 12 |
| 2013-04-23T12:00 | 19000 | 65 | -69.5 | -94.0 | 198 | 5 |
| 2013-04-23T12:00 | 19500 | 60 | -68.6 | -93.3 | 214 | 11 |
| 2013-04-23T12:00 | 20000 | 55 | -64.2 | -90.0 | ||
| 2013-04-23T12:00 | 20615 | 50 | -61.2 | -91.7 | ||
| 2013-04-23T12:00 | 22000 | 40 | -60.0 | -90.8 | 135 | 2 |
| 2013-04-23T12:00 | 22001 | 40 | -60.0 | -90.8 | 135 | 2 |
| 2013-04-23T12:00 | 23822 | 30 | -57.0 | -88.7 | 143 | 10 |
| 2013-04-23T12:00 | 24000 | 29 | -57.5 | -89.0 | 144 | 12 |
| 2013-04-24T00:00 | 1377 | 858 | 20.9 | -5.0 | 170 | 3 |
| 2013-04-24T00:00 | 1454 | 850 | 24.4 | -7.9 | 197 | 6 |
| 2013-04-24T00:00 | 1500 | 845 | 24.5 | -7.8 | 202 | 8 |
| 2013-04-24T00:00 | 1979 | 800 | 21.0 | -8.0 | 21 | 11 |
| 2013-04-24T00:00 | 2000 | 798 | 21.0 | -8.4 | 213 | 11 |
| 2013-04-24T00:00 | 2252 | 775 | 18.7 | -8.4 | 222 | 13 |
| 2013-04-24T00:00 | 2500 | 753 | 16.4 | -8.6 | 229 | 13 |
| 2013-04-24T00:00 | 3000 | 709 | 11.6 | -9.3 | 240 | 15 |
| 2013-04-24T00:00 | 3112 | 700 | 10.6 | -9.7 | 240 | 14 |
| 2013-04-24T00:00 | 4000 | 628 | 2.0 | -11.2 | 245 | 16 |
| 2013-04-24T00:00 | 4366 | 600 | -1.5 | -11.6 | 242 | 16 |
| 2013-04-24T00:00 | 5000 | 554 | -7.7 | -12.9 | 241 | 16 |
| 2013-04-24T00:00 | 5500 | 519 | -12.6 | -13.9 | 246 | 17 |
| 2013-04-24T00:00 | 5781 | 500 | -14.9 | -15.1 | 245 | 17 |
| 2013-04-24T00:00 | 6000 | 486 | -15.6 | -24.1 | 250 | 18 |
| 2013-04-24T00:00 | 7000 | 425 | -19.2 | -37.6 | 259 | 19 |
| 2013-04-24T00:00 | 7455 | 400 | -22.9 | -38.9 | 267 | 21 |
| 2013-04-24T00:00 | 8000 | 371 | -27.5 | -43.3 | 266 | 21 |
Only the first 2000 rows were shown. To view the complete dataset, download it as tab-delimited text. You can still view the full matrix in your browser, but be aware that this may crash the browser due to the huge size.
